<?xml version='1.0' encoding='UTF-8'?>
<gpx version="1.1" creator="https://www.komoot.de" xmlns="http://www.topografix.com/GPX/1/1" xmlns:xsi="http://www.w3.org/2001/XMLSchema-instance" xsi:schemaLocation="http://www.topografix.com/GPX/1/1 http://www.topografix.com/GPX/1/1/gpx.xsd">
  <metadata>
    <name>Jahrestour 2024 abgefahren 28.12.24 nachgebessert</name>
    <author>
      <link href="https://www.komoot.de">
        <text>komoot</text>
        <type>text/html</type>
      </link>
    </author>
  </metadata>
  <trk>
    <name>Jahrestour 2024 abgefahren 28.12.24 nachgebessert</name>
    <trkseg>
      <trkpt lat="51.892378" lon="8.295951">
        <ele>69.049622</ele>
        <time>2024-12-28T15:52:14.790Z</time>
      </trkpt>
      <trkpt lat="51.892178" lon="8.296027">
        <ele>69.049622</ele>
        <time>2024-12-28T15:52:20.102Z</time>
      </trkpt>
      <trkpt lat="51.892363" lon="8.296163">
        <ele>69.049622</ele>
        <time>2024-12-28T15:52:25.355Z</time>
      </trkpt>
      <trkpt lat="51.892297" lon="8.296030">
        <ele>69.049622</ele>
        <time>2024-12-28T15:52:28.079Z</time>
      </trkpt>
      <trkpt lat="51.892051" lon="8.296347">
        <ele>69.049622</ele>
        <time>2024-12-28T15:52:36.207Z</time>
      </trkpt>
      <trkpt lat="51.891946" lon="8.296250">
        <ele>69.045483</ele>
        <time>2024-12-28T15:52:39.336Z</time>
      </trkpt>
      <trkpt lat="51.891875" lon="8.296313">
        <ele>69.038750</ele>
        <time>2024-12-28T15:52:41.635Z</time>
      </trkpt>
      <trkpt lat="51.891794" lon="8.296385">
        <ele>69.031065</ele>
        <time>2024-12-28T15:52:44.307Z</time>
      </trkpt>
      <trkpt lat="51.891577" lon="8.296251">
        <ele>69.011747</ele>
        <time>2024-12-28T15:52:50.911Z</time>
      </trkpt>
      <trkpt lat="51.891540" lon="8.296171">
        <ele>69.006615</ele>
        <time>2024-12-28T15:52:52.662Z</time>
      </trkpt>
      <trkpt lat="51.891503" lon="8.296211">
        <ele>69.002915</ele>
        <time>2024-12-28T15:52:53.600Z</time>
      </trkpt>
      <trkpt lat="51.889311" lon="8.298591">
        <ele>68.883301</ele>
        <time>2024-12-28T15:53:52.219Z</time>
      </trkpt>
      <trkpt lat="51.889246" lon="8.298607">
        <ele>68.882517</ele>
        <time>2024-12-28T15:53:53.679Z</time>
      </trkpt>
      <trkpt lat="51.889212" lon="8.298934">
        <ele>68.880078</ele>
        <time>2024-12-28T15:53:58.213Z</time>
      </trkpt>
      <trkpt lat="51.889512" lon="8.305553">
        <ele>68.375763</ele>
        <time>2024-12-28T15:55:28.384Z</time>
      </trkpt>
      <trkpt lat="51.889543" lon="8.305693">
        <ele>68.326794</ele>
        <time>2024-12-28T15:55:30.325Z</time>
      </trkpt>
      <trkpt lat="51.889525" lon="8.305732">
        <ele>68.310761</ele>
        <time>2024-12-28T15:55:30.958Z</time>
      </trkpt>
      <trkpt lat="51.889520" lon="8.308284">
        <ele>67.577952</ele>
        <time>2024-12-28T15:56:03.284Z</time>
      </trkpt>
      <trkpt lat="51.889552" lon="8.308555">
        <ele>67.554753</ele>
        <time>2024-12-28T15:56:06.756Z</time>
      </trkpt>
      <trkpt lat="51.889611" lon="8.308800">
        <ele>67.532641</ele>
        <time>2024-12-28T15:56:10.142Z</time>
      </trkpt>
      <trkpt lat="51.889709" lon="8.309073">
        <ele>67.506086</ele>
        <time>2024-12-28T15:56:14.315Z</time>
      </trkpt>
      <trkpt lat="51.890183" lon="8.309977">
        <ele>67.406351</ele>
        <time>2024-12-28T15:56:31.301Z</time>
      </trkpt>
      <trkpt lat="51.890746" lon="8.310869">
        <ele>67.210272</ele>
        <time>2024-12-28T15:56:49.784Z</time>
      </trkpt>
      <trkpt lat="51.890830" lon="8.311336">
        <ele>67.117980</ele>
        <time>2024-12-28T15:57:01.118Z</time>
      </trkpt>
      <trkpt lat="51.891088" lon="8.315030">
        <ele>66.050951</ele>
        <time>2024-12-28T15:58:21.816Z</time>
      </trkpt>
      <trkpt lat="51.891077" lon="8.315149">
        <ele>66.007690</ele>
        <time>2024-12-28T15:58:24.429Z</time>
      </trkpt>
      <trkpt lat="51.891003" lon="8.315452">
        <ele>65.890535</ele>
        <time>2024-12-28T15:58:28.612Z</time>
      </trkpt>
      <trkpt lat="51.890685" lon="8.317667">
        <ele>65.662472</ele>
        <time>2024-12-28T15:59:19.692Z</time>
      </trkpt>
      <trkpt lat="51.893120" lon="8.318516">
        <ele>66.388595</ele>
        <time>2024-12-28T16:00:55.582Z</time>
      </trkpt>
      <trkpt lat="51.893725" lon="8.318260">
        <ele>67.086553</ele>
        <time>2024-12-28T16:01:21.723Z</time>
      </trkpt>
      <trkpt lat="51.893725" lon="8.318260">
        <ele>67.086553</ele>
        <time>2024-12-28T16:01:21.734Z</time>
      </trkpt>
      <trkpt lat="51.893805" lon="8.318281">
        <ele>67.177015</ele>
        <time>2024-12-28T16:01:23.830Z</time>
      </trkpt>
      <trkpt lat="51.893870" lon="8.318424">
        <ele>67.299356</ele>
        <time>2024-12-28T16:01:26.665Z</time>
      </trkpt>
      <trkpt lat="51.893943" lon="8.318517">
        <ele>67.403008</ele>
        <time>2024-12-28T16:01:29.066Z</time>
      </trkpt>
      <trkpt lat="51.894025" lon="8.318625">
        <ele>67.520958</ele>
        <time>2024-12-28T16:01:31.799Z</time>
      </trkpt>
      <trkpt lat="51.894107" lon="8.318739">
        <ele>67.641558</ele>
        <time>2024-12-28T16:01:34.593Z</time>
      </trkpt>
      <trkpt lat="51.894200" lon="8.318825">
        <ele>67.761081</ele>
        <time>2024-12-28T16:01:37.362Z</time>
      </trkpt>
      <trkpt lat="51.894304" lon="8.318853">
        <ele>67.878759</ele>
        <time>2024-12-28T16:01:40.088Z</time>
      </trkpt>
      <trkpt lat="51.894424" lon="8.318861">
        <ele>68.012819</ele>
        <time>2024-12-28T16:01:43.195Z</time>
      </trkpt>
      <trkpt lat="51.894520" lon="8.318862">
        <ele>68.119978</ele>
        <time>2024-12-28T16:01:45.677Z</time>
      </trkpt>
      <trkpt lat="51.894570" lon="8.319189">
        <ele>68.356296</ele>
        <time>2024-12-28T16:01:51.054Z</time>
      </trkpt>
      <trkpt lat="51.894551" lon="8.319353">
        <ele>68.480244</ele>
        <time>2024-12-28T16:01:53.717Z</time>
      </trkpt>
      <trkpt lat="51.894543" lon="8.319559">
        <ele>68.633564</ele>
        <time>2024-12-28T16:01:57.011Z</time>
      </trkpt>
      <trkpt lat="51.894536" lon="8.319718">
        <ele>68.751970</ele>
        <time>2024-12-28T16:01:59.555Z</time>
      </trkpt>
      <trkpt lat="51.894522" lon="8.319865">
        <ele>68.862455</ele>
        <time>2024-12-28T16:02:01.929Z</time>
      </trkpt>
      <trkpt lat="51.894541" lon="8.320101">
        <ele>69.039242</ele>
        <time>2024-12-28T16:02:05.736Z</time>
      </trkpt>
      <trkpt lat="51.894402" lon="8.320536">
        <ele>69.403109</ele>
        <time>2024-12-28T16:02:14.777Z</time>
      </trkpt>
      <trkpt lat="51.893870" lon="8.321787">
        <ele>70.476601</ele>
        <time>2024-12-28T16:02:40.365Z</time>
      </trkpt>
      <trkpt lat="51.893840" lon="8.321844">
        <ele>70.487842</ele>
        <time>2024-12-28T16:02:41.547Z</time>
      </trkpt>
      <trkpt lat="51.893742" lon="8.321925">
        <ele>70.514591</ele>
        <time>2024-12-28T16:02:45.953Z</time>
      </trkpt>
      <trkpt lat="51.893475" lon="8.321936">
        <ele>70.579532</ele>
        <time>2024-12-28T16:02:56.590Z</time>
      </trkpt>
      <trkpt lat="51.893230" lon="8.321895">
        <ele>70.639420</ele>
        <time>2024-12-28T16:03:06.084Z</time>
      </trkpt>
      <trkpt lat="51.892545" lon="8.321671">
        <ele>70.809333</ele>
        <time>2024-12-28T16:03:31.837Z</time>
      </trkpt>
      <trkpt lat="51.891505" lon="8.321192">
        <ele>70.929645</ele>
        <time>2024-12-28T16:04:11.898Z</time>
      </trkpt>
      <trkpt lat="51.891756" lon="8.322256">
        <ele>70.959066</ele>
        <time>2024-12-28T16:04:37.924Z</time>
      </trkpt>
      <trkpt lat="51.892004" lon="8.323333">
        <ele>71.053076</ele>
        <time>2024-12-28T16:05:04.976Z</time>
      </trkpt>
      <trkpt lat="51.892034" lon="8.323390">
        <ele>71.064245</ele>
        <time>2024-12-28T16:05:06.744Z</time>
      </trkpt>
      <trkpt lat="51.892538" lon="8.325396">
        <ele>71.387134</ele>
        <time>2024-12-28T16:05:58.309Z</time>
      </trkpt>
      <trkpt lat="51.892837" lon="8.326627">
        <ele>71.425657</ele>
        <time>2024-12-28T16:06:29.318Z</time>
      </trkpt>
      <trkpt lat="51.893087" lon="8.327656">
        <ele>71.440661</ele>
        <time>2024-12-28T16:06:54.383Z</time>
      </trkpt>
      <trkpt lat="51.893833" lon="8.327560">
        <ele>71.405700</ele>
        <time>2024-12-28T16:07:21.781Z</time>
      </trkpt>
      <trkpt lat="51.893993" lon="8.327539">
        <ele>71.385974</ele>
        <time>2024-12-28T16:07:27.649Z</time>
      </trkpt>
      <trkpt lat="51.893996" lon="8.328200">
        <ele>71.335847</ele>
        <time>2024-12-28T16:07:42.575Z</time>
      </trkpt>
      <trkpt lat="51.894003" lon="8.329666">
        <ele>71.229123</ele>
        <time>2024-12-28T16:08:15.890Z</time>
      </trkpt>
      <trkpt lat="51.894051" lon="8.330069">
        <ele>71.236330</ele>
        <time>2024-12-28T16:08:25.281Z</time>
      </trkpt>
      <trkpt lat="51.894115" lon="8.330338">
        <ele>71.241393</ele>
        <time>2024-12-28T16:08:31.895Z</time>
      </trkpt>
      <trkpt lat="51.894016" lon="8.330592">
        <ele>71.246668</ele>
        <time>2024-12-28T16:08:38.808Z</time>
      </trkpt>
      <trkpt lat="51.893115" lon="8.331348">
        <ele>71.275540</ele>
        <time>2024-12-28T16:09:16.550Z</time>
      </trkpt>
      <trkpt lat="51.893055" lon="8.331434">
        <ele>71.277819</ele>
        <time>2024-12-28T16:09:19.531Z</time>
      </trkpt>
      <trkpt lat="51.892949" lon="8.331296">
        <ele>71.273860</ele>
        <time>2024-12-28T16:09:24.571Z</time>
      </trkpt>
      <trkpt lat="51.892854" lon="8.331364">
        <ele>71.266403</ele>
        <time>2024-12-28T16:09:28.426Z</time>
      </trkpt>
      <trkpt lat="51.892626" lon="8.330814">
        <ele>71.237043</ele>
        <time>2024-12-28T16:09:43.564Z</time>
      </trkpt>
      <trkpt lat="51.892169" lon="8.330267">
        <ele>71.196247</ele>
        <time>2024-12-28T16:10:04.524Z</time>
      </trkpt>
      <trkpt lat="51.891944" lon="8.329816">
        <ele>71.170548</ele>
        <time>2024-12-28T16:10:17.610Z</time>
      </trkpt>
      <trkpt lat="51.891718" lon="8.329174">
        <ele>71.137449</ele>
        <time>2024-12-28T16:10:34.389Z</time>
      </trkpt>
      <trkpt lat="51.891618" lon="8.328942">
        <ele>71.124561</ele>
        <time>2024-12-28T16:10:40.856Z</time>
      </trkpt>
      <trkpt lat="51.891333" lon="8.328373">
        <ele>71.091187</ele>
        <time>2024-12-28T16:10:57.564Z</time>
      </trkpt>
      <trkpt lat="51.891112" lon="8.327845">
        <ele>71.062132</ele>
        <time>2024-12-28T16:11:12.154Z</time>
      </trkpt>
      <trkpt lat="51.891033" lon="8.327605">
        <ele>71.049744</ele>
        <time>2024-12-28T16:11:18.339Z</time>
      </trkpt>
      <trkpt lat="51.890903" lon="8.327208">
        <ele>71.029276</ele>
        <time>2024-12-28T16:11:28.540Z</time>
      </trkpt>
      <trkpt lat="51.890625" lon="8.326620">
        <ele>70.891682</ele>
        <time>2024-12-28T16:11:45.266Z</time>
      </trkpt>
      <trkpt lat="51.890230" lon="8.325989">
        <ele>70.657905</ele>
        <time>2024-12-28T16:12:05.196Z</time>
      </trkpt>
      <trkpt lat="51.889188" lon="8.324874">
        <ele>70.323761</ele>
        <time>2024-12-28T16:12:49.485Z</time>
      </trkpt>
      <trkpt lat="51.889160" lon="8.324789">
        <ele>70.336344</ele>
        <time>2024-12-28T16:12:51.624Z</time>
      </trkpt>
      <trkpt lat="51.888783" lon="8.324776">
        <ele>70.416131</ele>
        <time>2024-12-28T16:12:59.933Z</time>
      </trkpt>
      <trkpt lat="51.889160" lon="8.324789">
        <ele>70.495919</ele>
        <time>2024-12-28T16:13:08.977Z</time>
      </trkpt>
      <trkpt lat="51.889271" lon="8.324762">
        <ele>70.519669</ele>
        <time>2024-12-28T16:13:11.822Z</time>
      </trkpt>
      <trkpt lat="51.889342" lon="8.324744">
        <ele>70.534874</ele>
        <time>2024-12-28T16:13:14.772Z</time>
      </trkpt>
      <trkpt lat="51.889661" lon="8.322741">
        <ele>70.685665</ele>
        <time>2024-12-28T16:14:06.818Z</time>
      </trkpt>
      <trkpt lat="51.889587" lon="8.322729">
        <ele>70.690011</ele>
        <time>2024-12-28T16:14:09.698Z</time>
      </trkpt>
      <trkpt lat="51.889971" lon="8.320393">
        <ele>70.488169</ele>
        <time>2024-12-28T16:15:03.091Z</time>
      </trkpt>
      <trkpt lat="51.889525" lon="8.320027">
        <ele>70.253229</ele>
        <time>2024-12-28T16:15:20.544Z</time>
      </trkpt>
      <trkpt lat="51.888984" lon="8.319494">
        <ele>69.955683</ele>
        <time>2024-12-28T16:15:43.212Z</time>
      </trkpt>
      <trkpt lat="51.888804" lon="8.319368">
        <ele>69.915527</ele>
        <time>2024-12-28T16:15:50.389Z</time>
      </trkpt>
      <trkpt lat="51.888610" lon="8.319237">
        <ele>69.957612</ele>
        <time>2024-12-28T16:15:58.176Z</time>
      </trkpt>
      <trkpt lat="51.888050" lon="8.318957">
        <ele>70.074966</ele>
        <time>2024-12-28T16:16:20.366Z</time>
      </trkpt>
      <trkpt lat="51.888012" lon="8.318941">
        <ele>70.082828</ele>
        <time>2024-12-28T16:16:21.894Z</time>
      </trkpt>
      <trkpt lat="51.887562" lon="8.318807">
        <ele>70.174447</ele>
        <time>2024-12-28T16:16:39.802Z</time>
      </trkpt>
      <trkpt lat="51.887465" lon="8.318817">
        <ele>70.193910</ele>
        <time>2024-12-28T16:16:43.650Z</time>
      </trkpt>
      <trkpt lat="51.887097" lon="8.318946">
        <ele>70.258320</ele>
        <time>2024-12-28T16:16:58.428Z</time>
      </trkpt>
      <trkpt lat="51.887041" lon="8.318943">
        <ele>70.256065</ele>
        <time>2024-12-28T16:17:00.604Z</time>
      </trkpt>
      <trkpt lat="51.886491" lon="8.318916">
        <ele>70.233923</ele>
        <time>2024-12-28T16:17:21.586Z</time>
      </trkpt>
      <trkpt lat="51.886358" lon="8.318890">
        <ele>70.228533</ele>
        <time>2024-12-28T16:17:26.581Z</time>
      </trkpt>
      <trkpt lat="51.886491" lon="8.318916">
        <ele>70.223142</ele>
        <time>2024-12-28T16:17:31.543Z</time>
      </trkpt>
      <trkpt lat="51.886665" lon="8.318026">
        <ele>70.199955</ele>
        <time>2024-12-28T16:17:52.478Z</time>
      </trkpt>
      <trkpt lat="51.886443" lon="8.317350">
        <ele>70.155344</ele>
        <time>2024-12-28T16:18:09.398Z</time>
      </trkpt>
      <trkpt lat="51.886002" lon="8.316358">
        <ele>70.011442</ele>
        <time>2024-12-28T16:18:36.744Z</time>
      </trkpt>
      <trkpt lat="51.885733" lon="8.315085">
        <ele>69.853059</ele>
        <time>2024-12-28T16:19:07.424Z</time>
      </trkpt>
      <trkpt lat="51.883324" lon="8.315751">
        <ele>70.052655</ele>
        <time>2024-12-28T16:20:38.549Z</time>
      </trkpt>
      <trkpt lat="51.882089" lon="8.316092">
        <ele>70.267931</ele>
        <time>2024-12-28T16:21:26.290Z</time>
      </trkpt>
      <trkpt lat="51.882036" lon="8.316274">
        <ele>70.304378</ele>
        <time>2024-12-28T16:21:31.115Z</time>
      </trkpt>
      <trkpt lat="51.881937" lon="8.316923">
        <ele>70.425457</ele>
        <time>2024-12-28T16:21:47.238Z</time>
      </trkpt>
      <trkpt lat="51.881882" lon="8.316897">
        <ele>70.442268</ele>
        <time>2024-12-28T16:21:48.615Z</time>
      </trkpt>
      <trkpt lat="51.881390" lon="8.318531">
        <ele>70.771542</ele>
        <time>2024-12-28T16:22:32.091Z</time>
      </trkpt>
      <trkpt lat="51.881390" lon="8.318531">
        <ele>70.771542</ele>
        <time>2024-12-28T16:22:32.093Z</time>
      </trkpt>
      <trkpt lat="51.881381" lon="8.318524">
        <ele>70.774472</ele>
        <time>2024-12-28T16:22:32.351Z</time>
      </trkpt>
      <trkpt lat="51.881335" lon="8.318714">
        <ele>70.792610</ele>
        <time>2024-12-28T16:22:35.609Z</time>
      </trkpt>
      <trkpt lat="51.881278" lon="8.318832">
        <ele>70.803864</ele>
        <time>2024-12-28T16:22:38.001Z</time>
      </trkpt>
      <trkpt lat="51.881184" lon="8.318764">
        <ele>70.816389</ele>
        <time>2024-12-28T16:22:40.663Z</time>
      </trkpt>
      <trkpt lat="51.881089" lon="8.318725">
        <ele>70.828313</ele>
        <time>2024-12-28T16:22:43.197Z</time>
      </trkpt>
      <trkpt lat="51.880999" lon="8.318688">
        <ele>70.839611</ele>
        <time>2024-12-28T16:22:45.599Z</time>
      </trkpt>
      <trkpt lat="51.880899" lon="8.318649">
        <ele>70.852126</ele>
        <time>2024-12-28T16:22:48.258Z</time>
      </trkpt>
      <trkpt lat="51.880800" lon="8.318609">
        <ele>70.864540</ele>
        <time>2024-12-28T16:22:50.897Z</time>
      </trkpt>
      <trkpt lat="51.880607" lon="8.318532">
        <ele>70.888724</ele>
        <time>2024-12-28T16:22:56.037Z</time>
      </trkpt>
      <trkpt lat="51.880503" lon="8.318485">
        <ele>70.901861</ele>
        <time>2024-12-28T16:22:58.829Z</time>
      </trkpt>
      <trkpt lat="51.880392" lon="8.318426">
        <ele>70.916075</ele>
        <time>2024-12-28T16:23:01.850Z</time>
      </trkpt>
      <trkpt lat="51.880301" lon="8.318392">
        <ele>70.927438</ele>
        <time>2024-12-28T16:23:04.265Z</time>
      </trkpt>
      <trkpt lat="51.880182" lon="8.318329">
        <ele>70.942671</ele>
        <time>2024-12-28T16:23:07.502Z</time>
      </trkpt>
      <trkpt lat="51.880078" lon="8.318300">
        <ele>70.955511</ele>
        <time>2024-12-28T16:23:10.231Z</time>
      </trkpt>
      <trkpt lat="51.879987" lon="8.318238">
        <ele>70.967522</ele>
        <time>2024-12-28T16:23:12.784Z</time>
      </trkpt>
      <trkpt lat="51.879932" lon="8.318084">
        <ele>70.980885</ele>
        <time>2024-12-28T16:23:15.624Z</time>
      </trkpt>
      <trkpt lat="51.879831" lon="8.318025">
        <ele>70.993949</ele>
        <time>2024-12-28T16:23:18.401Z</time>
      </trkpt>
      <trkpt lat="51.879743" lon="8.317982">
        <ele>70.999705</ele>
        <time>2024-12-28T16:23:20.777Z</time>
      </trkpt>
      <trkpt lat="51.879643" lon="8.317900">
        <ele>71.002794</ele>
        <time>2024-12-28T16:23:23.676Z</time>
      </trkpt>
      <trkpt lat="51.879565" lon="8.317778">
        <ele>71.005782</ele>
        <time>2024-12-28T16:23:26.480Z</time>
      </trkpt>
      <trkpt lat="51.879479" lon="8.317680">
        <ele>71.008680</ele>
        <time>2024-12-28T16:23:29.199Z</time>
      </trkpt>
      <trkpt lat="51.879362" lon="8.317628">
        <ele>71.012023</ele>
        <time>2024-12-28T16:23:32.336Z</time>
      </trkpt>
      <trkpt lat="51.879283" lon="8.317542">
        <ele>71.014646</ele>
        <time>2024-12-28T16:23:34.797Z</time>
      </trkpt>
      <trkpt lat="51.879198" lon="8.317491">
        <ele>71.017145</ele>
        <time>2024-12-28T16:23:37.141Z</time>
      </trkpt>
      <trkpt lat="51.879098" lon="8.317447">
        <ele>71.020000</ele>
        <time>2024-12-28T16:23:39.821Z</time>
      </trkpt>
      <trkpt lat="51.878989" lon="8.317386">
        <ele>71.023179</ele>
        <time>2024-12-28T16:23:42.803Z</time>
      </trkpt>
      <trkpt lat="51.878906" lon="8.317315">
        <ele>71.025765</ele>
        <time>2024-12-28T16:23:45.230Z</time>
      </trkpt>
      <trkpt lat="51.878802" lon="8.317314">
        <ele>71.028632</ele>
        <time>2024-12-28T16:23:47.920Z</time>
      </trkpt>
      <trkpt lat="51.878720" lon="8.317436">
        <ele>71.031700</ele>
        <time>2024-12-28T16:23:50.799Z</time>
      </trkpt>
      <trkpt lat="51.878643" lon="8.317561">
        <ele>71.034704</ele>
        <time>2024-12-28T16:23:53.618Z</time>
      </trkpt>
      <trkpt lat="51.878620" lon="8.317706">
        <ele>71.037251</ele>
        <time>2024-12-28T16:23:56.008Z</time>
      </trkpt>
      <trkpt lat="51.878583" lon="8.317839">
        <ele>71.039733</ele>
        <time>2024-12-28T16:23:58.336Z</time>
      </trkpt>
      <trkpt lat="51.878533" lon="8.317988">
        <ele>71.042618</ele>
        <time>2024-12-28T16:24:01.044Z</time>
      </trkpt>
      <trkpt lat="51.878488" lon="8.318158">
        <ele>71.045765</ele>
        <time>2024-12-28T16:24:03.997Z</time>
      </trkpt>
      <trkpt lat="51.878446" lon="8.318301">
        <ele>71.041714</ele>
        <time>2024-12-28T16:24:06.525Z</time>
      </trkpt>
      <trkpt lat="51.878428" lon="8.318342">
        <ele>71.035115</ele>
        <time>2024-12-28T16:24:07.328Z</time>
      </trkpt>
      <trkpt lat="51.879656" lon="8.319738">
        <ele>70.716375</ele>
        <time>2024-12-28T16:25:01.848Z</time>
      </trkpt>
      <trkpt lat="51.879493" lon="8.320253">
        <ele>70.657031</ele>
        <time>2024-12-28T16:25:14.808Z</time>
      </trkpt>
      <trkpt lat="51.880733" lon="8.320682">
        <ele>70.565593</ele>
        <time>2024-12-28T16:26:01.446Z</time>
      </trkpt>
      <trkpt lat="51.880717" lon="8.320735">
        <ele>70.562966</ele>
        <time>2024-12-28T16:26:02.760Z</time>
      </trkpt>
      <trkpt lat="51.880082" lon="8.322894">
        <ele>70.602606</ele>
        <time>2024-12-28T16:26:57.782Z</time>
      </trkpt>
      <trkpt lat="51.880033" lon="8.323043">
        <ele>70.608932</ele>
        <time>2024-12-28T16:27:01.701Z</time>
      </trkpt>
      <trkpt lat="51.879421" lon="8.322730">
        <ele>70.654294</ele>
        <time>2024-12-28T16:27:25.797Z</time>
      </trkpt>
      <trkpt lat="51.877167" lon="8.324972">
        <ele>71.126391</ele>
        <time>2024-12-28T16:28:34.002Z</time>
      </trkpt>
      <trkpt lat="51.876793" lon="8.325306">
        <ele>71.188096</ele>
        <time>2024-12-28T16:28:44.786Z</time>
      </trkpt>
      <trkpt lat="51.874420" lon="8.327616">
        <ele>71.617680</ele>
        <time>2024-12-28T16:29:54.429Z</time>
      </trkpt>
      <trkpt lat="51.873620" lon="8.326255">
        <ele>71.985764</ele>
        <time>2024-12-28T16:30:39.955Z</time>
      </trkpt>
      <trkpt lat="51.873545" lon="8.326243">
        <ele>72.009674</ele>
        <time>2024-12-28T16:30:42.889Z</time>
      </trkpt>
      <trkpt lat="51.873473" lon="8.326179">
        <ele>72.035714</ele>
        <time>2024-12-28T16:30:46.093Z</time>
      </trkpt>
      <trkpt lat="51.873105" lon="8.325474">
        <ele>72.215689</ele>
        <time>2024-12-28T16:31:08.184Z</time>
      </trkpt>
      <trkpt lat="51.873065" lon="8.325326">
        <ele>72.247184</ele>
        <time>2024-12-28T16:31:12.019Z</time>
      </trkpt>
      <trkpt lat="51.873109" lon="8.325137">
        <ele>72.286562</ele>
        <time>2024-12-28T16:31:16.794Z</time>
      </trkpt>
      <trkpt lat="51.873142" lon="8.325083">
        <ele>72.301374</ele>
        <time>2024-12-28T16:31:18.607Z</time>
      </trkpt>
      <trkpt lat="51.873109" lon="8.325137">
        <ele>72.316185</ele>
        <time>2024-12-28T16:31:20.413Z</time>
      </trkpt>
      <trkpt lat="51.872060" lon="8.323343">
        <ele>72.618999</ele>
        <time>2024-12-28T16:32:19.517Z</time>
      </trkpt>
      <trkpt lat="51.871970" lon="8.323247">
        <ele>72.622249</ele>
        <time>2024-12-28T16:32:23.652Z</time>
      </trkpt>
      <trkpt lat="51.871880" lon="8.323247">
        <ele>72.624963</ele>
        <time>2024-12-28T16:32:27.126Z</time>
      </trkpt>
      <trkpt lat="51.871338" lon="8.323441">
        <ele>72.641704</ele>
        <time>2024-12-28T16:32:47.807Z</time>
      </trkpt>
      <trkpt lat="51.871063" lon="8.323626">
        <ele>72.650685</ele>
        <time>2024-12-28T16:32:58.511Z</time>
      </trkpt>
      <trkpt lat="51.870744" lon="8.323946">
        <ele>72.530592</ele>
        <time>2024-12-28T16:33:11.807Z</time>
      </trkpt>
      <trkpt lat="51.870621" lon="8.323884">
        <ele>72.467714</ele>
        <time>2024-12-28T16:33:16.320Z</time>
      </trkpt>
      <trkpt lat="51.870470" lon="8.323915">
        <ele>72.393420</ele>
        <time>2024-12-28T16:33:21.687Z</time>
      </trkpt>
      <trkpt lat="51.870156" lon="8.324189">
        <ele>72.219322</ele>
        <time>2024-12-28T16:33:34.192Z</time>
      </trkpt>
      <trkpt lat="51.870237" lon="8.324330">
        <ele>72.161279</ele>
        <time>2024-12-28T16:33:36.662Z</time>
      </trkpt>
      <trkpt lat="51.869974" lon="8.324620">
        <ele>72.005978</ele>
        <time>2024-12-28T16:33:43.213Z</time>
      </trkpt>
      <trkpt lat="51.869794" lon="8.324819">
        <ele>71.899599</ele>
        <time>2024-12-28T16:33:47.757Z</time>
      </trkpt>
      <trkpt lat="51.869509" lon="8.325438">
        <ele>71.824939</ele>
        <time>2024-12-28T16:33:58.120Z</time>
      </trkpt>
      <trkpt lat="51.869488" lon="8.325478">
        <ele>71.831948</ele>
        <time>2024-12-28T16:33:58.882Z</time>
      </trkpt>
      <trkpt lat="51.869181" lon="8.326075">
        <ele>71.935676</ele>
        <time>2024-12-28T16:34:10.235Z</time>
      </trkpt>
      <trkpt lat="51.869165" lon="8.326291">
        <ele>71.964721</ele>
        <time>2024-12-28T16:34:13.610Z</time>
      </trkpt>
      <trkpt lat="51.869259" lon="8.328408">
        <ele>72.261292</ele>
        <time>2024-12-28T16:34:44.974Z</time>
      </trkpt>
      <trkpt lat="51.869289" lon="8.328977">
        <ele>72.349696</ele>
        <time>2024-12-28T16:34:58.214Z</time>
      </trkpt>
      <trkpt lat="51.869302" lon="8.329228">
        <ele>72.388688</ele>
        <time>2024-12-28T16:35:04.075Z</time>
      </trkpt>
      <trkpt lat="51.869015" lon="8.329735">
        <ele>72.495165</ele>
        <time>2024-12-28T16:35:20.055Z</time>
      </trkpt>
      <trkpt lat="51.868891" lon="8.331705">
        <ele>72.594169</ele>
        <time>2024-12-28T16:36:07.925Z</time>
      </trkpt>
      <trkpt lat="51.868762" lon="8.332260">
        <ele>72.583228</ele>
        <time>2024-12-28T16:36:21.763Z</time>
      </trkpt>
      <trkpt lat="51.868288" lon="8.331837">
        <ele>72.567056</ele>
        <time>2024-12-28T16:36:33.326Z</time>
      </trkpt>
      <trkpt lat="51.867141" lon="8.330908">
        <ele>71.942171</ele>
        <time>2024-12-28T16:36:59.041Z</time>
      </trkpt>
      <trkpt lat="51.867081" lon="8.330864">
        <ele>71.906039</ele>
        <time>2024-12-28T16:37:00.401Z</time>
      </trkpt>
      <trkpt lat="51.866623" lon="8.330538">
        <ele>71.631590</ele>
        <time>2024-12-28T16:37:11.189Z</time>
      </trkpt>
      <trkpt lat="51.866520" lon="8.330508">
        <ele>71.575895</ele>
        <time>2024-12-28T16:37:13.508Z</time>
      </trkpt>
      <trkpt lat="51.866452" lon="8.330580">
        <ele>71.577954</ele>
        <time>2024-12-28T16:37:15.378Z</time>
      </trkpt>
      <trkpt lat="51.865611" lon="8.331909">
        <ele>71.607735</ele>
        <time>2024-12-28T16:37:42.817Z</time>
      </trkpt>
      <trkpt lat="51.863889" lon="8.334574">
        <ele>71.465327</ele>
        <time>2024-12-28T16:38:34.798Z</time>
      </trkpt>
      <trkpt lat="51.863714" lon="8.334845">
        <ele>71.531433</ele>
        <time>2024-12-28T16:38:40.317Z</time>
      </trkpt>
      <trkpt lat="51.863658" lon="8.334886">
        <ele>71.548211</ele>
        <time>2024-12-28T16:38:41.730Z</time>
      </trkpt>
      <trkpt lat="51.863215" lon="8.334870">
        <ele>71.669182</ele>
        <time>2024-12-28T16:38:52.063Z</time>
      </trkpt>
      <trkpt lat="51.863137" lon="8.334914">
        <ele>71.691732</ele>
        <time>2024-12-28T16:38:54.002Z</time>
      </trkpt>
      <trkpt lat="51.863224" lon="8.335314">
        <ele>71.763229</ele>
        <time>2024-12-28T16:39:00.341Z</time>
      </trkpt>
      <trkpt lat="51.863471" lon="8.336464">
        <ele>71.959315</ele>
        <time>2024-12-28T16:39:18.690Z</time>
      </trkpt>
      <trkpt lat="51.863538" lon="8.336920">
        <ele>72.008258</ele>
        <time>2024-12-28T16:39:25.513Z</time>
      </trkpt>
      <trkpt lat="51.863530" lon="8.337155">
        <ele>72.032833</ele>
        <time>2024-12-28T16:39:28.930Z</time>
      </trkpt>
      <trkpt lat="51.863458" lon="8.337463">
        <ele>72.067220</ele>
        <time>2024-12-28T16:39:33.713Z</time>
      </trkpt>
      <trkpt lat="51.863405" lon="8.337411">
        <ele>72.077698</ele>
        <time>2024-12-28T16:39:35.159Z</time>
      </trkpt>
      <trkpt lat="51.863319" lon="8.337390">
        <ele>72.092403</ele>
        <time>2024-12-28T16:39:37.194Z</time>
      </trkpt>
      <trkpt lat="51.861682" lon="8.335816">
        <ele>72.276374</ele>
        <time>2024-12-28T16:40:20.224Z</time>
      </trkpt>
      <trkpt lat="51.861682" lon="8.335816">
        <ele>72.276374</ele>
        <time>2024-12-28T16:40:20.228Z</time>
      </trkpt>
      <trkpt lat="51.861675" lon="8.335836">
        <ele>72.276777</ele>
        <time>2024-12-28T16:40:20.595Z</time>
      </trkpt>
      <trkpt lat="51.861757" lon="8.335913">
        <ele>72.279472</ele>
        <time>2024-12-28T16:40:23.046Z</time>
      </trkpt>
      <trkpt lat="51.861835" lon="8.335994">
        <ele>72.282107</ele>
        <time>2024-12-28T16:40:25.442Z</time>
      </trkpt>
      <trkpt lat="51.861984" lon="8.335750">
        <ele>72.288132</ele>
        <time>2024-12-28T16:40:30.922Z</time>
      </trkpt>
      <trkpt lat="51.861974" lon="8.335593">
        <ele>72.290903</ele>
        <time>2024-12-28T16:40:33.443Z</time>
      </trkpt>
      <trkpt lat="51.861887" lon="8.335641">
        <ele>72.293516</ele>
        <time>2024-12-28T16:40:35.820Z</time>
      </trkpt>
      <trkpt lat="51.861785" lon="8.335552">
        <ele>72.296810</ele>
        <time>2024-12-28T16:40:38.816Z</time>
      </trkpt>
      <trkpt lat="51.861681" lon="8.335452">
        <ele>72.298440</ele>
        <time>2024-12-28T16:40:41.944Z</time>
      </trkpt>
      <trkpt lat="51.861593" lon="8.335353">
        <ele>72.292600</ele>
        <time>2024-12-28T16:40:44.714Z</time>
      </trkpt>
      <trkpt lat="51.861518" lon="8.335263">
        <ele>72.287512</ele>
        <time>2024-12-28T16:40:47.128Z</time>
      </trkpt>
      <trkpt lat="51.861429" lon="8.335189">
        <ele>72.282060</ele>
        <time>2024-12-28T16:40:49.716Z</time>
      </trkpt>
      <trkpt lat="51.861527" lon="8.335266">
        <ele>72.276123</ele>
        <time>2024-12-28T16:40:52.532Z</time>
      </trkpt>
      <trkpt lat="51.861600" lon="8.335353">
        <ele>72.271183</ele>
        <time>2024-12-28T16:40:54.876Z</time>
      </trkpt>
      <trkpt lat="51.861697" lon="8.335474">
        <ele>72.264510</ele>
        <time>2024-12-28T16:40:58.043Z</time>
      </trkpt>
      <trkpt lat="51.861793" lon="8.335570">
        <ele>72.258361</ele>
        <time>2024-12-28T16:41:00.960Z</time>
      </trkpt>
      <trkpt lat="51.861898" lon="8.335612">
        <ele>72.252466</ele>
        <time>2024-12-28T16:41:03.757Z</time>
      </trkpt>
      <trkpt lat="51.861986" lon="8.335491">
        <ele>72.246174</ele>
        <time>2024-12-28T16:41:06.743Z</time>
      </trkpt>
      <trkpt lat="51.862079" lon="8.335398">
        <ele>72.240217</ele>
        <time>2024-12-28T16:41:09.569Z</time>
      </trkpt>
      <trkpt lat="51.862139" lon="8.335222">
        <ele>72.233451</ele>
        <time>2024-12-28T16:41:12.780Z</time>
      </trkpt>
      <trkpt lat="51.862187" lon="8.335059">
        <ele>72.227373</ele>
        <time>2024-12-28T16:41:15.663Z</time>
      </trkpt>
      <trkpt lat="51.862206" lon="8.334872">
        <ele>72.220994</ele>
        <time>2024-12-28T16:41:18.690Z</time>
      </trkpt>
      <trkpt lat="51.862172" lon="8.334725">
        <ele>72.215711</ele>
        <time>2024-12-28T16:41:21.197Z</time>
      </trkpt>
      <trkpt lat="51.862081" lon="8.334638">
        <ele>72.209952</ele>
        <time>2024-12-28T16:41:23.929Z</time>
      </trkpt>
      <trkpt lat="51.862002" lon="8.334512">
        <ele>72.203908</ele>
        <time>2024-12-28T16:41:26.797Z</time>
      </trkpt>
      <trkpt lat="51.861918" lon="8.334366">
        <ele>72.205961</ele>
        <time>2024-12-28T16:41:29.983Z</time>
      </trkpt>
      <trkpt lat="51.861907" lon="8.334196">
        <ele>72.211647</ele>
        <time>2024-12-28T16:41:32.713Z</time>
      </trkpt>
      <trkpt lat="51.861884" lon="8.334054">
        <ele>72.216531</ele>
        <time>2024-12-28T16:41:35.057Z</time>
      </trkpt>
      <trkpt lat="51.861861" lon="8.333875">
        <ele>72.222614</ele>
        <time>2024-12-28T16:41:37.977Z</time>
      </trkpt>
      <trkpt lat="51.861846" lon="8.333720">
        <ele>72.227833</ele>
        <time>2024-12-28T16:41:40.483Z</time>
      </trkpt>
      <trkpt lat="51.861826" lon="8.333577">
        <ele>72.232711</ele>
        <time>2024-12-28T16:41:42.824Z</time>
      </trkpt>
      <trkpt lat="51.861802" lon="8.333371">
        <ele>72.239685</ele>
        <time>2024-12-28T16:41:46.172Z</time>
      </trkpt>
      <trkpt lat="51.861843" lon="8.333201">
        <ele>72.245757</ele>
        <time>2024-12-28T16:41:49.087Z</time>
      </trkpt>
      <trkpt lat="51.861900" lon="8.333081">
        <ele>72.250793</ele>
        <time>2024-12-28T16:41:51.504Z</time>
      </trkpt>
      <trkpt lat="51.861966" lon="8.332905">
        <ele>72.257643</ele>
        <time>2024-12-28T16:41:54.792Z</time>
      </trkpt>
      <trkpt lat="51.862029" lon="8.332792">
        <ele>72.262708</ele>
        <time>2024-12-28T16:41:57.224Z</time>
      </trkpt>
      <trkpt lat="51.862142" lon="8.332674">
        <ele>72.269951</ele>
        <time>2024-12-28T16:42:00.701Z</time>
      </trkpt>
      <trkpt lat="51.862230" lon="8.332612">
        <ele>72.275121</ele>
        <time>2024-12-28T16:42:03.182Z</time>
      </trkpt>
      <trkpt lat="51.862329" lon="8.332512">
        <ele>72.281407</ele>
        <time>2024-12-28T16:42:06.200Z</time>
      </trkpt>
      <trkpt lat="51.862379" lon="8.332373">
        <ele>72.286758</ele>
        <time>2024-12-28T16:42:08.769Z</time>
      </trkpt>
      <trkpt lat="51.862563" lon="8.332098">
        <ele>72.302760</ele>
        <time>2024-12-28T16:42:15.244Z</time>
      </trkpt>
      <trkpt lat="51.862539" lon="8.332111">
        <ele>72.306079</ele>
        <time>2024-12-28T16:42:15.898Z</time>
      </trkpt>
      <trkpt lat="51.861840" lon="8.328838">
        <ele>72.511432</ele>
        <time>2024-12-28T16:43:04.993Z</time>
      </trkpt>
      <trkpt lat="51.861840" lon="8.328838">
        <ele>72.511432</ele>
        <time>2024-12-28T16:43:05.003Z</time>
      </trkpt>
      <trkpt lat="51.861482" lon="8.328768">
        <ele>72.490629</ele>
        <time>2024-12-28T16:43:14.328Z</time>
      </trkpt>
      <trkpt lat="51.861400" lon="8.328694">
        <ele>72.485214</ele>
        <time>2024-12-28T16:43:16.756Z</time>
      </trkpt>
      <trkpt lat="51.861308" lon="8.328642">
        <ele>72.479592</ele>
        <time>2024-12-28T16:43:19.275Z</time>
      </trkpt>
      <trkpt lat="51.861219" lon="8.328542">
        <ele>72.473343</ele>
        <time>2024-12-28T16:43:22.077Z</time>
      </trkpt>
      <trkpt lat="51.861117" lon="8.328419">
        <ele>72.466006</ele>
        <time>2024-12-28T16:43:25.365Z</time>
      </trkpt>
      <trkpt lat="51.861016" lon="8.328400">
        <ele>72.460140</ele>
        <time>2024-12-28T16:43:27.995Z</time>
      </trkpt>
      <trkpt lat="51.860941" lon="8.328319">
        <ele>72.454939</ele>
        <time>2024-12-28T16:43:30.326Z</time>
      </trkpt>
      <trkpt lat="51.860862" lon="8.328213">
        <ele>72.449020</ele>
        <time>2024-12-28T16:43:32.979Z</time>
      </trkpt>
      <trkpt lat="51.860772" lon="8.328122">
        <ele>72.442899</ele>
        <time>2024-12-28T16:43:35.723Z</time>
      </trkpt>
      <trkpt lat="51.860713" lon="8.327993">
        <ele>72.437180</ele>
        <time>2024-12-28T16:43:38.287Z</time>
      </trkpt>
      <trkpt lat="51.860623" lon="8.327908">
        <ele>72.431169</ele>
        <time>2024-12-28T16:43:40.981Z</time>
      </trkpt>
      <trkpt lat="51.860542" lon="8.327786">
        <ele>72.419445</ele>
        <time>2024-12-28T16:43:43.842Z</time>
      </trkpt>
      <trkpt lat="51.860468" lon="8.327689">
        <ele>72.408925</ele>
        <time>2024-12-28T16:43:46.304Z</time>
      </trkpt>
      <trkpt lat="51.860370" lon="8.327555">
        <ele>72.394751</ele>
        <time>2024-12-28T16:43:49.620Z</time>
      </trkpt>
      <trkpt lat="51.860290" lon="8.327474">
        <ele>72.384326</ele>
        <time>2024-12-28T16:43:52.060Z</time>
      </trkpt>
      <trkpt lat="51.860185" lon="8.327346">
        <ele>72.369803</ele>
        <time>2024-12-28T16:43:55.459Z</time>
      </trkpt>
      <trkpt lat="51.860096" lon="8.327221">
        <ele>72.356784</ele>
        <time>2024-12-28T16:43:58.506Z</time>
      </trkpt>
      <trkpt lat="51.859984" lon="8.327133">
        <ele>72.343028</ele>
        <time>2024-12-28T16:44:01.725Z</time>
      </trkpt>
      <trkpt lat="51.859886" lon="8.327019">
        <ele>72.329694</ele>
        <time>2024-12-28T16:44:04.845Z</time>
      </trkpt>
      <trkpt lat="51.859811" lon="8.326920">
        <ele>72.319002</ele>
        <time>2024-12-28T16:44:07.348Z</time>
      </trkpt>
      <trkpt lat="51.859694" lon="8.326856">
        <ele>72.305355</ele>
        <time>2024-12-28T16:44:10.541Z</time>
      </trkpt>
      <trkpt lat="51.859590" lon="8.326896">
        <ele>72.293544</ele>
        <time>2024-12-28T16:44:13.305Z</time>
      </trkpt>
      <trkpt lat="51.859498" lon="8.326968">
        <ele>72.282253</ele>
        <time>2024-12-28T16:44:15.948Z</time>
      </trkpt>
      <trkpt lat="51.859431" lon="8.327136">
        <ele>72.268605</ele>
        <time>2024-12-28T16:44:19.141Z</time>
      </trkpt>
      <trkpt lat="51.859364" lon="8.327306">
        <ele>72.254843</ele>
        <time>2024-12-28T16:44:22.362Z</time>
      </trkpt>
      <trkpt lat="51.859340" lon="8.327469">
        <ele>72.243407</ele>
        <time>2024-12-28T16:44:25.038Z</time>
      </trkpt>
      <trkpt lat="51.859338" lon="8.327649">
        <ele>72.231374</ele>
        <time>2024-12-28T16:44:27.913Z</time>
      </trkpt>
      <trkpt lat="51.859336" lon="8.327850">
        <ele>72.222272</ele>
        <time>2024-12-28T16:44:31.124Z</time>
      </trkpt>
      <trkpt lat="51.859340" lon="8.328020">
        <ele>72.214569</ele>
        <time>2024-12-28T16:44:33.841Z</time>
      </trkpt>
      <trkpt lat="51.859389" lon="8.328154">
        <ele>72.207517</ele>
        <time>2024-12-28T16:44:36.328Z</time>
      </trkpt>
      <trkpt lat="51.859384" lon="8.328325">
        <ele>72.199766</ele>
        <time>2024-12-28T16:44:39.062Z</time>
      </trkpt>
      <trkpt lat="51.859420" lon="8.328512">
        <ele>72.190897</ele>
        <time>2024-12-28T16:44:42.190Z</time>
      </trkpt>
      <trkpt lat="51.859405" lon="8.328691">
        <ele>72.182717</ele>
        <time>2024-12-28T16:44:45.075Z</time>
      </trkpt>
      <trkpt lat="51.859407" lon="8.328893">
        <ele>72.173570</ele>
        <time>2024-12-28T16:44:48.302Z</time>
      </trkpt>
      <trkpt lat="51.859422" lon="8.329047">
        <ele>72.166510</ele>
        <time>2024-12-28T16:44:50.791Z</time>
      </trkpt>
      <trkpt lat="51.859433" lon="8.329210">
        <ele>72.159086</ele>
        <time>2024-12-28T16:44:53.410Z</time>
      </trkpt>
      <trkpt lat="51.859485" lon="8.329398">
        <ele>72.149758</ele>
        <time>2024-12-28T16:44:56.700Z</time>
      </trkpt>
      <trkpt lat="51.859494" lon="8.329558">
        <ele>72.142484</ele>
        <time>2024-12-28T16:44:59.266Z</time>
      </trkpt>
      <trkpt lat="51.859503" lon="8.329746">
        <ele>72.133946</ele>
        <time>2024-12-28T16:45:02.277Z</time>
      </trkpt>
      <trkpt lat="51.859508" lon="8.329938">
        <ele>72.125244</ele>
        <time>2024-12-28T16:45:05.346Z</time>
      </trkpt>
      <trkpt lat="51.859555" lon="8.330103">
        <ele>72.117017</ele>
        <time>2024-12-28T16:45:08.248Z</time>
      </trkpt>
      <trkpt lat="51.859567" lon="8.330341">
        <ele>72.106204</ele>
        <time>2024-12-28T16:45:12.062Z</time>
      </trkpt>
      <trkpt lat="51.859573" lon="8.330534">
        <ele>72.101444</ele>
        <time>2024-12-28T16:45:15.148Z</time>
      </trkpt>
      <trkpt lat="51.859615" lon="8.330676">
        <ele>72.105472</ele>
        <time>2024-12-28T16:45:17.663Z</time>
      </trkpt>
      <trkpt lat="51.859650" lon="8.330870">
        <ele>72.110644</ele>
        <time>2024-12-28T16:45:20.890Z</time>
      </trkpt>
      <trkpt lat="51.859647" lon="8.331075">
        <ele>72.115892</ele>
        <time>2024-12-28T16:45:24.165Z</time>
      </trkpt>
      <trkpt lat="51.859663" lon="8.331243">
        <ele>72.120241</ele>
        <time>2024-12-28T16:45:26.880Z</time>
      </trkpt>
      <trkpt lat="51.859727" lon="8.331369">
        <ele>72.124416</ele>
        <time>2024-12-28T16:45:29.485Z</time>
      </trkpt>
      <trkpt lat="51.859726" lon="8.331545">
        <ele>72.128920</ele>
        <time>2024-12-28T16:45:32.296Z</time>
      </trkpt>
      <trkpt lat="51.859692" lon="8.331725">
        <ele>72.133737</ele>
        <time>2024-12-28T16:45:35.302Z</time>
      </trkpt>
      <trkpt lat="51.859680" lon="8.331902">
        <ele>72.138293</ele>
        <time>2024-12-28T16:45:38.146Z</time>
      </trkpt>
      <trkpt lat="51.859737" lon="8.332026">
        <ele>72.142249</ele>
        <time>2024-12-28T16:45:40.615Z</time>
      </trkpt>
      <trkpt lat="51.859764" lon="8.332183">
        <ele>72.146419</ele>
        <time>2024-12-28T16:45:43.217Z</time>
      </trkpt>
      <trkpt lat="51.859791" lon="8.332355">
        <ele>72.150960</ele>
        <time>2024-12-28T16:45:46.052Z</time>
      </trkpt>
      <trkpt lat="51.859861" lon="8.332508">
        <ele>72.155833</ele>
        <time>2024-12-28T16:45:49.093Z</time>
      </trkpt>
      <trkpt lat="51.859923" lon="8.332634">
        <ele>72.159955</ele>
        <time>2024-12-28T16:45:51.666Z</time>
      </trkpt>
      <trkpt lat="51.860018" lon="8.332668">
        <ele>72.163986</ele>
        <time>2024-12-28T16:45:54.181Z</time>
      </trkpt>
      <trkpt lat="51.860120" lon="8.332712">
        <ele>72.168360</ele>
        <time>2024-12-28T16:45:56.911Z</time>
      </trkpt>
      <trkpt lat="51.860197" lon="8.332835">
        <ele>72.172842</ele>
        <time>2024-12-28T16:45:59.708Z</time>
      </trkpt>
      <trkpt lat="51.860252" lon="8.332959">
        <ele>72.178034</ele>
        <time>2024-12-28T16:46:02.146Z</time>
      </trkpt>
      <trkpt lat="51.860284" lon="8.333111">
        <ele>72.184523</ele>
        <time>2024-12-28T16:46:04.711Z</time>
      </trkpt>
      <trkpt lat="51.860323" lon="8.333308">
        <ele>72.192882</ele>
        <time>2024-12-28T16:46:08.015Z</time>
      </trkpt>
      <trkpt lat="51.860315" lon="8.333467">
        <ele>72.199328</ele>
        <time>2024-12-28T16:46:10.562Z</time>
      </trkpt>
      <trkpt lat="51.860341" lon="8.333657">
        <ele>72.207192</ele>
        <time>2024-12-28T16:46:13.670Z</time>
      </trkpt>
      <trkpt lat="51.860384" lon="8.333810">
        <ele>72.213984</ele>
        <time>2024-12-28T16:46:16.355Z</time>
      </trkpt>
      <trkpt lat="51.860363" lon="8.333988">
        <ele>72.221307</ele>
        <time>2024-12-28T16:46:19.249Z</time>
      </trkpt>
      <trkpt lat="51.860348" lon="8.334136">
        <ele>72.227367</ele>
        <time>2024-12-28T16:46:21.644Z</time>
      </trkpt>
      <trkpt lat="51.860266" lon="8.334208">
        <ele>72.233470</ele>
        <time>2024-12-28T16:46:24.056Z</time>
      </trkpt>
      <trkpt lat="51.860164" lon="8.334391">
        <ele>72.243431</ele>
        <time>2024-12-28T16:46:28.000Z</time>
      </trkpt>
      <trkpt lat="51.860147" lon="8.334274">
        <ele>72.248288</ele>
        <time>2024-12-28T16:46:30.766Z</time>
      </trkpt>
      <trkpt lat="51.859283" lon="8.333434">
        <ele>72.260878</ele>
        <time>2024-12-28T16:47:08.335Z</time>
      </trkpt>
      <trkpt lat="51.859228" lon="8.333308">
        <ele>72.252005</ele>
        <time>2024-12-28T16:47:11.850Z</time>
      </trkpt>
      <trkpt lat="51.859236" lon="8.329520">
        <ele>72.114769</ele>
        <time>2024-12-28T16:48:37.737Z</time>
      </trkpt>
      <trkpt lat="51.859228" lon="8.333308">
        <ele>72.312749</ele>
        <time>2024-12-28T16:50:05.889Z</time>
      </trkpt>
      <trkpt lat="51.859283" lon="8.333434">
        <ele>72.325747</ele>
        <time>2024-12-28T16:50:09.480Z</time>
      </trkpt>
      <trkpt lat="51.860147" lon="8.334274">
        <ele>72.599599</ele>
        <time>2024-12-28T16:50:47.443Z</time>
      </trkpt>
      <trkpt lat="51.860164" lon="8.334391">
        <ele>72.622104</ele>
        <time>2024-12-28T16:50:50.277Z</time>
      </trkpt>
      <trkpt lat="51.855476" lon="8.329891">
        <ele>73.946126</ele>
        <time>2024-12-28T16:53:00.590Z</time>
      </trkpt>
      <trkpt lat="51.855444" lon="8.329975">
        <ele>73.943458</ele>
        <time>2024-12-28T16:53:01.936Z</time>
      </trkpt>
      <trkpt lat="51.855004" lon="8.331182">
        <ele>73.877656</ele>
        <time>2024-12-28T16:53:20.076Z</time>
      </trkpt>
      <trkpt lat="51.854985" lon="8.331233">
        <ele>73.862179</ele>
        <time>2024-12-28T16:53:20.818Z</time>
      </trkpt>
      <trkpt lat="51.855070" lon="8.337558">
        <ele>72.613689</ele>
        <time>2024-12-28T16:54:43.520Z</time>
      </trkpt>
      <trkpt lat="51.854610" lon="8.337359">
        <ele>72.742894</ele>
        <time>2024-12-28T16:54:54.531Z</time>
      </trkpt>
      <trkpt lat="51.854514" lon="8.337358">
        <ele>72.768946</ele>
        <time>2024-12-28T16:54:56.829Z</time>
      </trkpt>
      <trkpt lat="51.854307" lon="8.339776">
        <ele>73.271824</ele>
        <time>2024-12-28T16:55:35.726Z</time>
      </trkpt>
      <trkpt lat="51.854258" lon="8.340352">
        <ele>73.417199</ele>
        <time>2024-12-28T16:55:44.872Z</time>
      </trkpt>
      <trkpt lat="51.854790" lon="8.341094">
        <ele>73.701442</ele>
        <time>2024-12-28T16:56:01.270Z</time>
      </trkpt>
      <trkpt lat="51.854965" lon="8.341390">
        <ele>73.604787</ele>
        <time>2024-12-28T16:56:06.710Z</time>
      </trkpt>
      <trkpt lat="51.855237" lon="8.341778">
        <ele>73.420693</ele>
        <time>2024-12-28T16:56:14.232Z</time>
      </trkpt>
      <trkpt lat="51.855665" lon="8.342503">
        <ele>73.106126</ele>
        <time>2024-12-28T16:56:35.940Z</time>
      </trkpt>
      <trkpt lat="51.856009" lon="8.342890">
        <ele>72.893402</ele>
        <time>2024-12-28T16:56:50.659Z</time>
      </trkpt>
      <trkpt lat="51.856105" lon="8.343041">
        <ele>72.825432</ele>
        <time>2024-12-28T16:56:55.406Z</time>
      </trkpt>
      <trkpt lat="51.856207" lon="8.343321">
        <ele>72.779525</ele>
        <time>2024-12-28T16:57:02.585Z</time>
      </trkpt>
      <trkpt lat="51.856249" lon="8.343579">
        <ele>72.755440</ele>
        <time>2024-12-28T16:57:08.569Z</time>
      </trkpt>
      <trkpt lat="51.856291" lon="8.343837">
        <ele>72.731354</ele>
        <time>2024-12-28T16:57:14.609Z</time>
      </trkpt>
      <trkpt lat="51.856343" lon="8.343887">
        <ele>72.722515</ele>
        <time>2024-12-28T16:57:16.836Z</time>
      </trkpt>
      <trkpt lat="51.856463" lon="8.343800">
        <ele>72.703298</ele>
        <time>2024-12-28T16:57:21.716Z</time>
      </trkpt>
      <trkpt lat="51.856783" lon="8.343393">
        <ele>72.643822</ele>
        <time>2024-12-28T16:57:36.874Z</time>
      </trkpt>
      <trkpt lat="51.857085" lon="8.343102">
        <ele>72.592458</ele>
        <time>2024-12-28T16:57:49.986Z</time>
      </trkpt>
      <trkpt lat="51.857348" lon="8.343060">
        <ele>72.553832</ele>
        <time>2024-12-28T16:57:59.744Z</time>
      </trkpt>
      <trkpt lat="51.857448" lon="8.343175">
        <ele>72.533205</ele>
        <time>2024-12-28T16:58:04.255Z</time>
      </trkpt>
      <trkpt lat="51.857998" lon="8.345270">
        <ele>72.163982</ele>
        <time>2024-12-28T16:58:55.163Z</time>
      </trkpt>
      <trkpt lat="51.858052" lon="8.345324">
        <ele>72.147314</ele>
        <time>2024-12-28T16:58:57.448Z</time>
      </trkpt>
      <trkpt lat="51.858401" lon="8.345463">
        <ele>72.061097</ele>
        <time>2024-12-28T16:59:10.374Z</time>
      </trkpt>
      <trkpt lat="51.859031" lon="8.345550">
        <ele>71.991831</ele>
        <time>2024-12-28T16:59:33.585Z</time>
      </trkpt>
      <trkpt lat="51.858812" lon="8.345829">
        <ele>71.961305</ele>
        <time>2024-12-28T16:59:41.720Z</time>
      </trkpt>
      <trkpt lat="51.858713" lon="8.346069">
        <ele>71.941778</ele>
        <time>2024-12-28T16:59:46.921Z</time>
      </trkpt>
      <trkpt lat="51.858683" lon="8.346143">
        <ele>71.935789</ele>
        <time>2024-12-28T16:59:48.485Z</time>
      </trkpt>
      <trkpt lat="51.858671" lon="8.346171">
        <ele>71.933483</ele>
        <time>2024-12-28T16:59:49.097Z</time>
      </trkpt>
      <trkpt lat="51.858671" lon="8.346171">
        <ele>71.933483</ele>
        <time>2024-12-28T16:59:49.107Z</time>
      </trkpt>
      <trkpt lat="51.858488" lon="8.346247">
        <ele>71.912787</ele>
        <time>2024-12-28T16:59:53.993Z</time>
      </trkpt>
      <trkpt lat="51.858388" lon="8.346315">
        <ele>71.900905</ele>
        <time>2024-12-28T16:59:56.798Z</time>
      </trkpt>
      <trkpt lat="51.858290" lon="8.346381">
        <ele>71.889278</ele>
        <time>2024-12-28T16:59:59.542Z</time>
      </trkpt>
      <trkpt lat="51.858316" lon="8.346678">
        <ele>71.870291</ele>
        <time>2024-12-28T17:00:04.333Z</time>
      </trkpt>
      <trkpt lat="51.858223" lon="8.346735">
        <ele>71.874859</ele>
        <time>2024-12-28T17:00:06.904Z</time>
      </trkpt>
      <trkpt lat="51.858133" lon="8.346814">
        <ele>71.879561</ele>
        <time>2024-12-28T17:00:09.552Z</time>
      </trkpt>
      <trkpt lat="51.858054" lon="8.346887">
        <ele>71.883738</ele>
        <time>2024-12-28T17:00:11.904Z</time>
      </trkpt>
      <trkpt lat="51.857990" lon="8.346997">
        <ele>71.888025</ele>
        <time>2024-12-28T17:00:14.318Z</time>
      </trkpt>
      <trkpt lat="51.857896" lon="8.347131">
        <ele>71.893778</ele>
        <time>2024-12-28T17:00:17.556Z</time>
      </trkpt>
      <trkpt lat="51.857811" lon="8.347254">
        <ele>71.899014</ele>
        <time>2024-12-28T17:00:20.504Z</time>
      </trkpt>
      <trkpt lat="51.857716" lon="8.347361">
        <ele>71.904329</ele>
        <time>2024-12-28T17:00:23.497Z</time>
      </trkpt>
      <trkpt lat="51.857645" lon="8.347495">
        <ele>71.909337</ele>
        <time>2024-12-28T17:00:26.316Z</time>
      </trkpt>
      <trkpt lat="51.857597" lon="8.347649">
        <ele>71.914231</ele>
        <time>2024-12-28T17:00:29.071Z</time>
      </trkpt>
      <trkpt lat="51.857545" lon="8.347819">
        <ele>71.919612</ele>
        <time>2024-12-28T17:00:32.100Z</time>
      </trkpt>
      <trkpt lat="51.857493" lon="8.348000">
        <ele>71.925275</ele>
        <time>2024-12-28T17:00:35.290Z</time>
      </trkpt>
      <trkpt lat="51.857420" lon="8.348183">
        <ele>71.931455</ele>
        <time>2024-12-28T17:00:38.769Z</time>
      </trkpt>
      <trkpt lat="51.857341" lon="8.348356">
        <ele>71.937558</ele>
        <time>2024-12-28T17:00:42.205Z</time>
      </trkpt>
      <trkpt lat="51.857268" lon="8.348521">
        <ele>71.943316</ele>
        <time>2024-12-28T17:00:45.447Z</time>
      </trkpt>
      <trkpt lat="51.857200" lon="8.348618">
        <ele>71.947478</ele>
        <time>2024-12-28T17:00:47.790Z</time>
      </trkpt>
      <trkpt lat="51.857090" lon="8.348727">
        <ele>71.953951</ele>
        <time>2024-12-28T17:00:51.125Z</time>
      </trkpt>
      <trkpt lat="51.856975" lon="8.348802">
        <ele>71.963182</ele>
        <time>2024-12-28T17:00:54.331Z</time>
      </trkpt>
      <trkpt lat="51.856850" lon="8.348839">
        <ele>71.972643</ele>
        <time>2024-12-28T17:00:57.617Z</time>
      </trkpt>
      <trkpt lat="51.856730" lon="8.348863">
        <ele>71.981646</ele>
        <time>2024-12-28T17:01:00.743Z</time>
      </trkpt>
      <trkpt lat="51.856638" lon="8.348900">
        <ele>71.988704</ele>
        <time>2024-12-28T17:01:03.194Z</time>
      </trkpt>
      <trkpt lat="51.856549" lon="8.348929">
        <ele>71.995463</ele>
        <time>2024-12-28T17:01:05.542Z</time>
      </trkpt>
      <trkpt lat="51.856458" lon="8.348938">
        <ele>72.002251</ele>
        <time>2024-12-28T17:01:07.899Z</time>
      </trkpt>
      <trkpt lat="51.856326" lon="8.348963">
        <ele>72.012146</ele>
        <time>2024-12-28T17:01:11.336Z</time>
      </trkpt>
      <trkpt lat="51.856213" lon="8.348985">
        <ele>72.020620</ele>
        <time>2024-12-28T17:01:14.280Z</time>
      </trkpt>
      <trkpt lat="51.856125" lon="8.349009">
        <ele>72.027264</ele>
        <time>2024-12-28T17:01:16.588Z</time>
      </trkpt>
      <trkpt lat="51.856036" lon="8.348977">
        <ele>72.034052</ele>
        <time>2024-12-28T17:01:18.946Z</time>
      </trkpt>
      <trkpt lat="51.855940" lon="8.348960">
        <ele>72.041242</ele>
        <time>2024-12-28T17:01:21.443Z</time>
      </trkpt>
      <trkpt lat="51.855811" lon="8.348918">
        <ele>72.051039</ele>
        <time>2024-12-28T17:01:24.845Z</time>
      </trkpt>
      <trkpt lat="51.855730" lon="8.348846">
        <ele>72.057919</ele>
        <time>2024-12-28T17:01:27.234Z</time>
      </trkpt>
      <trkpt lat="51.855659" lon="8.348753">
        <ele>72.064719</ele>
        <time>2024-12-28T17:01:29.597Z</time>
      </trkpt>
      <trkpt lat="51.855558" lon="8.348619">
        <ele>72.074441</ele>
        <time>2024-12-28T17:01:32.973Z</time>
      </trkpt>
      <trkpt lat="51.855498" lon="8.348510">
        <ele>72.081155</ele>
        <time>2024-12-28T17:01:35.305Z</time>
      </trkpt>
      <trkpt lat="51.855428" lon="8.348399">
        <ele>72.088765</ele>
        <time>2024-12-28T17:01:37.839Z</time>
      </trkpt>
      <trkpt lat="51.855374" lon="8.348278">
        <ele>72.096702</ele>
        <time>2024-12-28T17:01:40.223Z</time>
      </trkpt>
      <trkpt lat="51.855315" lon="8.348123">
        <ele>72.106383</ele>
        <time>2024-12-28T17:01:43.131Z</time>
      </trkpt>
      <trkpt lat="51.855237" lon="8.348031">
        <ele>72.114690</ele>
        <time>2024-12-28T17:01:45.627Z</time>
      </trkpt>
      <trkpt lat="51.855125" lon="8.347987">
        <ele>72.124611</ele>
        <time>2024-12-28T17:01:48.607Z</time>
      </trkpt>
      <trkpt lat="51.855000" lon="8.348007">
        <ele>72.135424</ele>
        <time>2024-12-28T17:01:51.854Z</time>
      </trkpt>
      <trkpt lat="51.854872" lon="8.347962">
        <ele>72.146700</ele>
        <time>2024-12-28T17:01:55.242Z</time>
      </trkpt>
      <trkpt lat="51.854776" lon="8.347947">
        <ele>72.155002</ele>
        <time>2024-12-28T17:01:57.736Z</time>
      </trkpt>
      <trkpt lat="51.854703" lon="8.347837">
        <ele>72.163587</ele>
        <time>2024-12-28T17:02:00.314Z</time>
      </trkpt>
      <trkpt lat="51.854631" lon="8.347721">
        <ele>72.172331</ele>
        <time>2024-12-28T17:02:02.942Z</time>
      </trkpt>
      <trkpt lat="51.854531" lon="8.347669">
        <ele>72.181372</ele>
        <time>2024-12-28T17:02:05.658Z</time>
      </trkpt>
      <trkpt lat="51.854449" lon="8.347604">
        <ele>72.189232</ele>
        <time>2024-12-28T17:02:08.019Z</time>
      </trkpt>
      <trkpt lat="51.854450" lon="8.347601">
        <ele>72.189413</ele>
        <time>2024-12-28T17:02:08.084Z</time>
      </trkpt>
      <trkpt lat="51.854257" lon="8.347396">
        <ele>72.209284</ele>
        <time>2024-12-28T17:02:16.784Z</time>
      </trkpt>
      <trkpt lat="51.854158" lon="8.347225">
        <ele>72.221745</ele>
        <time>2024-12-28T17:02:22.247Z</time>
      </trkpt>
      <trkpt lat="51.854107" lon="8.347071">
        <ele>72.231037</ele>
        <time>2024-12-28T17:02:26.336Z</time>
      </trkpt>
      <trkpt lat="51.854015" lon="8.346461">
        <ele>72.312138</ele>
        <time>2024-12-28T17:02:41.075Z</time>
      </trkpt>
      <trkpt lat="51.854015" lon="8.346243">
        <ele>72.347614</ele>
        <time>2024-12-28T17:02:46.211Z</time>
      </trkpt>
      <trkpt lat="51.854154" lon="8.345060">
        <ele>72.543578</ele>
        <time>2024-12-28T17:03:14.802Z</time>
      </trkpt>
      <trkpt lat="51.854190" lon="8.344571">
        <ele>72.623717</ele>
        <time>2024-12-28T17:03:26.740Z</time>
      </trkpt>
      <trkpt lat="51.854096" lon="8.343301">
        <ele>72.733946</ele>
        <time>2024-12-28T17:03:57.171Z</time>
      </trkpt>
      <trkpt lat="51.854073" lon="8.342674">
        <ele>72.750412</ele>
        <time>2024-12-28T17:04:11.807Z</time>
      </trkpt>
      <trkpt lat="51.853921" lon="8.342902">
        <ele>72.759207</ele>
        <time>2024-12-28T17:04:19.514Z</time>
      </trkpt>
      <trkpt lat="51.853834" lon="8.342980">
        <ele>72.763428</ele>
        <time>2024-12-28T17:04:23.259Z</time>
      </trkpt>
      <trkpt lat="51.853757" lon="8.342996">
        <ele>72.766723</ele>
        <time>2024-12-28T17:04:26.110Z</time>
      </trkpt>
      <trkpt lat="51.851525" lon="8.342505">
        <ele>72.598534</ele>
        <time>2024-12-28T17:05:48.438Z</time>
      </trkpt>
      <trkpt lat="51.851441" lon="8.342513">
        <ele>72.588807</ele>
        <time>2024-12-28T17:05:51.550Z</time>
      </trkpt>
      <trkpt lat="51.851349" lon="8.342655">
        <ele>72.602772</ele>
        <time>2024-12-28T17:05:54.396Z</time>
      </trkpt>
      <trkpt lat="51.850155" lon="8.346016">
        <ele>73.294304</ele>
        <time>2024-12-28T17:06:51.218Z</time>
      </trkpt>
      <trkpt lat="51.849844" lon="8.346960">
        <ele>73.575220</ele>
        <time>2024-12-28T17:07:07.645Z</time>
      </trkpt>
      <trkpt lat="51.849434" lon="8.348241">
        <ele>73.726491</ele>
        <time>2024-12-28T17:07:29.492Z</time>
      </trkpt>
      <trkpt lat="51.849360" lon="8.348351">
        <ele>73.716222</ele>
        <time>2024-12-28T17:07:31.841Z</time>
      </trkpt>
      <trkpt lat="51.849339" lon="8.348382">
        <ele>73.713317</ele>
        <time>2024-12-28T17:07:32.514Z</time>
      </trkpt>
      <trkpt lat="51.849161" lon="8.348434">
        <ele>73.694829</ele>
        <time>2024-12-28T17:07:36.639Z</time>
      </trkpt>
      <trkpt lat="51.849131" lon="8.348443">
        <ele>73.691710</ele>
        <time>2024-12-28T17:07:37.290Z</time>
      </trkpt>
      <trkpt lat="51.848837" lon="8.348414">
        <ele>73.661604</ele>
        <time>2024-12-28T17:07:43.685Z</time>
      </trkpt>
      <trkpt lat="51.848743" lon="8.348442">
        <ele>73.651834</ele>
        <time>2024-12-28T17:07:45.717Z</time>
      </trkpt>
      <trkpt lat="51.848480" lon="8.348815">
        <ele>73.616094</ele>
        <time>2024-12-28T17:07:53.066Z</time>
      </trkpt>
      <trkpt lat="51.848215" lon="8.349191">
        <ele>73.559246</ele>
        <time>2024-12-28T17:08:00.305Z</time>
      </trkpt>
      <trkpt lat="51.848011" lon="8.349109">
        <ele>73.470770</ele>
        <time>2024-12-28T17:08:04.614Z</time>
      </trkpt>
      <trkpt lat="51.845682" lon="8.348149">
        <ele>72.745325</ele>
        <time>2024-12-28T17:08:55.636Z</time>
      </trkpt>
      <trkpt lat="51.845632" lon="8.348175">
        <ele>72.740293</ele>
        <time>2024-12-28T17:08:56.737Z</time>
      </trkpt>
      <trkpt lat="51.844057" lon="8.344520">
        <ele>73.140525</ele>
        <time>2024-12-28T17:10:00.611Z</time>
      </trkpt>
      <trkpt lat="51.843789" lon="8.343853">
        <ele>73.383456</ele>
        <time>2024-12-28T17:10:13.424Z</time>
      </trkpt>
      <trkpt lat="51.843739" lon="8.343645">
        <ele>73.451601</ele>
        <time>2024-12-28T17:10:17.003Z</time>
      </trkpt>
      <trkpt lat="51.843698" lon="8.343424">
        <ele>73.522054</ele>
        <time>2024-12-28T17:10:20.706Z</time>
      </trkpt>
      <trkpt lat="51.843709" lon="8.343232">
        <ele>73.580927</ele>
        <time>2024-12-28T17:10:23.798Z</time>
      </trkpt>
      <trkpt lat="51.843641" lon="8.342631">
        <ele>73.767479</ele>
        <time>2024-12-28T17:10:33.551Z</time>
      </trkpt>
      <trkpt lat="51.843296" lon="8.340170">
        <ele>74.072371</ele>
        <time>2024-12-28T17:11:09.074Z</time>
      </trkpt>
      <trkpt lat="51.843248" lon="8.339823">
        <ele>74.089414</ele>
        <time>2024-12-28T17:11:14.084Z</time>
      </trkpt>
      <trkpt lat="51.843156" lon="8.339852">
        <ele>74.096686</ele>
        <time>2024-12-28T17:11:16.139Z</time>
      </trkpt>
      <trkpt lat="51.843031" lon="8.339894">
        <ele>74.106589</ele>
        <time>2024-12-28T17:11:18.990Z</time>
      </trkpt>
      <trkpt lat="51.842865" lon="8.339870">
        <ele>74.119519</ele>
        <time>2024-12-28T17:11:22.691Z</time>
      </trkpt>
      <trkpt lat="51.843031" lon="8.339894">
        <ele>74.128121</ele>
        <time>2024-12-28T17:11:26.397Z</time>
      </trkpt>
      <trkpt lat="51.843156" lon="8.339852">
        <ele>74.132107</ele>
        <time>2024-12-28T17:11:29.229Z</time>
      </trkpt>
      <trkpt lat="51.843176" lon="8.340022">
        <ele>74.135445</ele>
        <time>2024-12-28T17:11:31.680Z</time>
      </trkpt>
      <trkpt lat="51.843138" lon="8.340047">
        <ele>74.136726</ele>
        <time>2024-12-28T17:11:33.155Z</time>
      </trkpt>
      <trkpt lat="51.842181" lon="8.342020">
        <ele>74.182205</ele>
        <time>2024-12-28T17:12:30.898Z</time>
      </trkpt>
      <trkpt lat="51.840790" lon="8.344890">
        <ele>74.142685</ele>
        <time>2024-12-28T17:13:54.305Z</time>
      </trkpt>
      <trkpt lat="51.840230" lon="8.346169">
        <ele>74.056316</ele>
        <time>2024-12-28T17:14:29.814Z</time>
      </trkpt>
      <trkpt lat="51.839838" lon="8.347064">
        <ele>74.096075</ele>
        <time>2024-12-28T17:14:54.873Z</time>
      </trkpt>
      <trkpt lat="51.839463" lon="8.347919">
        <ele>74.191836</ele>
        <time>2024-12-28T17:15:09.841Z</time>
      </trkpt>
      <trkpt lat="51.839407" lon="8.348071">
        <ele>74.207999</ele>
        <time>2024-12-28T17:15:14.038Z</time>
      </trkpt>
      <trkpt lat="51.838415" lon="8.350094">
        <ele>74.492250</ele>
        <time>2024-12-28T17:16:15.602Z</time>
      </trkpt>
      <trkpt lat="51.837424" lon="8.348342">
        <ele>74.702682</ele>
        <time>2024-12-28T17:17:10.226Z</time>
      </trkpt>
      <trkpt lat="51.837065" lon="8.347709">
        <ele>74.742393</ele>
        <time>2024-12-28T17:17:30.119Z</time>
      </trkpt>
      <trkpt lat="51.836091" lon="8.345990">
        <ele>74.814257</ele>
        <time>2024-12-28T17:18:24.393Z</time>
      </trkpt>
      <trkpt lat="51.834845" lon="8.347678">
        <ele>74.856934</ele>
        <time>2024-12-28T17:19:24.513Z</time>
      </trkpt>
      <trkpt lat="51.834469" lon="8.348163">
        <ele>74.866145</ele>
        <time>2024-12-28T17:19:42.439Z</time>
      </trkpt>
      <trkpt lat="51.834293" lon="8.348330">
        <ele>74.870054</ele>
        <time>2024-12-28T17:19:50.090Z</time>
      </trkpt>
      <trkpt lat="51.834239" lon="8.348566">
        <ele>74.873033</ele>
        <time>2024-12-28T17:19:53.610Z</time>
      </trkpt>
      <trkpt lat="51.834204" lon="8.348650">
        <ele>74.874232</ele>
        <time>2024-12-28T17:19:55.020Z</time>
      </trkpt>
      <trkpt lat="51.834239" lon="8.348566">
        <ele>74.875431</ele>
        <time>2024-12-28T17:19:56.438Z</time>
      </trkpt>
      <trkpt lat="51.834293" lon="8.348330">
        <ele>74.878410</ele>
        <time>2024-12-28T17:19:59.968Z</time>
      </trkpt>
      <trkpt lat="51.834875" lon="8.352560">
        <ele>74.688530</ele>
        <time>2024-12-28T17:21:38.521Z</time>
      </trkpt>
      <trkpt lat="51.834934" lon="8.352984">
        <ele>74.664906</ele>
        <time>2024-12-28T17:21:48.346Z</time>
      </trkpt>
      <trkpt lat="51.835144" lon="8.354929">
        <ele>74.649690</ele>
        <time>2024-12-28T17:22:33.324Z</time>
      </trkpt>
      <trkpt lat="51.835474" lon="8.354568">
        <ele>74.682908</ele>
        <time>2024-12-28T17:22:48.289Z</time>
      </trkpt>
      <trkpt lat="51.836838" lon="8.353016">
        <ele>74.798641</ele>
        <time>2024-12-28T17:23:51.851Z</time>
      </trkpt>
      <trkpt lat="51.837134" lon="8.354279">
        <ele>74.844059</ele>
        <time>2024-12-28T17:24:22.710Z</time>
      </trkpt>
      <trkpt lat="51.837282" lon="8.354910">
        <ele>74.878977</ele>
        <time>2024-12-28T17:24:37.918Z</time>
      </trkpt>
      <trkpt lat="51.837144" lon="8.354948">
        <ele>74.893236</ele>
        <time>2024-12-28T17:24:40.952Z</time>
      </trkpt>
      <trkpt lat="51.836933" lon="8.355121">
        <ele>74.917331</ele>
        <time>2024-12-28T17:24:46.155Z</time>
      </trkpt>
      <trkpt lat="51.836585" lon="8.355406">
        <ele>74.957061</ele>
        <time>2024-12-28T17:24:55.043Z</time>
      </trkpt>
      <trkpt lat="51.836361" lon="8.355602">
        <ele>74.983000</ele>
        <time>2024-12-28T17:25:00.974Z</time>
      </trkpt>
      <trkpt lat="51.836111" lon="8.355821">
        <ele>75.011958</ele>
        <time>2024-12-28T17:25:07.615Z</time>
      </trkpt>
      <trkpt lat="51.835636" lon="8.356237">
        <ele>75.056877</ele>
        <time>2024-12-28T17:25:20.443Z</time>
      </trkpt>
      <trkpt lat="51.834703" lon="8.356568">
        <ele>75.122502</ele>
        <time>2024-12-28T17:25:43.018Z</time>
      </trkpt>
      <trkpt lat="51.834864" lon="8.357666">
        <ele>75.117746</ele>
        <time>2024-12-28T17:26:02.744Z</time>
      </trkpt>
      <trkpt lat="51.834818" lon="8.357684">
        <ele>75.105260</ele>
        <time>2024-12-28T17:26:03.748Z</time>
      </trkpt>
      <trkpt lat="51.835016" lon="8.359016">
        <ele>74.881908</ele>
        <time>2024-12-28T17:26:21.797Z</time>
      </trkpt>
      <trkpt lat="51.835148" lon="8.359934">
        <ele>74.728248</ele>
        <time>2024-12-28T17:26:34.349Z</time>
      </trkpt>
      <trkpt lat="51.835324" lon="8.361156">
        <ele>74.509061</ele>
        <time>2024-12-28T17:26:51.304Z</time>
      </trkpt>
      <trkpt lat="51.835403" lon="8.361122">
        <ele>74.485538</ele>
        <time>2024-12-28T17:26:53.675Z</time>
      </trkpt>
      <trkpt lat="51.835524" lon="8.361959">
        <ele>74.332693</ele>
        <time>2024-12-28T17:27:05.037Z</time>
      </trkpt>
      <trkpt lat="51.835687" lon="8.363056">
        <ele>74.145573</ele>
        <time>2024-12-28T17:27:19.751Z</time>
      </trkpt>
      <trkpt lat="51.835667" lon="8.363199">
        <ele>74.129460</ele>
        <time>2024-12-28T17:27:21.662Z</time>
      </trkpt>
      <trkpt lat="51.835701" lon="8.363419">
        <ele>74.104536</ele>
        <time>2024-12-28T17:27:24.606Z</time>
      </trkpt>
      <trkpt lat="51.835743" lon="8.363692">
        <ele>74.073616</ele>
        <time>2024-12-28T17:27:28.305Z</time>
      </trkpt>
      <trkpt lat="51.835789" lon="8.363796">
        <ele>74.059560</ele>
        <time>2024-12-28T17:27:29.994Z</time>
      </trkpt>
      <trkpt lat="51.835956" lon="8.364948">
        <ele>73.929513</ele>
        <time>2024-12-28T17:27:45.946Z</time>
      </trkpt>
      <trkpt lat="51.835879" lon="8.364971">
        <ele>73.915587</ele>
        <time>2024-12-28T17:27:48.244Z</time>
      </trkpt>
      <trkpt lat="51.836141" lon="8.366799">
        <ele>73.988680</ele>
        <time>2024-12-28T17:28:14.528Z</time>
      </trkpt>
      <trkpt lat="51.836305" lon="8.367935">
        <ele>74.119685</ele>
        <time>2024-12-28T17:28:31.511Z</time>
      </trkpt>
      <trkpt lat="51.836339" lon="8.368144">
        <ele>74.143954</ele>
        <time>2024-12-28T17:28:34.686Z</time>
      </trkpt>
      <trkpt lat="51.836417" lon="8.368117">
        <ele>74.158450</ele>
        <time>2024-12-28T17:28:37.098Z</time>
      </trkpt>
      <trkpt lat="51.836461" lon="8.368428">
        <ele>74.179624</ele>
        <time>2024-12-28T17:28:41.732Z</time>
      </trkpt>
      <trkpt lat="51.836610" lon="8.368585">
        <ele>74.188130</ele>
        <time>2024-12-28T17:28:45.858Z</time>
      </trkpt>
      <trkpt lat="51.836614" lon="8.368694">
        <ele>74.191358</ele>
        <time>2024-12-28T17:28:47.408Z</time>
      </trkpt>
      <trkpt lat="51.836611" lon="8.368809">
        <ele>74.194760</ele>
        <time>2024-12-28T17:28:49.045Z</time>
      </trkpt>
      <trkpt lat="51.836530" lon="8.369000">
        <ele>74.201608</ele>
        <time>2024-12-28T17:28:52.325Z</time>
      </trkpt>
      <trkpt lat="51.836562" lon="8.369398">
        <ele>74.213472</ele>
        <time>2024-12-28T17:28:57.965Z</time>
      </trkpt>
      <trkpt lat="51.836793" lon="8.370971">
        <ele>74.255444</ele>
        <time>2024-12-28T17:29:20.053Z</time>
      </trkpt>
      <trkpt lat="51.837040" lon="8.372694">
        <ele>73.941516</ele>
        <time>2024-12-28T17:29:43.707Z</time>
      </trkpt>
      <trkpt lat="51.836993" lon="8.372713">
        <ele>73.927601</ele>
        <time>2024-12-28T17:29:44.763Z</time>
      </trkpt>
      <trkpt lat="51.837087" lon="8.373366">
        <ele>73.808601</ele>
        <time>2024-12-28T17:29:53.480Z</time>
      </trkpt>
      <trkpt lat="51.837217" lon="8.374264">
        <ele>73.699052</ele>
        <time>2024-12-28T17:30:05.323Z</time>
      </trkpt>
      <trkpt lat="51.837242" lon="8.374434">
        <ele>73.685018</ele>
        <time>2024-12-28T17:30:07.598Z</time>
      </trkpt>
      <trkpt lat="51.837362" lon="8.375253">
        <ele>73.617425</ele>
        <time>2024-12-28T17:30:18.823Z</time>
      </trkpt>
      <trkpt lat="51.837570" lon="8.376712">
        <ele>73.551722</ele>
        <time>2024-12-28T17:30:39.551Z</time>
      </trkpt>
      <trkpt lat="51.837615" lon="8.377024">
        <ele>73.635159</ele>
        <time>2024-12-28T17:30:44.486Z</time>
      </trkpt>
      <trkpt lat="51.837747" lon="8.377921">
        <ele>73.875295</ele>
        <time>2024-12-28T17:30:58.877Z</time>
      </trkpt>
      <trkpt lat="51.837910" lon="8.379054">
        <ele>74.178250</ele>
        <time>2024-12-28T17:31:16.614Z</time>
      </trkpt>
      <trkpt lat="51.838166" lon="8.380821">
        <ele>74.546016</ele>
        <time>2024-12-28T17:31:43.777Z</time>
      </trkpt>
      <trkpt lat="51.838722" lon="8.384675">
        <ele>75.167584</ele>
        <time>2024-12-28T17:32:40.924Z</time>
      </trkpt>
      <trkpt lat="51.839042" lon="8.386893">
        <ele>75.316502</ele>
        <time>2024-12-28T17:33:13.189Z</time>
      </trkpt>
      <trkpt lat="51.839538" lon="8.390414">
        <ele>75.283256</ele>
        <time>2024-12-28T17:34:02.485Z</time>
      </trkpt>
      <trkpt lat="51.839718" lon="8.391692">
        <ele>75.352072</ele>
        <time>2024-12-28T17:34:20.311Z</time>
      </trkpt>
      <trkpt lat="51.839758" lon="8.392425">
        <ele>75.411605</ele>
        <time>2024-12-28T17:34:30.693Z</time>
      </trkpt>
      <trkpt lat="51.839740" lon="8.393094">
        <ele>75.465781</ele>
        <time>2024-12-28T17:34:40.569Z</time>
      </trkpt>
      <trkpt lat="51.839828" lon="8.393104">
        <ele>75.477332</ele>
        <time>2024-12-28T17:34:42.666Z</time>
      </trkpt>
      <trkpt lat="51.839723" lon="8.394058">
        <ele>75.586996</ele>
        <time>2024-12-28T17:34:56.841Z</time>
      </trkpt>
      <trkpt lat="51.839623" lon="8.394680">
        <ele>75.673086</ele>
        <time>2024-12-28T17:35:06.381Z</time>
      </trkpt>
      <trkpt lat="51.839644" lon="8.394885">
        <ele>75.700920</ele>
        <time>2024-12-28T17:35:09.476Z</time>
      </trkpt>
      <trkpt lat="51.839630" lon="8.394963">
        <ele>75.711800</ele>
        <time>2024-12-28T17:35:10.708Z</time>
      </trkpt>
      <trkpt lat="51.839556" lon="8.395130">
        <ele>75.739327</ele>
        <time>2024-12-28T17:35:13.785Z</time>
      </trkpt>
      <trkpt lat="51.839508" lon="8.395441">
        <ele>75.782265</ele>
        <time>2024-12-28T17:35:18.405Z</time>
      </trkpt>
      <trkpt lat="51.839429" lon="8.395412">
        <ele>75.799827</ele>
        <time>2024-12-28T17:35:20.267Z</time>
      </trkpt>
      <trkpt lat="51.839312" lon="8.396167">
        <ele>75.900255</ele>
        <time>2024-12-28T17:35:30.745Z</time>
      </trkpt>
      <trkpt lat="51.839240" lon="8.396623">
        <ele>75.923794</ele>
        <time>2024-12-28T17:35:37.161Z</time>
      </trkpt>
      <trkpt lat="51.839141" lon="8.397263">
        <ele>75.956790</ele>
        <time>2024-12-28T17:35:47.042Z</time>
      </trkpt>
      <trkpt lat="51.839050" lon="8.397844">
        <ele>75.986766</ele>
        <time>2024-12-28T17:35:55.844Z</time>
      </trkpt>
      <trkpt lat="51.838474" lon="8.397645">
        <ele>76.034441</ele>
        <time>2024-12-28T17:36:09.052Z</time>
      </trkpt>
      <trkpt lat="51.838128" lon="8.397557">
        <ele>75.964059</ele>
        <time>2024-12-28T17:36:16.778Z</time>
      </trkpt>
      <trkpt lat="51.836779" lon="8.397893">
        <ele>75.507364</ele>
        <time>2024-12-28T17:36:45.413Z</time>
      </trkpt>
      <trkpt lat="51.836598" lon="8.397903">
        <ele>75.446766</ele>
        <time>2024-12-28T17:36:49.205Z</time>
      </trkpt>
      <trkpt lat="51.836137" lon="8.397842">
        <ele>75.471630</ele>
        <time>2024-12-28T17:36:59.110Z</time>
      </trkpt>
      <trkpt lat="51.835283" lon="8.397627">
        <ele>75.529386</ele>
        <time>2024-12-28T17:37:19.236Z</time>
      </trkpt>
      <trkpt lat="51.834657" lon="8.397484">
        <ele>75.584339</ele>
        <time>2024-12-28T17:37:34.225Z</time>
      </trkpt>
      <trkpt lat="51.834128" lon="8.397665">
        <ele>75.667747</ele>
        <time>2024-12-28T17:37:47.016Z</time>
      </trkpt>
      <trkpt lat="51.833958" lon="8.397674">
        <ele>75.693985</ele>
        <time>2024-12-28T17:37:51.028Z</time>
      </trkpt>
      <trkpt lat="51.833385" lon="8.397647">
        <ele>75.782413</ele>
        <time>2024-12-28T17:38:04.117Z</time>
      </trkpt>
      <trkpt lat="51.833231" lon="8.397579">
        <ele>75.807038</ele>
        <time>2024-12-28T17:38:07.660Z</time>
      </trkpt>
      <trkpt lat="51.833062" lon="8.397446">
        <ele>75.836027</ele>
        <time>2024-12-28T17:38:11.821Z</time>
      </trkpt>
      <trkpt lat="51.832728" lon="8.396958">
        <ele>75.793468</ele>
        <time>2024-12-28T17:38:21.757Z</time>
      </trkpt>
      <trkpt lat="51.831325" lon="8.396162">
        <ele>75.650178</ele>
        <time>2024-12-28T17:38:54.199Z</time>
      </trkpt>
      <trkpt lat="51.831208" lon="8.396046">
        <ele>75.654463</ele>
        <time>2024-12-28T17:38:57.200Z</time>
      </trkpt>
      <trkpt lat="51.830232" lon="8.394299">
        <ele>75.699915</ele>
        <time>2024-12-28T17:39:29.839Z</time>
      </trkpt>
      <trkpt lat="51.830058" lon="8.394099">
        <ele>75.724839</ele>
        <time>2024-12-28T17:39:34.690Z</time>
      </trkpt>
      <trkpt lat="51.829954" lon="8.394058">
        <ele>75.743977</ele>
        <time>2024-12-28T17:39:37.140Z</time>
      </trkpt>
      <trkpt lat="51.829862" lon="8.394149">
        <ele>75.763255</ele>
        <time>2024-12-28T17:39:39.602Z</time>
      </trkpt>
      <trkpt lat="51.829529" lon="8.394905">
        <ele>75.865834</ele>
        <time>2024-12-28T17:39:52.700Z</time>
      </trkpt>
      <trkpt lat="51.828933" lon="8.396217">
        <ele>76.072535</ele>
        <time>2024-12-28T17:40:16.308Z</time>
      </trkpt>
      <trkpt lat="51.828862" lon="8.396313">
        <ele>76.109728</ele>
        <time>2024-12-28T17:40:18.532Z</time>
      </trkpt>
      <trkpt lat="51.828793" lon="8.396372">
        <ele>76.141099</ele>
        <time>2024-12-28T17:40:20.423Z</time>
      </trkpt>
      <trkpt lat="51.828697" lon="8.396390">
        <ele>76.179947</ele>
        <time>2024-12-28T17:40:22.738Z</time>
      </trkpt>
      <trkpt lat="51.828176" lon="8.396199">
        <ele>76.394685</ele>
        <time>2024-12-28T17:40:35.775Z</time>
      </trkpt>
      <trkpt lat="51.827941" lon="8.396115">
        <ele>76.491427</ele>
        <time>2024-12-28T17:40:41.683Z</time>
      </trkpt>
      <trkpt lat="51.827745" lon="8.396109">
        <ele>76.570229</ele>
        <time>2024-12-28T17:40:46.519Z</time>
      </trkpt>
      <trkpt lat="51.827616" lon="8.396154">
        <ele>76.623275</ele>
        <time>2024-12-28T17:40:49.786Z</time>
      </trkpt>
      <trkpt lat="51.827073" lon="8.396497">
        <ele>76.776460</ele>
        <time>2024-12-28T17:41:04.119Z</time>
      </trkpt>
      <trkpt lat="51.826990" lon="8.396541">
        <ele>76.785740</ele>
        <time>2024-12-28T17:41:06.300Z</time>
      </trkpt>
      <trkpt lat="51.827155" lon="8.397665">
        <ele>76.861604</ele>
        <time>2024-12-28T17:41:22.989Z</time>
      </trkpt>
      <trkpt lat="51.827261" lon="8.398397">
        <ele>76.910974</ele>
        <time>2024-12-28T17:41:33.114Z</time>
      </trkpt>
      <trkpt lat="51.827323" lon="8.398838">
        <ele>76.937254</ele>
        <time>2024-12-28T17:41:39.164Z</time>
      </trkpt>
      <trkpt lat="51.827418" lon="8.399510">
        <ele>76.913892</ele>
        <time>2024-12-28T17:41:48.294Z</time>
      </trkpt>
      <trkpt lat="51.827475" lon="8.399911">
        <ele>76.899947</ele>
        <time>2024-12-28T17:41:53.734Z</time>
      </trkpt>
      <trkpt lat="51.827499" lon="8.400085">
        <ele>76.893905</ele>
        <time>2024-12-28T17:41:56.096Z</time>
      </trkpt>
      <trkpt lat="51.827532" lon="8.400273">
        <ele>76.887282</ele>
        <time>2024-12-28T17:41:58.690Z</time>
      </trkpt>
      <trkpt lat="51.827468" lon="8.400299">
        <ele>76.883663</ele>
        <time>2024-12-28T17:42:00.113Z</time>
      </trkpt>
      <trkpt lat="51.827574" lon="8.400878">
        <ele>76.863198</ele>
        <time>2024-12-28T17:42:08.397Z</time>
      </trkpt>
      <trkpt lat="51.827812" lon="8.401690">
        <ele>76.871483</ele>
        <time>2024-12-28T17:42:21.513Z</time>
      </trkpt>
      <trkpt lat="51.828167" lon="8.402469">
        <ele>77.019026</ele>
        <time>2024-12-28T17:42:35.984Z</time>
      </trkpt>
      <trkpt lat="51.827961" lon="8.402811">
        <ele>77.091825</ele>
        <time>2024-12-28T17:42:43.074Z</time>
      </trkpt>
      <trkpt lat="51.827739" lon="8.403138">
        <ele>77.165874</ele>
        <time>2024-12-28T17:42:50.197Z</time>
      </trkpt>
      <trkpt lat="51.827525" lon="8.403549">
        <ele>77.247798</ele>
        <time>2024-12-28T17:42:57.906Z</time>
      </trkpt>
      <trkpt lat="51.826639" lon="8.404236">
        <ele>77.299690</ele>
        <time>2024-12-28T17:43:19.782Z</time>
      </trkpt>
      <trkpt lat="51.826570" lon="8.404240">
        <ele>77.301029</ele>
        <time>2024-12-28T17:43:21.369Z</time>
      </trkpt>
      <trkpt lat="51.826510" lon="8.404195">
        <ele>77.302312</ele>
        <time>2024-12-28T17:43:22.915Z</time>
      </trkpt>
      <trkpt lat="51.826461" lon="8.404271">
        <ele>77.303629</ele>
        <time>2024-12-28T17:43:25.457Z</time>
      </trkpt>
      <trkpt lat="51.826445" lon="8.404706">
        <ele>77.308853</ele>
        <time>2024-12-28T17:43:35.679Z</time>
      </trkpt>
      <trkpt lat="51.826503" lon="8.405401">
        <ele>77.317261</ele>
        <time>2024-12-28T17:43:51.651Z</time>
      </trkpt>
      <trkpt lat="51.826686" lon="8.406235">
        <ele>77.323056</ele>
        <time>2024-12-28T17:44:11.484Z</time>
      </trkpt>
      <trkpt lat="51.826815" lon="8.406533">
        <ele>77.325218</ele>
        <time>2024-12-28T17:44:19.702Z</time>
      </trkpt>
      <trkpt lat="51.826935" lon="8.406744">
        <ele>77.326921</ele>
        <time>2024-12-28T17:44:26.230Z</time>
      </trkpt>
      <trkpt lat="51.827198" lon="8.407061">
        <ele>77.330074</ele>
        <time>2024-12-28T17:44:38.452Z</time>
      </trkpt>
      <trkpt lat="51.827421" lon="8.407280">
        <ele>77.332582</ele>
        <time>2024-12-28T17:44:48.318Z</time>
      </trkpt>
      <trkpt lat="51.827667" lon="8.407438">
        <ele>77.335127</ele>
        <time>2024-12-28T17:44:58.421Z</time>
      </trkpt>
      <trkpt lat="51.827773" lon="8.407487">
        <ele>77.338659</ele>
        <time>2024-12-28T17:45:02.612Z</time>
      </trkpt>
      <trkpt lat="51.828201" lon="8.407441">
        <ele>77.360665</ele>
        <time>2024-12-28T17:45:19.244Z</time>
      </trkpt>
      <trkpt lat="51.828426" lon="8.407482">
        <ele>77.372282</ele>
        <time>2024-12-28T17:45:28.014Z</time>
      </trkpt>
      <trkpt lat="51.828532" lon="8.407672">
        <ele>77.380397</ele>
        <time>2024-12-28T17:45:34.089Z</time>
      </trkpt>
      <trkpt lat="51.828679" lon="8.408461">
        <ele>77.406525</ele>
        <time>2024-12-28T17:45:53.197Z</time>
      </trkpt>
      <trkpt lat="51.828847" lon="8.408928">
        <ele>77.423658</ele>
        <time>2024-12-28T17:46:05.311Z</time>
      </trkpt>
      <trkpt lat="51.828975" lon="8.409465">
        <ele>77.368698</ele>
        <time>2024-12-28T17:46:17.998Z</time>
      </trkpt>
      <trkpt lat="51.829623" lon="8.413060">
        <ele>77.170783</ele>
        <time>2024-12-28T17:47:42.572Z</time>
      </trkpt>
      <trkpt lat="51.829684" lon="8.413505">
        <ele>77.218153</ele>
        <time>2024-12-28T17:47:53.510Z</time>
      </trkpt>
      <trkpt lat="51.829962" lon="8.413883">
        <ele>77.279215</ele>
        <time>2024-12-28T17:48:07.772Z</time>
      </trkpt>
      <trkpt lat="51.829900" lon="8.416636">
        <ele>77.918337</ele>
        <time>2024-12-28T17:49:14.260Z</time>
      </trkpt>
      <trkpt lat="51.829727" lon="8.417107">
        <ele>78.064604</ele>
        <time>2024-12-28T17:49:27.703Z</time>
      </trkpt>
      <trkpt lat="51.829672" lon="8.417234">
        <ele>78.106003</ele>
        <time>2024-12-28T17:49:30.199Z</time>
      </trkpt>
      <trkpt lat="51.829273" lon="8.418719">
        <ele>78.609575</ele>
        <time>2024-12-28T17:49:55.698Z</time>
      </trkpt>
      <trkpt lat="51.829224" lon="8.419088">
        <ele>78.727404</ele>
        <time>2024-12-28T17:50:02.056Z</time>
      </trkpt>
      <trkpt lat="51.829245" lon="8.419554">
        <ele>78.873274</ele>
        <time>2024-12-28T17:50:09.761Z</time>
      </trkpt>
      <trkpt lat="51.828892" lon="8.419663">
        <ele>79.035692</ele>
        <time>2024-12-28T17:50:23.926Z</time>
      </trkpt>
      <trkpt lat="51.828468" lon="8.419636">
        <ele>79.107013</ele>
        <time>2024-12-28T17:50:40.041Z</time>
      </trkpt>
      <trkpt lat="51.828371" lon="8.419670">
        <ele>79.123695</ele>
        <time>2024-12-28T17:50:43.773Z</time>
      </trkpt>
      <trkpt lat="51.828241" lon="8.419797">
        <ele>79.149219</ele>
        <time>2024-12-28T17:50:49.524Z</time>
      </trkpt>
      <trkpt lat="51.828173" lon="8.419926">
        <ele>79.166832</ele>
        <time>2024-12-28T17:50:53.545Z</time>
      </trkpt>
      <trkpt lat="51.827926" lon="8.420586">
        <ele>79.246981</ele>
        <time>2024-12-28T17:51:11.791Z</time>
      </trkpt>
      <trkpt lat="51.827782" lon="8.420848">
        <ele>79.283403</ele>
        <time>2024-12-28T17:51:19.898Z</time>
      </trkpt>
      <trkpt lat="51.827611" lon="8.421037">
        <ele>79.318210</ele>
        <time>2024-12-28T17:51:27.529Z</time>
      </trkpt>
      <trkpt lat="51.827495" lon="8.421114">
        <ele>79.305176</ele>
        <time>2024-12-28T17:51:32.141Z</time>
      </trkpt>
      <trkpt lat="51.827089" lon="8.421141">
        <ele>79.157991</ele>
        <time>2024-12-28T17:51:46.926Z</time>
      </trkpt>
      <trkpt lat="51.826127" lon="8.420968">
        <ele>78.807393</ele>
        <time>2024-12-28T17:52:21.505Z</time>
      </trkpt>
      <trkpt lat="51.825586" lon="8.420897">
        <ele>78.658462</ele>
        <time>2024-12-28T17:52:33.302Z</time>
      </trkpt>
      <trkpt lat="51.825343" lon="8.420865">
        <ele>78.633762</ele>
        <time>2024-12-28T17:52:38.771Z</time>
      </trkpt>
      <trkpt lat="51.824607" lon="8.421068">
        <ele>78.558121</ele>
        <time>2024-12-28T17:52:56.183Z</time>
      </trkpt>
      <trkpt lat="51.824543" lon="8.421126">
        <ele>78.550689</ele>
        <time>2024-12-28T17:52:57.912Z</time>
      </trkpt>
      <trkpt lat="51.824277" lon="8.420594">
        <ele>78.507841</ele>
        <time>2024-12-28T17:53:07.527Z</time>
      </trkpt>
      <trkpt lat="51.824158" lon="8.420242">
        <ele>78.456906</ele>
        <time>2024-12-28T17:53:13.080Z</time>
      </trkpt>
      <trkpt lat="51.823577" lon="8.420426">
        <ele>78.268265</ele>
        <time>2024-12-28T17:53:26.019Z</time>
      </trkpt>
      <trkpt lat="51.823389" lon="8.420416">
        <ele>78.208329</ele>
        <time>2024-12-28T17:53:29.992Z</time>
      </trkpt>
      <trkpt lat="51.822525" lon="8.420108">
        <ele>77.926425</ele>
        <time>2024-12-28T17:53:48.395Z</time>
      </trkpt>
      <trkpt lat="51.822194" lon="8.420032">
        <ele>77.843226</ele>
        <time>2024-12-28T17:53:55.397Z</time>
      </trkpt>
      <trkpt lat="51.821977" lon="8.420086">
        <ele>77.789309</ele>
        <time>2024-12-28T17:54:00.067Z</time>
      </trkpt>
      <trkpt lat="51.821825" lon="8.420175">
        <ele>77.749612</ele>
        <time>2024-12-28T17:54:03.552Z</time>
      </trkpt>
      <trkpt lat="51.821458" lon="8.420521">
        <ele>77.645298</ele>
        <time>2024-12-28T17:54:12.772Z</time>
      </trkpt>
      <trkpt lat="51.821049" lon="8.420895">
        <ele>77.529922</ele>
        <time>2024-12-28T17:54:23.081Z</time>
      </trkpt>
      <trkpt lat="51.819718" lon="8.425042">
        <ele>77.356001</ele>
        <time>2024-12-28T17:55:26.724Z</time>
      </trkpt>
      <trkpt lat="51.819679" lon="8.425166">
        <ele>77.355481</ele>
        <time>2024-12-28T17:55:28.663Z</time>
      </trkpt>
      <trkpt lat="51.819292" lon="8.426371">
        <ele>77.354129</ele>
        <time>2024-12-28T17:55:59.812Z</time>
      </trkpt>
      <trkpt lat="51.818892" lon="8.427613">
        <ele>77.599568</ele>
        <time>2024-12-28T17:56:32.992Z</time>
      </trkpt>
      <trkpt lat="51.818774" lon="8.428103">
        <ele>77.691731</ele>
        <time>2024-12-28T17:56:45.766Z</time>
      </trkpt>
      <trkpt lat="51.818647" lon="8.428769">
        <ele>77.813880</ele>
        <time>2024-12-28T17:57:02.637Z</time>
      </trkpt>
      <trkpt lat="51.818488" lon="8.429866">
        <ele>78.033106</ele>
        <time>2024-12-28T17:57:29.840Z</time>
      </trkpt>
      <trkpt lat="51.818332" lon="8.429853">
        <ele>78.083777</ele>
        <time>2024-12-28T17:57:34.565Z</time>
      </trkpt>
      <trkpt lat="51.818331" lon="8.429951">
        <ele>78.103431</ele>
        <time>2024-12-28T17:57:36.372Z</time>
      </trkpt>
      <trkpt lat="51.818329" lon="8.430039">
        <ele>78.121088</ele>
        <time>2024-12-28T17:57:37.682Z</time>
      </trkpt>
      <trkpt lat="51.818384" lon="8.430046">
        <ele>78.138985</ele>
        <time>2024-12-28T17:57:39.327Z</time>
      </trkpt>
      <trkpt lat="51.818456" lon="8.430055">
        <ele>78.162410</ele>
        <time>2024-12-28T17:57:41.526Z</time>
      </trkpt>
      <trkpt lat="51.818388" lon="8.430615">
        <ele>78.276847</ele>
        <time>2024-12-28T17:57:50.158Z</time>
      </trkpt>
      <trkpt lat="51.818343" lon="8.430935">
        <ele>78.342653</ele>
        <time>2024-12-28T17:57:55.092Z</time>
      </trkpt>
      <trkpt lat="51.818277" lon="8.431413">
        <ele>78.440864</ele>
        <time>2024-12-28T17:58:02.648Z</time>
      </trkpt>
      <trkpt lat="51.818133" lon="8.432455">
        <ele>78.580067</ele>
        <time>2024-12-28T17:58:19.094Z</time>
      </trkpt>
      <trkpt lat="51.818109" lon="8.432624">
        <ele>78.602501</ele>
        <time>2024-12-28T17:58:21.586Z</time>
      </trkpt>
      <trkpt lat="51.818014" lon="8.433326">
        <ele>78.695472</ele>
        <time>2024-12-28T17:58:32.163Z</time>
      </trkpt>
      <trkpt lat="51.817990" lon="8.433506">
        <ele>78.719295</ele>
        <time>2024-12-28T17:58:34.896Z</time>
      </trkpt>
      <trkpt lat="51.817934" lon="8.433901">
        <ele>78.771725</ele>
        <time>2024-12-28T17:58:40.978Z</time>
      </trkpt>
      <trkpt lat="51.817917" lon="8.434019">
        <ele>78.787400</ele>
        <time>2024-12-28T17:58:42.753Z</time>
      </trkpt>
      <trkpt lat="51.817850" lon="8.434490">
        <ele>78.829523</ele>
        <time>2024-12-28T17:58:49.916Z</time>
      </trkpt>
      <trkpt lat="51.817665" lon="8.435750">
        <ele>78.881632</ele>
        <time>2024-12-28T17:59:08.466Z</time>
      </trkpt>
      <trkpt lat="51.817661" lon="8.435777">
        <ele>78.882749</ele>
        <time>2024-12-28T17:59:08.877Z</time>
      </trkpt>
      <trkpt lat="51.817675" lon="8.435921">
        <ele>78.888615</ele>
        <time>2024-12-28T17:59:10.999Z</time>
      </trkpt>
      <trkpt lat="51.817627" lon="8.436030">
        <ele>78.894000</ele>
        <time>2024-12-28T17:59:12.966Z</time>
      </trkpt>
      <trkpt lat="51.817545" lon="8.436626">
        <ele>78.918568</ele>
        <time>2024-12-28T17:59:22.066Z</time>
      </trkpt>
      <trkpt lat="51.817519" lon="8.436689">
        <ele>78.921616</ele>
        <time>2024-12-28T17:59:23.170Z</time>
      </trkpt>
      <trkpt lat="51.817486" lon="8.436691">
        <ele>78.923765</ele>
        <time>2024-12-28T17:59:23.975Z</time>
      </trkpt>
      <trkpt lat="51.817482" lon="8.436827">
        <ele>78.929244</ele>
        <time>2024-12-28T17:59:25.903Z</time>
      </trkpt>
      <trkpt lat="51.816955" lon="8.440479">
        <ele>78.859169</ele>
        <time>2024-12-28T18:00:17.025Z</time>
      </trkpt>
      <trkpt lat="51.816358" lon="8.444591">
        <ele>78.916442</ele>
        <time>2024-12-28T18:01:15.790Z</time>
      </trkpt>
      <trkpt lat="51.816256" lon="8.444833">
        <ele>78.917775</ele>
        <time>2024-12-28T18:01:19.816Z</time>
      </trkpt>
      <trkpt lat="51.816200" lon="8.445064">
        <ele>78.918905</ele>
        <time>2024-12-28T18:01:23.219Z</time>
      </trkpt>
      <trkpt lat="51.816188" lon="8.445319">
        <ele>78.920069</ele>
        <time>2024-12-28T18:01:26.728Z</time>
      </trkpt>
      <trkpt lat="51.816206" lon="8.445638">
        <ele>78.910813</ele>
        <time>2024-12-28T18:01:31.105Z</time>
      </trkpt>
      <trkpt lat="51.815736" lon="8.448884">
        <ele>78.700682</ele>
        <time>2024-12-28T18:02:16.204Z</time>
      </trkpt>
      <trkpt lat="51.815727" lon="8.448950">
        <ele>78.696227</ele>
        <time>2024-12-28T18:02:17.128Z</time>
      </trkpt>
      <trkpt lat="51.815710" lon="8.449077">
        <ele>78.687661</ele>
        <time>2024-12-28T18:02:18.897Z</time>
      </trkpt>
      <trkpt lat="51.815630" lon="8.449067">
        <ele>78.679104</ele>
        <time>2024-12-28T18:02:20.659Z</time>
      </trkpt>
      <trkpt lat="51.814779" lon="8.448944">
        <ele>78.587997</ele>
        <time>2024-12-28T18:02:39.376Z</time>
      </trkpt>
      <trkpt lat="51.814426" lon="8.448943">
        <ele>78.550355</ele>
        <time>2024-12-28T18:02:47.113Z</time>
      </trkpt>
      <trkpt lat="51.813500" lon="8.449148">
        <ele>78.533002</ele>
        <time>2024-12-28T18:03:07.712Z</time>
      </trkpt>
      <trkpt lat="51.812986" lon="8.449253">
        <ele>78.524776</ele>
        <time>2024-12-28T18:03:19.220Z</time>
      </trkpt>
      <trkpt lat="51.812848" lon="8.449199">
        <ele>78.522522</ele>
        <time>2024-12-28T18:03:22.445Z</time>
      </trkpt>
      <trkpt lat="51.812613" lon="8.448994">
        <ele>78.520430</ele>
        <time>2024-12-28T18:03:28.553Z</time>
      </trkpt>
      <trkpt lat="51.812536" lon="8.449002">
        <ele>78.523891</ele>
        <time>2024-12-28T18:03:30.322Z</time>
      </trkpt>
      <trkpt lat="51.812588" lon="8.450477">
        <ele>78.564857</ele>
        <time>2024-12-28T18:03:50.950Z</time>
      </trkpt>
      <trkpt lat="51.812536" lon="8.449002">
        <ele>78.585078</ele>
        <time>2024-12-28T18:04:11.404Z</time>
      </trkpt>
      <trkpt lat="51.812530" lon="8.448821">
        <ele>78.573574</ele>
        <time>2024-12-28T18:04:13.912Z</time>
      </trkpt>
      <trkpt lat="51.812367" lon="8.448848">
        <ele>78.556753</ele>
        <time>2024-12-28T18:04:17.556Z</time>
      </trkpt>
      <trkpt lat="51.811530" lon="8.448995">
        <ele>78.470322</ele>
        <time>2024-12-28T18:04:36.085Z</time>
      </trkpt>
      <trkpt lat="51.811210" lon="8.449041">
        <ele>78.437341</ele>
        <time>2024-12-28T18:04:43.111Z</time>
      </trkpt>
      <trkpt lat="51.809716" lon="8.448553">
        <ele>78.016587</ele>
        <time>2024-12-28T18:05:15.566Z</time>
      </trkpt>
      <trkpt lat="51.809409" lon="8.448458">
        <ele>77.921211</ele>
        <time>2024-12-28T18:05:22.244Z</time>
      </trkpt>
      <trkpt lat="51.808983" lon="8.448478">
        <ele>77.830209</ele>
        <time>2024-12-28T18:05:31.394Z</time>
      </trkpt>
      <trkpt lat="51.808654" lon="8.448538">
        <ele>77.781867</ele>
        <time>2024-12-28T18:05:38.564Z</time>
      </trkpt>
      <trkpt lat="51.808074" lon="8.448733">
        <ele>77.695371</ele>
        <time>2024-12-28T18:05:51.517Z</time>
      </trkpt>
      <trkpt lat="51.807402" lon="8.448786">
        <ele>77.603334</ele>
        <time>2024-12-28T18:06:06.367Z</time>
      </trkpt>
      <trkpt lat="51.807102" lon="8.448884">
        <ele>77.602784</ele>
        <time>2024-12-28T18:06:13.132Z</time>
      </trkpt>
      <trkpt lat="51.806945" lon="8.448977">
        <ele>77.602484</ele>
        <time>2024-12-28T18:06:16.841Z</time>
      </trkpt>
      <trkpt lat="51.806879" lon="8.449060">
        <ele>77.602334</ele>
        <time>2024-12-28T18:06:18.703Z</time>
      </trkpt>
      <trkpt lat="51.806766" lon="8.449018">
        <ele>77.602126</ele>
        <time>2024-12-28T18:06:22.984Z</time>
      </trkpt>
      <trkpt lat="51.804869" lon="8.449537">
        <ele>77.684351</ele>
        <time>2024-12-28T18:07:34.581Z</time>
      </trkpt>
      <trkpt lat="51.802773" lon="8.450111">
        <ele>78.278473</ele>
        <time>2024-12-28T18:08:55.444Z</time>
      </trkpt>
      <trkpt lat="51.802693" lon="8.450133">
        <ele>78.313084</ele>
        <time>2024-12-28T18:08:58.783Z</time>
      </trkpt>
      <trkpt lat="51.802036" lon="8.450305">
        <ele>78.552436</ele>
        <time>2024-12-28T18:09:26.426Z</time>
      </trkpt>
      <trkpt lat="51.801741" lon="8.450383">
        <ele>78.565568</ele>
        <time>2024-12-28T18:09:38.657Z</time>
      </trkpt>
      <trkpt lat="51.801715" lon="8.450325">
        <ele>78.567514</ele>
        <time>2024-12-28T18:09:40.422Z</time>
      </trkpt>
      <trkpt lat="51.801350" lon="8.449933">
        <ele>78.586762</ele>
        <time>2024-12-28T18:09:56.919Z</time>
      </trkpt>
      <trkpt lat="51.801192" lon="8.450619">
        <ele>78.606648</ele>
        <time>2024-12-28T18:10:13.249Z</time>
      </trkpt>
      <trkpt lat="51.801139" lon="8.450998">
        <ele>78.617204</ele>
        <time>2024-12-28T18:10:21.758Z</time>
      </trkpt>
      <trkpt lat="51.801111" lon="8.451079">
        <ele>78.619725</ele>
        <time>2024-12-28T18:10:23.791Z</time>
      </trkpt>
      <trkpt lat="51.801082" lon="8.451484">
        <ele>78.593765</ele>
        <time>2024-12-28T18:10:28.913Z</time>
      </trkpt>
      <trkpt lat="51.800578" lon="8.455670">
        <ele>78.016516</ele>
        <time>2024-12-28T18:11:25.770Z</time>
      </trkpt>
      <trkpt lat="51.799395" lon="8.454861">
        <ele>78.056629</ele>
        <time>2024-12-28T18:11:56.598Z</time>
      </trkpt>
      <trkpt lat="51.799395" lon="8.454861">
        <ele>78.056629</ele>
        <time>2024-12-28T18:11:56.605Z</time>
      </trkpt>
      <trkpt lat="51.799449" lon="8.454886">
        <ele>78.065896</ele>
        <time>2024-12-28T18:11:58.058Z</time>
      </trkpt>
      <trkpt lat="51.799357" lon="8.455067">
        <ele>78.089802</ele>
        <time>2024-12-28T18:12:01.803Z</time>
      </trkpt>
      <trkpt lat="51.799332" lon="8.455252">
        <ele>78.109123</ele>
        <time>2024-12-28T18:12:04.833Z</time>
      </trkpt>
      <trkpt lat="51.799307" lon="8.455456">
        <ele>78.130342</ele>
        <time>2024-12-28T18:12:08.159Z</time>
      </trkpt>
      <trkpt lat="51.799291" lon="8.455662">
        <ele>78.151526</ele>
        <time>2024-12-28T18:12:11.479Z</time>
      </trkpt>
      <trkpt lat="51.799272" lon="8.455804">
        <ele>78.166350</ele>
        <time>2024-12-28T18:12:13.802Z</time>
      </trkpt>
      <trkpt lat="51.799255" lon="8.455949">
        <ele>78.181408</ele>
        <time>2024-12-28T18:12:16.163Z</time>
      </trkpt>
      <trkpt lat="51.799244" lon="8.456101">
        <ele>78.197023</ele>
        <time>2024-12-28T18:12:18.610Z</time>
      </trkpt>
      <trkpt lat="51.799206" lon="8.456311">
        <ele>78.219349</ele>
        <time>2024-12-28T18:12:22.109Z</time>
      </trkpt>
      <trkpt lat="51.799188" lon="8.456459">
        <ele>78.234739</ele>
        <time>2024-12-28T18:12:24.521Z</time>
      </trkpt>
      <trkpt lat="51.799177" lon="8.456617">
        <ele>78.250962</ele>
        <time>2024-12-28T18:12:27.064Z</time>
      </trkpt>
      <trkpt lat="51.799160" lon="8.456791">
        <ele>78.268936</ele>
        <time>2024-12-28T18:12:29.881Z</time>
      </trkpt>
      <trkpt lat="51.799143" lon="8.456978">
        <ele>78.289793</ele>
        <time>2024-12-28T18:12:32.904Z</time>
      </trkpt>
      <trkpt lat="51.799107" lon="8.457155">
        <ele>78.314651</ele>
        <time>2024-12-28T18:12:35.883Z</time>
      </trkpt>
      <trkpt lat="51.799087" lon="8.457329">
        <ele>78.338263</ele>
        <time>2024-12-28T18:12:38.713Z</time>
      </trkpt>
      <trkpt lat="51.799070" lon="8.457476">
        <ele>78.358214</ele>
        <time>2024-12-28T18:12:41.105Z</time>
      </trkpt>
      <trkpt lat="51.799050" lon="8.457654">
        <ele>78.382350</ele>
        <time>2024-12-28T18:12:43.998Z</time>
      </trkpt>
      <trkpt lat="51.799033" lon="8.457805">
        <ele>78.402827</ele>
        <time>2024-12-28T18:12:46.453Z</time>
      </trkpt>
      <trkpt lat="51.798986" lon="8.458345">
        <ele>78.475580</ele>
        <time>2024-12-28T18:12:55.173Z</time>
      </trkpt>
      <trkpt lat="51.798961" lon="8.458541">
        <ele>78.502279</ele>
        <time>2024-12-28T18:12:58.374Z</time>
      </trkpt>
      <trkpt lat="51.798938" lon="8.458743">
        <ele>78.529682</ele>
        <time>2024-12-28T18:13:01.659Z</time>
      </trkpt>
      <trkpt lat="51.798897" lon="8.458935">
        <ele>78.556781</ele>
        <time>2024-12-28T18:13:04.907Z</time>
      </trkpt>
      <trkpt lat="51.798888" lon="8.459136">
        <ele>78.583667</ele>
        <time>2024-12-28T18:13:08.130Z</time>
      </trkpt>
      <trkpt lat="51.798864" lon="8.459332">
        <ele>78.610324</ele>
        <time>2024-12-28T18:13:11.325Z</time>
      </trkpt>
      <trkpt lat="51.798822" lon="8.459530">
        <ele>78.638251</ele>
        <time>2024-12-28T18:13:14.673Z</time>
      </trkpt>
      <trkpt lat="51.798812" lon="8.459748">
        <ele>78.667415</ele>
        <time>2024-12-28T18:13:18.168Z</time>
      </trkpt>
      <trkpt lat="51.798787" lon="8.459961">
        <ele>78.709005</ele>
        <time>2024-12-28T18:13:21.636Z</time>
      </trkpt>
      <trkpt lat="51.798746" lon="8.460166">
        <ele>78.752194</ele>
        <time>2024-12-28T18:13:25.081Z</time>
      </trkpt>
      <trkpt lat="51.798734" lon="8.460379">
        <ele>78.795068</ele>
        <time>2024-12-28T18:13:28.501Z</time>
      </trkpt>
      <trkpt lat="51.798714" lon="8.460579">
        <ele>78.835679</ele>
        <time>2024-12-28T18:13:31.741Z</time>
      </trkpt>
      <trkpt lat="51.798675" lon="8.460778">
        <ele>78.877525</ele>
        <time>2024-12-28T18:13:35.080Z</time>
      </trkpt>
      <trkpt lat="51.798652" lon="8.460982">
        <ele>78.919092</ele>
        <time>2024-12-28T18:13:38.396Z</time>
      </trkpt>
      <trkpt lat="51.798643" lon="8.461188">
        <ele>78.960489</ele>
        <time>2024-12-28T18:13:41.699Z</time>
      </trkpt>
      <trkpt lat="51.798621" lon="8.461394">
        <ele>79.002394</ele>
        <time>2024-12-28T18:13:45.042Z</time>
      </trkpt>
      <trkpt lat="51.798600" lon="8.461590">
        <ele>79.042269</ele>
        <time>2024-12-28T18:13:48.223Z</time>
      </trkpt>
      <trkpt lat="51.798575" lon="8.461789">
        <ele>79.082974</ele>
        <time>2024-12-28T18:13:51.470Z</time>
      </trkpt>
      <trkpt lat="51.798554" lon="8.461989">
        <ele>79.123639</ele>
        <time>2024-12-28T18:13:54.715Z</time>
      </trkpt>
      <trkpt lat="51.798530" lon="8.462192">
        <ele>79.165068</ele>
        <time>2024-12-28T18:13:58.020Z</time>
      </trkpt>
      <trkpt lat="51.798507" lon="8.462382">
        <ele>79.203878</ele>
        <time>2024-12-28T18:14:01.116Z</time>
      </trkpt>
      <trkpt lat="51.798487" lon="8.462565">
        <ele>79.241130</ele>
        <time>2024-12-28T18:14:04.088Z</time>
      </trkpt>
      <trkpt lat="51.798449" lon="8.462753">
        <ele>79.287361</ele>
        <time>2024-12-28T18:14:07.251Z</time>
      </trkpt>
      <trkpt lat="51.798441" lon="8.462937">
        <ele>79.333476</ele>
        <time>2024-12-28T18:14:10.201Z</time>
      </trkpt>
      <trkpt lat="51.798421" lon="8.463118">
        <ele>79.379444</ele>
        <time>2024-12-28T18:14:13.141Z</time>
      </trkpt>
      <trkpt lat="51.798398" lon="8.463296">
        <ele>79.424906</ele>
        <time>2024-12-28T18:14:16.049Z</time>
      </trkpt>
      <trkpt lat="51.798377" lon="8.463485">
        <ele>79.472914</ele>
        <time>2024-12-28T18:14:19.120Z</time>
      </trkpt>
      <trkpt lat="51.798341" lon="8.463652">
        <ele>79.517129</ele>
        <time>2024-12-28T18:14:21.949Z</time>
      </trkpt>
      <trkpt lat="51.798333" lon="8.463813">
        <ele>79.557510</ele>
        <time>2024-12-28T18:14:24.532Z</time>
      </trkpt>
      <trkpt lat="51.798311" lon="8.464024">
        <ele>79.611006</ele>
        <time>2024-12-28T18:14:27.954Z</time>
      </trkpt>
      <trkpt lat="51.798276" lon="8.464189">
        <ele>79.654617</ele>
        <time>2024-12-28T18:14:30.743Z</time>
      </trkpt>
      <trkpt lat="51.798255" lon="8.464366">
        <ele>79.699675</ele>
        <time>2024-12-28T18:14:33.626Z</time>
      </trkpt>
      <trkpt lat="51.798250" lon="8.464543">
        <ele>79.743973</ele>
        <time>2024-12-28T18:14:36.459Z</time>
      </trkpt>
      <trkpt lat="51.798225" lon="8.464709">
        <ele>79.786687</ele>
        <time>2024-12-28T18:14:39.191Z</time>
      </trkpt>
      <trkpt lat="51.798205" lon="8.464906">
        <ele>79.836598</ele>
        <time>2024-12-28T18:14:42.384Z</time>
      </trkpt>
      <trkpt lat="51.798164" lon="8.465111">
        <ele>79.890463</ele>
        <time>2024-12-28T18:14:45.830Z</time>
      </trkpt>
      <trkpt lat="51.798155" lon="8.465328">
        <ele>79.944837</ele>
        <time>2024-12-28T18:14:49.308Z</time>
      </trkpt>
      <trkpt lat="51.798120" lon="8.465477">
        <ele>79.983384</ele>
        <time>2024-12-28T18:14:51.857Z</time>
      </trkpt>
      <trkpt lat="51.798117" lon="8.465634">
        <ele>80.007725</ele>
        <time>2024-12-28T18:14:54.369Z</time>
      </trkpt>
      <trkpt lat="51.798099" lon="8.465782">
        <ele>80.031099</ele>
        <time>2024-12-28T18:14:56.781Z</time>
      </trkpt>
      <trkpt lat="51.798073" lon="8.465999">
        <ele>80.065351</ele>
        <time>2024-12-28T18:15:00.316Z</time>
      </trkpt>
      <trkpt lat="51.798037" lon="8.466156">
        <ele>80.091299</ele>
        <time>2024-12-28T18:15:02.994Z</time>
      </trkpt>
      <trkpt lat="51.797931" lon="8.466214">
        <ele>80.119339</ele>
        <time>2024-12-28T18:15:05.888Z</time>
      </trkpt>
      <trkpt lat="51.797832" lon="8.466198">
        <ele>80.144270</ele>
        <time>2024-12-28T18:15:08.460Z</time>
      </trkpt>
      <trkpt lat="51.797832" lon="8.466242">
        <ele>80.151088</ele>
        <time>2024-12-28T18:15:09.164Z</time>
      </trkpt>
      <trkpt lat="51.796248" lon="8.466212">
        <ele>80.381949</ele>
        <time>2024-12-28T18:15:45.557Z</time>
      </trkpt>
      <trkpt lat="51.796050" lon="8.466297">
        <ele>80.359833</ele>
        <time>2024-12-28T18:15:50.121Z</time>
      </trkpt>
      <trkpt lat="51.796111" lon="8.467123">
        <ele>80.304291</ele>
        <time>2024-12-28T18:16:01.366Z</time>
      </trkpt>
      <trkpt lat="51.796062" lon="8.467189">
        <ele>80.297406</ele>
        <time>2024-12-28T18:16:02.746Z</time>
      </trkpt>
      <trkpt lat="51.795938" lon="8.467275">
        <ele>80.282840</ele>
        <time>2024-12-28T18:16:05.675Z</time>
      </trkpt>
      <trkpt lat="51.795716" lon="8.467588">
        <ele>80.251041</ele>
        <time>2024-12-28T18:16:12.009Z</time>
      </trkpt>
      <trkpt lat="51.795656" lon="8.467256">
        <ele>80.231285</ele>
        <time>2024-12-28T18:16:16.604Z</time>
      </trkpt>
      <trkpt lat="51.795402" lon="8.466192">
        <ele>80.180992</ele>
        <time>2024-12-28T18:16:31.759Z</time>
      </trkpt>
      <trkpt lat="51.795338" lon="8.466021">
        <ele>80.172178</ele>
        <time>2024-12-28T18:16:34.430Z</time>
      </trkpt>
      <trkpt lat="51.795252" lon="8.465875">
        <ele>80.163287</ele>
        <time>2024-12-28T18:16:37.141Z</time>
      </trkpt>
      <trkpt lat="51.793561" lon="8.463914">
        <ele>80.173455</ele>
        <time>2024-12-28T18:17:24.937Z</time>
      </trkpt>
      <trkpt lat="51.793553" lon="8.463857">
        <ele>80.175196</ele>
        <time>2024-12-28T18:17:25.725Z</time>
      </trkpt>
      <trkpt lat="51.793155" lon="8.463397">
        <ele>80.181765</ele>
        <time>2024-12-28T18:17:37.609Z</time>
      </trkpt>
      <trkpt lat="51.793014" lon="8.463153">
        <ele>80.126508</ele>
        <time>2024-12-28T18:17:42.578Z</time>
      </trkpt>
      <trkpt lat="51.792068" lon="8.459918">
        <ele>79.545151</ele>
        <time>2024-12-28T18:18:35.444Z</time>
      </trkpt>
      <trkpt lat="51.791595" lon="8.456171">
        <ele>79.006081</ele>
        <time>2024-12-28T18:19:32.368Z</time>
      </trkpt>
      <trkpt lat="51.791649" lon="8.452057">
        <ele>78.574320</ele>
        <time>2024-12-28T18:20:33.840Z</time>
      </trkpt>
      <trkpt lat="51.790944" lon="8.452140">
        <ele>78.609982</ele>
        <time>2024-12-28T18:21:00.112Z</time>
      </trkpt>
      <trkpt lat="51.790853" lon="8.452206">
        <ele>78.615013</ele>
        <time>2024-12-28T18:21:03.852Z</time>
      </trkpt>
      <trkpt lat="51.790415" lon="8.453273">
        <ele>78.654974</ele>
        <time>2024-12-28T18:21:33.822Z</time>
      </trkpt>
      <trkpt lat="51.790097" lon="8.453751">
        <ele>78.728725</ele>
        <time>2024-12-28T18:21:50.262Z</time>
      </trkpt>
      <trkpt lat="51.789732" lon="8.454541">
        <ele>78.834098</ele>
        <time>2024-12-28T18:22:13.472Z</time>
      </trkpt>
      <trkpt lat="51.789449" lon="8.454883">
        <ele>78.895141</ele>
        <time>2024-12-28T18:22:27.043Z</time>
      </trkpt>
      <trkpt lat="51.788348" lon="8.455023">
        <ele>78.993486</ele>
        <time>2024-12-28T18:22:52.550Z</time>
      </trkpt>
      <trkpt lat="51.787957" lon="8.454921">
        <ele>79.009060</ele>
        <time>2024-12-28T18:23:01.284Z</time>
      </trkpt>
      <trkpt lat="51.787622" lon="8.454899">
        <ele>79.022244</ele>
        <time>2024-12-28T18:23:08.645Z</time>
      </trkpt>
      <trkpt lat="51.787342" lon="8.454902">
        <ele>79.033255</ele>
        <time>2024-12-28T18:23:14.761Z</time>
      </trkpt>
      <trkpt lat="51.786076" lon="8.454260">
        <ele>79.054821</ele>
        <time>2024-12-28T18:23:44.057Z</time>
      </trkpt>
      <trkpt lat="51.785732" lon="8.454153">
        <ele>79.059896</ele>
        <time>2024-12-28T18:23:52.238Z</time>
      </trkpt>
      <trkpt lat="51.785370" lon="8.454040">
        <ele>79.080589</ele>
        <time>2024-12-28T18:24:00.777Z</time>
      </trkpt>
      <trkpt lat="51.785324" lon="8.454274">
        <ele>79.098056</ele>
        <time>2024-12-28T18:24:04.167Z</time>
      </trkpt>
      <trkpt lat="51.784484" lon="8.453891">
        <ele>79.198423</ele>
        <time>2024-12-28T18:24:23.981Z</time>
      </trkpt>
      <trkpt lat="51.784269" lon="8.453793">
        <ele>79.224111</ele>
        <time>2024-12-28T18:24:28.977Z</time>
      </trkpt>
      <trkpt lat="51.782442" lon="8.452737">
        <ele>79.451976</ele>
        <time>2024-12-28T18:25:13.449Z</time>
      </trkpt>
      <trkpt lat="51.782491" lon="8.452532">
        <ele>79.468028</ele>
        <time>2024-12-28T18:25:18.591Z</time>
      </trkpt>
      <trkpt lat="51.782584" lon="8.452138">
        <ele>79.466284</ele>
        <time>2024-12-28T18:25:28.382Z</time>
      </trkpt>
      <trkpt lat="51.782600" lon="8.452097">
        <ele>79.462884</ele>
        <time>2024-12-28T18:25:29.506Z</time>
      </trkpt>
      <trkpt lat="51.782584" lon="8.452138">
        <ele>79.459484</ele>
        <time>2024-12-28T18:25:30.634Z</time>
      </trkpt>
      <trkpt lat="51.782491" lon="8.452532">
        <ele>79.429909</ele>
        <time>2024-12-28T18:25:40.303Z</time>
      </trkpt>
      <trkpt lat="51.782442" lon="8.452737">
        <ele>79.414496</ele>
        <time>2024-12-28T18:25:45.322Z</time>
      </trkpt>
      <trkpt lat="51.782131" lon="8.452556">
        <ele>79.377024</ele>
        <time>2024-12-28T18:25:57.453Z</time>
      </trkpt>
      <trkpt lat="51.781300" lon="8.443768">
        <ele>78.266691</ele>
        <time>2024-12-28T18:29:17.268Z</time>
      </trkpt>
      <trkpt lat="51.781211" lon="8.442827">
        <ele>78.211905</ele>
        <time>2024-12-28T18:29:39.339Z</time>
      </trkpt>
      <trkpt lat="51.781439" lon="8.442884">
        <ele>78.205616</ele>
        <time>2024-12-28T18:29:44.912Z</time>
      </trkpt>
      <trkpt lat="51.783366" lon="8.443455">
        <ele>78.569248</ele>
        <time>2024-12-28T18:30:32.601Z</time>
      </trkpt>
      <trkpt lat="51.785881" lon="8.441062">
        <ele>78.801163</ele>
        <time>2024-12-28T18:31:41.788Z</time>
      </trkpt>
      <trkpt lat="51.786185" lon="8.440768">
        <ele>78.811314</ele>
        <time>2024-12-28T18:31:49.978Z</time>
      </trkpt>
      <trkpt lat="51.787106" lon="8.439910">
        <ele>78.411518</ele>
        <time>2024-12-28T18:32:13.604Z</time>
      </trkpt>
      <trkpt lat="51.786522" lon="8.437926">
        <ele>77.861611</ele>
        <time>2024-12-28T18:32:41.613Z</time>
      </trkpt>
      <trkpt lat="51.786126" lon="8.436582">
        <ele>77.517685</ele>
        <time>2024-12-28T18:33:01.160Z</time>
      </trkpt>
      <trkpt lat="51.785270" lon="8.433673">
        <ele>77.230643</ele>
        <time>2024-12-28T18:33:44.944Z</time>
      </trkpt>
      <trkpt lat="51.784744" lon="8.431957">
        <ele>77.246297</ele>
        <time>2024-12-28T18:34:11.500Z</time>
      </trkpt>
      <trkpt lat="51.784683" lon="8.431670">
        <ele>77.252135</ele>
        <time>2024-12-28T18:34:15.750Z</time>
      </trkpt>
      <trkpt lat="51.784692" lon="8.431418">
        <ele>77.256991</ele>
        <time>2024-12-28T18:34:19.285Z</time>
      </trkpt>
      <trkpt lat="51.784732" lon="8.431205">
        <ele>77.261273</ele>
        <time>2024-12-28T18:34:22.394Z</time>
      </trkpt>
      <trkpt lat="51.785823" lon="8.428767">
        <ele>77.257884</ele>
        <time>2024-12-28T18:35:04.024Z</time>
      </trkpt>
      <trkpt lat="51.787278" lon="8.425563">
        <ele>77.088432</ele>
        <time>2024-12-28T18:35:57.901Z</time>
      </trkpt>
      <trkpt lat="51.790068" lon="8.419451">
        <ele>77.413356</ele>
        <time>2024-12-28T18:37:44.463Z</time>
      </trkpt>
      <trkpt lat="51.790428" lon="8.418662">
        <ele>77.463930</ele>
        <time>2024-12-28T18:37:58.227Z</time>
      </trkpt>
      <trkpt lat="51.790327" lon="8.418567">
        <ele>77.472634</ele>
        <time>2024-12-28T18:38:00.795Z</time>
      </trkpt>
      <trkpt lat="51.790179" lon="8.418429">
        <ele>77.485359</ele>
        <time>2024-12-28T18:38:04.579Z</time>
      </trkpt>
      <trkpt lat="51.789905" lon="8.418074">
        <ele>77.511512</ele>
        <time>2024-12-28T18:38:12.491Z</time>
      </trkpt>
      <trkpt lat="51.789714" lon="8.417800">
        <ele>77.530531</ele>
        <time>2024-12-28T18:38:18.338Z</time>
      </trkpt>
      <trkpt lat="51.789482" lon="8.417470">
        <ele>77.553547</ele>
        <time>2024-12-28T18:38:25.366Z</time>
      </trkpt>
      <trkpt lat="51.789052" lon="8.417036">
        <ele>77.551021</ele>
        <time>2024-12-28T18:38:36.769Z</time>
      </trkpt>
      <trkpt lat="51.789095" lon="8.416882">
        <ele>77.541243</ele>
        <time>2024-12-28T18:38:39.147Z</time>
      </trkpt>
      <trkpt lat="51.789320" lon="8.415692">
        <ele>77.469233</ele>
        <time>2024-12-28T18:38:56.938Z</time>
      </trkpt>
      <trkpt lat="51.789540" lon="8.412820">
        <ele>77.198649</ele>
        <time>2024-12-28T18:39:37.187Z</time>
      </trkpt>
      <trkpt lat="51.789632" lon="8.412625">
        <ele>77.170305</ele>
        <time>2024-12-28T18:39:40.631Z</time>
      </trkpt>
      <trkpt lat="51.789761" lon="8.412559">
        <ele>77.145025</ele>
        <time>2024-12-28T18:39:43.709Z</time>
      </trkpt>
      <trkpt lat="51.791138" lon="8.412816">
        <ele>76.997032</ele>
        <time>2024-12-28T18:40:15.629Z</time>
      </trkpt>
      <trkpt lat="51.791407" lon="8.412936">
        <ele>76.976504</ele>
        <time>2024-12-28T18:40:21.987Z</time>
      </trkpt>
      <trkpt lat="51.791458" lon="8.412899">
        <ele>76.972392</ele>
        <time>2024-12-28T18:40:23.262Z</time>
      </trkpt>
      <trkpt lat="51.791503" lon="8.412664">
        <ele>76.961199</ele>
        <time>2024-12-28T18:40:26.702Z</time>
      </trkpt>
      <trkpt lat="51.791727" lon="8.410544">
        <ele>76.845275</ele>
        <time>2024-12-28T18:40:57.010Z</time>
      </trkpt>
      <trkpt lat="51.791741" lon="8.410417">
        <ele>76.837962</ele>
        <time>2024-12-28T18:40:58.773Z</time>
      </trkpt>
      <trkpt lat="51.791798" lon="8.409974">
        <ele>76.812310</ele>
        <time>2024-12-28T18:41:04.944Z</time>
      </trkpt>
      <trkpt lat="51.791895" lon="8.409648">
        <ele>76.791802</ele>
        <time>2024-12-28T18:41:09.891Z</time>
      </trkpt>
      <trkpt lat="51.792053" lon="8.409423">
        <ele>76.772504</ele>
        <time>2024-12-28T18:41:14.574Z</time>
      </trkpt>
      <trkpt lat="51.792210" lon="8.409267">
        <ele>76.739053</ele>
        <time>2024-12-28T18:41:18.680Z</time>
      </trkpt>
      <trkpt lat="51.793074" lon="8.408404">
        <ele>76.551581</ele>
        <time>2024-12-28T18:41:40.874Z</time>
      </trkpt>
      <trkpt lat="51.793195" lon="8.408245">
        <ele>76.522798</ele>
        <time>2024-12-28T18:41:44.210Z</time>
      </trkpt>
      <trkpt lat="51.793533" lon="8.407512">
        <ele>76.432893</ele>
        <time>2024-12-28T18:41:56.287Z</time>
      </trkpt>
      <trkpt lat="51.793995" lon="8.406594">
        <ele>76.388722</ele>
        <time>2024-12-28T18:42:12.052Z</time>
      </trkpt>
      <trkpt lat="51.794101" lon="8.406494">
        <ele>76.381316</ele>
        <time>2024-12-28T18:42:14.706Z</time>
      </trkpt>
      <trkpt lat="51.797245" lon="8.406086">
        <ele>76.864596</ele>
        <time>2024-12-28T18:43:27.494Z</time>
      </trkpt>
      <trkpt lat="51.798687" lon="8.405910">
        <ele>77.415987</ele>
        <time>2024-12-28T18:44:04.111Z</time>
      </trkpt>
      <trkpt lat="51.799447" lon="8.405851">
        <ele>77.401816</ele>
        <time>2024-12-28T18:44:21.298Z</time>
      </trkpt>
      <trkpt lat="51.800752" lon="8.405484">
        <ele>77.284440</ele>
        <time>2024-12-28T18:44:49.483Z</time>
      </trkpt>
      <trkpt lat="51.802570" lon="8.404951">
        <ele>76.981294</ele>
        <time>2024-12-28T18:45:29.756Z</time>
      </trkpt>
      <trkpt lat="51.804863" lon="8.404297">
        <ele>76.981553</ele>
        <time>2024-12-28T18:46:21.831Z</time>
      </trkpt>
      <trkpt lat="51.805136" lon="8.404216">
        <ele>76.988554</ele>
        <time>2024-12-28T18:46:27.991Z</time>
      </trkpt>
      <trkpt lat="51.806283" lon="8.403881">
        <ele>77.010297</ele>
        <time>2024-12-28T18:46:54.292Z</time>
      </trkpt>
      <trkpt lat="51.806365" lon="8.403889">
        <ele>77.011451</ele>
        <time>2024-12-28T18:46:56.157Z</time>
      </trkpt>
      <trkpt lat="51.806369" lon="8.403839">
        <ele>77.011889</ele>
        <time>2024-12-28T18:46:56.848Z</time>
      </trkpt>
      <trkpt lat="51.806421" lon="8.403342">
        <ele>77.016269</ele>
        <time>2024-12-28T18:47:03.824Z</time>
      </trkpt>
      <trkpt lat="51.806513" lon="8.402708">
        <ele>77.021928</ele>
        <time>2024-12-28T18:47:12.797Z</time>
      </trkpt>
      <trkpt lat="51.806568" lon="8.402332">
        <ele>77.025285</ele>
        <time>2024-12-28T18:47:18.083Z</time>
      </trkpt>
      <trkpt lat="51.806691" lon="8.401437">
        <ele>76.973052</ele>
        <time>2024-12-28T18:47:30.582Z</time>
      </trkpt>
      <trkpt lat="51.806692" lon="8.400843">
        <ele>76.935725</ele>
        <time>2024-12-28T18:47:38.566Z</time>
      </trkpt>
      <trkpt lat="51.806844" lon="8.400797">
        <ele>76.920010</ele>
        <time>2024-12-28T18:47:41.915Z</time>
      </trkpt>
      <trkpt lat="51.808152" lon="8.400728">
        <ele>76.787929</ele>
        <time>2024-12-28T18:48:10.569Z</time>
      </trkpt>
      <trkpt lat="51.808218" lon="8.400688">
        <ele>76.780883</ele>
        <time>2024-12-28T18:48:12.113Z</time>
      </trkpt>
      <trkpt lat="51.808258" lon="8.400562">
        <ele>76.772129</ele>
        <time>2024-12-28T18:48:14.054Z</time>
      </trkpt>
      <trkpt lat="51.808183" lon="8.397864">
        <ele>76.507113</ele>
        <time>2024-12-28T18:48:50.703Z</time>
      </trkpt>
      <trkpt lat="51.810451" lon="8.397080">
        <ele>75.901899</ele>
        <time>2024-12-28T18:50:14.468Z</time>
      </trkpt>
      <trkpt lat="51.810561" lon="8.396476">
        <ele>75.803604</ele>
        <time>2024-12-28T18:50:23.894Z</time>
      </trkpt>
      <trkpt lat="51.810921" lon="8.394812">
        <ele>75.682137</ele>
        <time>2024-12-28T18:50:50.664Z</time>
      </trkpt>
      <trkpt lat="51.810988" lon="8.394306">
        <ele>75.664189</ele>
        <time>2024-12-28T18:50:58.535Z</time>
      </trkpt>
      <trkpt lat="51.811002" lon="8.393801">
        <ele>75.646657</ele>
        <time>2024-12-28T18:51:06.187Z</time>
      </trkpt>
      <trkpt lat="51.810932" lon="8.392765">
        <ele>75.649410</ele>
        <time>2024-12-28T18:51:21.826Z</time>
      </trkpt>
      <trkpt lat="51.810822" lon="8.392093">
        <ele>75.689364</ele>
        <time>2024-12-28T18:51:32.320Z</time>
      </trkpt>
      <trkpt lat="51.810633" lon="8.391210">
        <ele>75.743069</ele>
        <time>2024-12-28T18:51:46.822Z</time>
      </trkpt>
      <trkpt lat="51.810481" lon="8.390272">
        <ele>75.813984</ele>
        <time>2024-12-28T18:52:02.699Z</time>
      </trkpt>
      <trkpt lat="51.810498" lon="8.389766">
        <ele>75.911703</ele>
        <time>2024-12-28T18:52:11.162Z</time>
      </trkpt>
      <trkpt lat="51.810538" lon="8.389381">
        <ele>75.986987</ele>
        <time>2024-12-28T18:52:17.704Z</time>
      </trkpt>
      <trkpt lat="51.810623" lon="8.388908">
        <ele>76.081974</ele>
        <time>2024-12-28T18:52:25.909Z</time>
      </trkpt>
      <trkpt lat="51.810779" lon="8.388447">
        <ele>76.183316</ele>
        <time>2024-12-28T18:52:34.552Z</time>
      </trkpt>
      <trkpt lat="51.811009" lon="8.387929">
        <ele>76.306296</ele>
        <time>2024-12-28T18:52:44.787Z</time>
      </trkpt>
      <trkpt lat="51.811386" lon="8.387407">
        <ele>76.310948</ele>
        <time>2024-12-28T18:52:57.151Z</time>
      </trkpt>
      <trkpt lat="51.811611" lon="8.387028">
        <ele>76.271064</ele>
        <time>2024-12-28T18:53:05.058Z</time>
      </trkpt>
      <trkpt lat="51.811784" lon="8.386669">
        <ele>76.236513</ele>
        <time>2024-12-28T18:53:11.909Z</time>
      </trkpt>
      <trkpt lat="51.813669" lon="8.381827">
        <ele>75.645875</ele>
        <time>2024-12-28T18:54:37.315Z</time>
      </trkpt>
      <trkpt lat="51.813894" lon="8.381237">
        <ele>75.583111</ele>
        <time>2024-12-28T18:54:47.880Z</time>
      </trkpt>
      <trkpt lat="51.813918" lon="8.380990">
        <ele>75.560474</ele>
        <time>2024-12-28T18:54:51.633Z</time>
      </trkpt>
      <trkpt lat="51.814384" lon="8.380671">
        <ele>75.474685</ele>
        <time>2024-12-28T18:55:02.566Z</time>
      </trkpt>
      <trkpt lat="51.814788" lon="8.380363">
        <ele>75.380672</ele>
        <time>2024-12-28T18:55:12.223Z</time>
      </trkpt>
      <trkpt lat="51.815118" lon="8.380108">
        <ele>75.303688</ele>
        <time>2024-12-28T18:55:20.082Z</time>
      </trkpt>
      <trkpt lat="51.816307" lon="8.379153">
        <ele>75.162961</ele>
        <time>2024-12-28T18:55:48.885Z</time>
      </trkpt>
      <trkpt lat="51.818243" lon="8.377479">
        <ele>75.456179</ele>
        <time>2024-12-28T18:56:39.663Z</time>
      </trkpt>
      <trkpt lat="51.819396" lon="8.376485">
        <ele>75.674036</ele>
        <time>2024-12-28T18:57:10.549Z</time>
      </trkpt>
      <trkpt lat="51.819609" lon="8.376345">
        <ele>75.676271</ele>
        <time>2024-12-28T18:57:15.964Z</time>
      </trkpt>
      <trkpt lat="51.819713" lon="8.376276">
        <ele>75.677364</ele>
        <time>2024-12-28T18:57:18.635Z</time>
      </trkpt>
      <trkpt lat="51.820271" lon="8.376091">
        <ele>75.682901</ele>
        <time>2024-12-28T18:57:31.345Z</time>
      </trkpt>
      <trkpt lat="51.820777" lon="8.375934">
        <ele>75.659160</ele>
        <time>2024-12-28T18:57:42.342Z</time>
      </trkpt>
      <trkpt lat="51.820772" lon="8.375862">
        <ele>75.636822</ele>
        <time>2024-12-28T18:57:43.285Z</time>
      </trkpt>
      <trkpt lat="51.820804" lon="8.375769">
        <ele>75.604005</ele>
        <time>2024-12-28T18:57:44.671Z</time>
      </trkpt>
      <trkpt lat="51.820747" lon="8.373100">
        <ele>74.786743</ele>
        <time>2024-12-28T18:58:18.942Z</time>
      </trkpt>
      <trkpt lat="51.820804" lon="8.372715">
        <ele>74.742767</ele>
        <time>2024-12-28T18:58:24.074Z</time>
      </trkpt>
      <trkpt lat="51.821534" lon="8.369187">
        <ele>74.485581</ele>
        <time>2024-12-28T18:59:14.668Z</time>
      </trkpt>
      <trkpt lat="51.821726" lon="8.367882">
        <ele>74.505758</ele>
        <time>2024-12-28T18:59:33.076Z</time>
      </trkpt>
      <trkpt lat="51.821727" lon="8.367687">
        <ele>74.508691</ele>
        <time>2024-12-28T18:59:35.812Z</time>
      </trkpt>
      <trkpt lat="51.821646" lon="8.366609">
        <ele>74.668677</ele>
        <time>2024-12-28T18:59:51.831Z</time>
      </trkpt>
      <trkpt lat="51.821651" lon="8.366492">
        <ele>74.688174</ele>
        <time>2024-12-28T18:59:53.602Z</time>
      </trkpt>
      <trkpt lat="51.821697" lon="8.366322">
        <ele>74.719025</ele>
        <time>2024-12-28T18:59:56.391Z</time>
      </trkpt>
      <trkpt lat="51.821856" lon="8.365871">
        <ele>74.805339</ele>
        <time>2024-12-28T19:00:04.223Z</time>
      </trkpt>
      <trkpt lat="51.821992" lon="8.365616">
        <ele>74.861330</ele>
        <time>2024-12-28T19:00:09.251Z</time>
      </trkpt>
      <trkpt lat="51.822216" lon="8.365356">
        <ele>74.935477</ele>
        <time>2024-12-28T19:00:15.755Z</time>
      </trkpt>
      <trkpt lat="51.822464" lon="8.364543">
        <ele>74.953681</ele>
        <time>2024-12-28T19:00:28.416Z</time>
      </trkpt>
      <trkpt lat="51.822539" lon="8.364332">
        <ele>74.935676</ele>
        <time>2024-12-28T19:00:31.707Z</time>
      </trkpt>
      <trkpt lat="51.822677" lon="8.364043">
        <ele>74.908662</ele>
        <time>2024-12-28T19:00:36.589Z</time>
      </trkpt>
      <trkpt lat="51.822722" lon="8.364012">
        <ele>74.902808</ele>
        <time>2024-12-28T19:00:37.621Z</time>
      </trkpt>
      <trkpt lat="51.823233" lon="8.363971">
        <ele>74.841578</ele>
        <time>2024-12-28T19:00:48.522Z</time>
      </trkpt>
      <trkpt lat="51.824774" lon="8.363828">
        <ele>74.614949</ele>
        <time>2024-12-28T19:01:22.444Z</time>
      </trkpt>
      <trkpt lat="51.824925" lon="8.363868">
        <ele>74.590367</ele>
        <time>2024-12-28T19:01:25.836Z</time>
      </trkpt>
      <trkpt lat="51.825241" lon="8.364110">
        <ele>74.534200</ele>
        <time>2024-12-28T19:01:33.475Z</time>
      </trkpt>
      <trkpt lat="51.825280" lon="8.364130">
        <ele>74.527627</ele>
        <time>2024-12-28T19:01:34.353Z</time>
      </trkpt>
      <trkpt lat="51.826683" lon="8.365312">
        <ele>74.138507</ele>
        <time>2024-12-28T19:02:07.887Z</time>
      </trkpt>
      <trkpt lat="51.828179" lon="8.360271">
        <ele>74.035210</ele>
        <time>2024-12-28T19:03:24.657Z</time>
      </trkpt>
      <trkpt lat="51.828287" lon="8.359964">
        <ele>74.041573</ele>
        <time>2024-12-28T19:03:29.463Z</time>
      </trkpt>
      <trkpt lat="51.828354" lon="8.359769">
        <ele>74.045591</ele>
        <time>2024-12-28T19:03:32.553Z</time>
      </trkpt>
      <trkpt lat="51.828704" lon="8.358743">
        <ele>74.161429</ele>
        <time>2024-12-28T19:03:49.300Z</time>
      </trkpt>
      <trkpt lat="51.828703" lon="8.358595">
        <ele>74.181783</ele>
        <time>2024-12-28T19:03:51.453Z</time>
      </trkpt>
      <trkpt lat="51.828580" lon="8.358159">
        <ele>74.247694</ele>
        <time>2024-12-28T19:03:58.477Z</time>
      </trkpt>
      <trkpt lat="51.828419" lon="8.358265">
        <ele>74.286373</ele>
        <time>2024-12-28T19:04:02.660Z</time>
      </trkpt>
      <trkpt lat="51.828108" lon="8.358308">
        <ele>74.355829</ele>
        <time>2024-12-28T19:04:10.177Z</time>
      </trkpt>
      <trkpt lat="51.827802" lon="8.358111">
        <ele>74.429113</ele>
        <time>2024-12-28T19:04:18.064Z</time>
      </trkpt>
      <trkpt lat="51.827420" lon="8.357803">
        <ele>74.332688</ele>
        <time>2024-12-28T19:04:27.894Z</time>
      </trkpt>
      <trkpt lat="51.826721" lon="8.357228">
        <ele>74.039592</ele>
        <time>2024-12-28T19:04:44.613Z</time>
      </trkpt>
      <trkpt lat="51.826182" lon="8.356542">
        <ele>73.783268</ele>
        <time>2024-12-28T19:04:58.586Z</time>
      </trkpt>
      <trkpt lat="51.825928" lon="8.356154">
        <ele>73.588763</ele>
        <time>2024-12-28T19:05:05.610Z</time>
      </trkpt>
      <trkpt lat="51.825104" lon="8.354267">
        <ele>72.787704</ele>
        <time>2024-12-28T19:05:35.094Z</time>
      </trkpt>
      <trkpt lat="51.824942" lon="8.353903">
        <ele>72.842125</ele>
        <time>2024-12-28T19:05:41.418Z</time>
      </trkpt>
      <trkpt lat="51.824573" lon="8.353116">
        <ele>73.016151</ele>
        <time>2024-12-28T19:05:56.004Z</time>
      </trkpt>
      <trkpt lat="51.824386" lon="8.352583">
        <ele>73.124124</ele>
        <time>2024-12-28T19:06:05.547Z</time>
      </trkpt>
      <trkpt lat="51.824270" lon="8.351988">
        <ele>73.234038</ele>
        <time>2024-12-28T19:06:15.451Z</time>
      </trkpt>
      <trkpt lat="51.824080" lon="8.350272">
        <ele>73.507120</ele>
        <time>2024-12-28T19:06:40.910Z</time>
      </trkpt>
      <trkpt lat="51.824072" lon="8.349924">
        <ele>73.560346</ele>
        <time>2024-12-28T19:06:45.928Z</time>
      </trkpt>
      <trkpt lat="51.824116" lon="8.349568">
        <ele>73.615837</ele>
        <time>2024-12-28T19:06:51.087Z</time>
      </trkpt>
      <trkpt lat="51.824208" lon="8.349264">
        <ele>73.667572</ele>
        <time>2024-12-28T19:06:55.916Z</time>
      </trkpt>
      <trkpt lat="51.824782" lon="8.347869">
        <ele>73.766770</ele>
        <time>2024-12-28T19:07:19.517Z</time>
      </trkpt>
      <trkpt lat="51.825097" lon="8.346517">
        <ele>73.809739</ele>
        <time>2024-12-28T19:07:39.255Z</time>
      </trkpt>
      <trkpt lat="51.825198" lon="8.345859">
        <ele>73.896774</ele>
        <time>2024-12-28T19:07:48.687Z</time>
      </trkpt>
      <trkpt lat="51.825293" lon="8.344826">
        <ele>74.071045</ele>
        <time>2024-12-28T19:08:03.542Z</time>
      </trkpt>
      <trkpt lat="51.825216" lon="8.344359">
        <ele>74.151698</ele>
        <time>2024-12-28T19:08:10.876Z</time>
      </trkpt>
      <trkpt lat="51.825080" lon="8.343988">
        <ele>74.223675</ele>
        <time>2024-12-28T19:08:17.582Z</time>
      </trkpt>
      <trkpt lat="51.824870" lon="8.343533">
        <ele>74.299412</ele>
        <time>2024-12-28T19:08:26.206Z</time>
      </trkpt>
      <trkpt lat="51.824725" lon="8.343176">
        <ele>74.292895</ele>
        <time>2024-12-28T19:08:32.563Z</time>
      </trkpt>
      <trkpt lat="51.824555" lon="8.342624">
        <ele>74.283487</ele>
        <time>2024-12-28T19:08:41.405Z</time>
      </trkpt>
      <trkpt lat="51.824190" lon="8.340868">
        <ele>74.241904</ele>
        <time>2024-12-28T19:09:06.289Z</time>
      </trkpt>
      <trkpt lat="51.824049" lon="8.340709">
        <ele>74.196918</ele>
        <time>2024-12-28T19:09:09.830Z</time>
      </trkpt>
      <trkpt lat="51.823920" lon="8.340654">
        <ele>74.162000</ele>
        <time>2024-12-28T19:09:12.590Z</time>
      </trkpt>
      <trkpt lat="51.823597" lon="8.340644">
        <ele>74.077441</ele>
        <time>2024-12-28T19:09:19.274Z</time>
      </trkpt>
      <trkpt lat="51.822579" lon="8.340699">
        <ele>73.810835</ele>
        <time>2024-12-28T19:09:41.124Z</time>
      </trkpt>
      <trkpt lat="51.822557" lon="8.339299">
        <ele>73.957960</ele>
        <time>2024-12-28T19:10:01.048Z</time>
      </trkpt>
      <trkpt lat="51.822594" lon="8.338855">
        <ele>74.019860</ele>
        <time>2024-12-28T19:10:07.886Z</time>
      </trkpt>
      <trkpt lat="51.822725" lon="8.338150">
        <ele>74.121573</ele>
        <time>2024-12-28T19:10:18.989Z</time>
      </trkpt>
      <trkpt lat="51.823025" lon="8.337274">
        <ele>74.267047</ele>
        <time>2024-12-28T19:10:33.700Z</time>
      </trkpt>
      <trkpt lat="51.823314" lon="8.336504">
        <ele>74.403786</ele>
        <time>2024-12-28T19:10:46.815Z</time>
      </trkpt>
      <trkpt lat="51.823937" lon="8.334646">
        <ele>74.669056</ele>
        <time>2024-12-28T19:11:16.976Z</time>
      </trkpt>
      <trkpt lat="51.823960" lon="8.334576">
        <ele>74.674053</ele>
        <time>2024-12-28T19:11:18.113Z</time>
      </trkpt>
      <trkpt lat="51.824324" lon="8.333392">
        <ele>74.757400</ele>
        <time>2024-12-28T19:11:36.491Z</time>
      </trkpt>
      <trkpt lat="51.824637" lon="8.332540">
        <ele>74.816268</ele>
        <time>2024-12-28T19:11:50.567Z</time>
      </trkpt>
      <trkpt lat="51.825052" lon="8.331491">
        <ele>74.853576</ele>
        <time>2024-12-28T19:12:08.281Z</time>
      </trkpt>
      <trkpt lat="51.825124" lon="8.331310">
        <ele>74.860024</ele>
        <time>2024-12-28T19:12:11.301Z</time>
      </trkpt>
      <trkpt lat="51.825201" lon="8.331053">
        <ele>74.868579</ele>
        <time>2024-12-28T19:12:15.329Z</time>
      </trkpt>
      <trkpt lat="51.825893" lon="8.331799">
        <ele>74.850146</ele>
        <time>2024-12-28T19:12:45.975Z</time>
      </trkpt>
      <trkpt lat="51.826245" lon="8.331990">
        <ele>74.746705</ele>
        <time>2024-12-28T19:12:59.393Z</time>
      </trkpt>
      <trkpt lat="51.826338" lon="8.331998">
        <ele>74.720757</ele>
        <time>2024-12-28T19:13:02.765Z</time>
      </trkpt>
      <trkpt lat="51.826856" lon="8.331993">
        <ele>74.576432</ele>
        <time>2024-12-28T19:13:21.473Z</time>
      </trkpt>
      <trkpt lat="51.827984" lon="8.330934">
        <ele>74.015392</ele>
        <time>2024-12-28T19:14:08.523Z</time>
      </trkpt>
      <trkpt lat="51.828045" lon="8.330759">
        <ele>73.944020</ele>
        <time>2024-12-28T19:14:12.943Z</time>
      </trkpt>
      <trkpt lat="51.828231" lon="8.329689">
        <ele>73.549167</ele>
        <time>2024-12-28T19:14:37.169Z</time>
      </trkpt>
      <trkpt lat="51.828251" lon="8.329698">
        <ele>73.537235</ele>
        <time>2024-12-28T19:14:37.574Z</time>
      </trkpt>
      <trkpt lat="51.828401" lon="8.329774">
        <ele>73.446887</ele>
        <time>2024-12-28T19:14:40.749Z</time>
      </trkpt>
      <trkpt lat="51.828424" lon="8.329786">
        <ele>73.432997</ele>
        <time>2024-12-28T19:14:41.234Z</time>
      </trkpt>
      <trkpt lat="51.828647" lon="8.328959">
        <ele>73.139814</ele>
        <time>2024-12-28T19:14:53.868Z</time>
      </trkpt>
      <trkpt lat="51.828885" lon="8.328245">
        <ele>72.882815</ele>
        <time>2024-12-28T19:15:05.417Z</time>
      </trkpt>
      <trkpt lat="51.829000" lon="8.327762">
        <ele>72.718838</ele>
        <time>2024-12-28T19:15:12.880Z</time>
      </trkpt>
      <trkpt lat="51.829511" lon="8.325577">
        <ele>72.506757</ele>
        <time>2024-12-28T19:15:47.974Z</time>
      </trkpt>
      <trkpt lat="51.829672" lon="8.325012">
        <ele>72.533732</ele>
        <time>2024-12-28T19:15:57.777Z</time>
      </trkpt>
      <trkpt lat="51.829836" lon="8.324548">
        <ele>72.556907</ele>
        <time>2024-12-28T19:16:06.369Z</time>
      </trkpt>
      <trkpt lat="51.830497" lon="8.323009">
        <ele>72.829400</ele>
        <time>2024-12-28T19:16:37.277Z</time>
      </trkpt>
      <trkpt lat="51.830519" lon="8.322962">
        <ele>72.839063</ele>
        <time>2024-12-28T19:16:38.398Z</time>
      </trkpt>
      <trkpt lat="51.830546" lon="8.322903">
        <ele>72.851095</ele>
        <time>2024-12-28T19:16:39.825Z</time>
      </trkpt>
      <trkpt lat="51.830844" lon="8.322249">
        <ele>72.984262</ele>
        <time>2024-12-28T19:16:52.813Z</time>
      </trkpt>
      <trkpt lat="51.831362" lon="8.321022">
        <ele>73.093816</ele>
        <time>2024-12-28T19:17:15.494Z</time>
      </trkpt>
      <trkpt lat="51.831448" lon="8.320766">
        <ele>73.106304</ele>
        <time>2024-12-28T19:17:19.899Z</time>
      </trkpt>
      <trkpt lat="51.831472" lon="8.319956">
        <ele>73.141059</ele>
        <time>2024-12-28T19:17:32.261Z</time>
      </trkpt>
      <trkpt lat="51.831505" lon="8.319872">
        <ele>73.145325</ele>
        <time>2024-12-28T19:17:33.813Z</time>
      </trkpt>
      <trkpt lat="51.831615" lon="8.319790">
        <ele>73.153725</ele>
        <time>2024-12-28T19:17:36.855Z</time>
      </trkpt>
      <trkpt lat="51.832958" lon="8.319060">
        <ele>73.522444</ele>
        <time>2024-12-28T19:18:14.243Z</time>
      </trkpt>
      <trkpt lat="51.833596" lon="8.318726">
        <ele>73.717893</ele>
        <time>2024-12-28T19:18:31.911Z</time>
      </trkpt>
      <trkpt lat="51.835632" lon="8.317527">
        <ele>73.935468</ele>
        <time>2024-12-28T19:19:36.318Z</time>
      </trkpt>
      <trkpt lat="51.835649" lon="8.317517">
        <ele>73.935154</ele>
        <time>2024-12-28T19:19:36.827Z</time>
      </trkpt>
      <trkpt lat="51.836059" lon="8.317196">
        <ele>73.927241</ele>
        <time>2024-12-28T19:19:50.112Z</time>
      </trkpt>
      <trkpt lat="51.836078" lon="8.317177">
        <ele>73.926853</ele>
        <time>2024-12-28T19:19:50.768Z</time>
      </trkpt>
      <trkpt lat="51.836213" lon="8.317032">
        <ele>73.924037</ele>
        <time>2024-12-28T19:19:55.435Z</time>
      </trkpt>
      <trkpt lat="51.836806" lon="8.316427">
        <ele>73.911858</ele>
        <time>2024-12-28T19:20:15.846Z</time>
      </trkpt>
      <trkpt lat="51.837223" lon="8.315962">
        <ele>73.962959</ele>
        <time>2024-12-28T19:20:30.685Z</time>
      </trkpt>
      <trkpt lat="51.837561" lon="8.315483">
        <ele>74.012097</ele>
        <time>2024-12-28T19:20:44.221Z</time>
      </trkpt>
      <trkpt lat="51.838052" lon="8.314303">
        <ele>74.107841</ele>
        <time>2024-12-28T19:21:10.798Z</time>
      </trkpt>
      <trkpt lat="51.838139" lon="8.313916">
        <ele>74.090440</ele>
        <time>2024-12-28T19:21:18.423Z</time>
      </trkpt>
      <trkpt lat="51.838187" lon="8.313311">
        <ele>74.064667</ele>
        <time>2024-12-28T19:21:29.470Z</time>
      </trkpt>
      <trkpt lat="51.838172" lon="8.312981">
        <ele>74.050686</ele>
        <time>2024-12-28T19:21:35.382Z</time>
      </trkpt>
      <trkpt lat="51.838126" lon="8.312639">
        <ele>74.035897</ele>
        <time>2024-12-28T19:21:41.604Z</time>
      </trkpt>
      <trkpt lat="51.838032" lon="8.312113">
        <ele>74.012761</ele>
        <time>2024-12-28T19:21:51.274Z</time>
      </trkpt>
      <trkpt lat="51.837816" lon="8.311490">
        <ele>73.977398</ele>
        <time>2024-12-28T19:22:03.999Z</time>
      </trkpt>
      <trkpt lat="51.838358" lon="8.310994">
        <ele>73.843717</ele>
        <time>2024-12-28T19:22:22.004Z</time>
      </trkpt>
      <trkpt lat="51.838833" lon="8.310157">
        <ele>73.692955</ele>
        <time>2024-12-28T19:22:42.219Z</time>
      </trkpt>
      <trkpt lat="51.839086" lon="8.309723">
        <ele>73.613803</ele>
        <time>2024-12-28T19:22:52.717Z</time>
      </trkpt>
      <trkpt lat="51.839571" lon="8.308868">
        <ele>73.294652</ele>
        <time>2024-12-28T19:23:12.748Z</time>
      </trkpt>
      <trkpt lat="51.839830" lon="8.308454">
        <ele>73.123621</ele>
        <time>2024-12-28T19:23:22.896Z</time>
      </trkpt>
      <trkpt lat="51.840242" lon="8.307977">
        <ele>72.885620</ele>
        <time>2024-12-28T19:23:33.417Z</time>
      </trkpt>
      <trkpt lat="51.840266" lon="8.307947">
        <ele>72.871373</ele>
        <time>2024-12-28T19:23:34.043Z</time>
      </trkpt>
      <trkpt lat="51.840841" lon="8.307249">
        <ele>72.653725</ele>
        <time>2024-12-28T19:23:49.283Z</time>
      </trkpt>
      <trkpt lat="51.840919" lon="8.307153">
        <ele>72.632798</ele>
        <time>2024-12-28T19:23:51.400Z</time>
      </trkpt>
      <trkpt lat="51.841168" lon="8.306844">
        <ele>72.565792</ele>
        <time>2024-12-28T19:23:58.279Z</time>
      </trkpt>
      <trkpt lat="51.841500" lon="8.306432">
        <ele>72.476449</ele>
        <time>2024-12-28T19:24:07.672Z</time>
      </trkpt>
      <trkpt lat="51.841640" lon="8.306258">
        <ele>72.438754</ele>
        <time>2024-12-28T19:24:11.632Z</time>
      </trkpt>
      <trkpt lat="51.841816" lon="8.305975">
        <ele>72.385773</ele>
        <time>2024-12-28T19:24:17.071Z</time>
      </trkpt>
      <trkpt lat="51.841937" lon="8.305774">
        <ele>72.297536</ele>
        <time>2024-12-28T19:24:21.276Z</time>
      </trkpt>
      <trkpt lat="51.842138" lon="8.305446">
        <ele>72.087266</ele>
        <time>2024-12-28T19:24:27.900Z</time>
      </trkpt>
      <trkpt lat="51.842403" lon="8.304984">
        <ele>71.800336</ele>
        <time>2024-12-28T19:24:36.724Z</time>
      </trkpt>
      <trkpt lat="51.842608" lon="8.304468">
        <ele>71.521115</ele>
        <time>2024-12-28T19:24:45.277Z</time>
      </trkpt>
      <trkpt lat="51.842635" lon="8.304349">
        <ele>71.463416</ele>
        <time>2024-12-28T19:24:47.021Z</time>
      </trkpt>
      <trkpt lat="51.842621" lon="8.304223">
        <ele>71.405148</ele>
        <time>2024-12-28T19:24:48.800Z</time>
      </trkpt>
      <trkpt lat="51.842580" lon="8.304132">
        <ele>71.353886</ele>
        <time>2024-12-28T19:24:50.327Z</time>
      </trkpt>
      <trkpt lat="51.843021" lon="8.304092">
        <ele>71.040897</ele>
        <time>2024-12-28T19:24:59.073Z</time>
      </trkpt>
      <trkpt lat="51.843518" lon="8.303996">
        <ele>70.955981</ele>
        <time>2024-12-28T19:25:09.090Z</time>
      </trkpt>
      <trkpt lat="51.843813" lon="8.303845">
        <ele>70.903490</ele>
        <time>2024-12-28T19:25:15.620Z</time>
      </trkpt>
      <trkpt lat="51.844077" lon="8.303657">
        <ele>70.854558</ele>
        <time>2024-12-28T19:25:22.035Z</time>
      </trkpt>
      <trkpt lat="51.844383" lon="8.303379">
        <ele>70.795026</ele>
        <time>2024-12-28T19:25:30.419Z</time>
      </trkpt>
      <trkpt lat="51.844480" lon="8.303287">
        <ele>70.775953</ele>
        <time>2024-12-28T19:25:34.846Z</time>
      </trkpt>
      <trkpt lat="51.844703" lon="8.303077">
        <ele>70.769369</ele>
        <time>2024-12-28T19:25:41.380Z</time>
      </trkpt>
      <trkpt lat="51.844837" lon="8.302962">
        <ele>70.875116</ele>
        <time>2024-12-28T19:25:45.294Z</time>
      </trkpt>
      <trkpt lat="51.844915" lon="8.302900">
        <ele>70.935702</ele>
        <time>2024-12-28T19:25:47.539Z</time>
      </trkpt>
      <trkpt lat="51.845075" lon="8.302916">
        <ele>71.047470</ele>
        <time>2024-12-28T19:25:51.712Z</time>
      </trkpt>
      <trkpt lat="51.845768" lon="8.303005">
        <ele>71.532163</ele>
        <time>2024-12-28T19:26:09.754Z</time>
      </trkpt>
      <trkpt lat="51.846352" lon="8.303080">
        <ele>71.940619</ele>
        <time>2024-12-28T19:26:24.886Z</time>
      </trkpt>
      <trkpt lat="51.846420" lon="8.303000">
        <ele>71.995139</ele>
        <time>2024-12-28T19:26:27.299Z</time>
      </trkpt>
      <trkpt lat="51.846503" lon="8.302770">
        <ele>72.027774</ele>
        <time>2024-12-28T19:26:32.113Z</time>
      </trkpt>
      <trkpt lat="51.846525" lon="8.302440">
        <ele>72.068441</ele>
        <time>2024-12-28T19:26:38.118Z</time>
      </trkpt>
      <trkpt lat="51.846488" lon="8.302040">
        <ele>72.117996</ele>
        <time>2024-12-28T19:26:44.587Z</time>
      </trkpt>
      <trkpt lat="51.846482" lon="8.301786">
        <ele>72.149139</ele>
        <time>2024-12-28T19:26:48.880Z</time>
      </trkpt>
      <trkpt lat="51.846519" lon="8.301445">
        <ele>72.191559</ele>
        <time>2024-12-28T19:26:54.548Z</time>
      </trkpt>
      <trkpt lat="51.846582" lon="8.301155">
        <ele>72.229223</ele>
        <time>2024-12-28T19:26:59.495Z</time>
      </trkpt>
      <trkpt lat="51.846586" lon="8.301019">
        <ele>72.245904</ele>
        <time>2024-12-28T19:27:01.608Z</time>
      </trkpt>
      <trkpt lat="51.846546" lon="8.300829">
        <ele>72.270498</ele>
        <time>2024-12-28T19:27:04.633Z</time>
      </trkpt>
      <trkpt lat="51.846677" lon="8.300763">
        <ele>72.297708</ele>
        <time>2024-12-28T19:27:08.553Z</time>
      </trkpt>
      <trkpt lat="51.847013" lon="8.300595">
        <ele>72.238941</ele>
        <time>2024-12-28T19:27:18.301Z</time>
      </trkpt>
      <trkpt lat="51.847119" lon="8.300529">
        <ele>72.093355</ele>
        <time>2024-12-28T19:27:21.356Z</time>
      </trkpt>
      <trkpt lat="51.847243" lon="8.300446">
        <ele>71.921346</ele>
        <time>2024-12-28T19:27:24.919Z</time>
      </trkpt>
      <trkpt lat="51.847358" lon="8.300382">
        <ele>71.765459</ele>
        <time>2024-12-28T19:27:27.561Z</time>
      </trkpt>
      <trkpt lat="51.847522" lon="8.300408">
        <ele>71.554222</ele>
        <time>2024-12-28T19:27:31.051Z</time>
      </trkpt>
      <trkpt lat="51.847956" lon="8.300204">
        <ele>70.974899</ele>
        <time>2024-12-28T19:27:40.576Z</time>
      </trkpt>
      <trkpt lat="51.848134" lon="8.300057">
        <ele>70.718743</ele>
        <time>2024-12-28T19:27:44.796Z</time>
      </trkpt>
      <trkpt lat="51.848318" lon="8.300827">
        <ele>70.064959</ele>
        <time>2024-12-28T19:27:55.714Z</time>
      </trkpt>
      <trkpt lat="51.848386" lon="8.301142">
        <ele>69.971668</ele>
        <time>2024-12-28T19:28:10.043Z</time>
      </trkpt>
      <trkpt lat="51.848412" lon="8.301177">
        <ele>69.958710</ele>
        <time>2024-12-28T19:28:12.412Z</time>
      </trkpt>
      <trkpt lat="51.848920" lon="8.300826">
        <ele>69.747053</ele>
        <time>2024-12-28T19:28:50.788Z</time>
      </trkpt>
      <trkpt lat="51.849028" lon="8.300778">
        <ele>69.704136</ele>
        <time>2024-12-28T19:28:58.579Z</time>
      </trkpt>
      <trkpt lat="51.849198" lon="8.300759">
        <ele>69.638836</ele>
        <time>2024-12-28T19:29:10.448Z</time>
      </trkpt>
      <trkpt lat="51.849246" lon="8.300786">
        <ele>69.619364</ele>
        <time>2024-12-28T19:29:13.924Z</time>
      </trkpt>
      <trkpt lat="51.849302" lon="8.300894">
        <ele>69.585986</ele>
        <time>2024-12-28T19:29:19.991Z</time>
      </trkpt>
      <trkpt lat="51.849764" lon="8.302116">
        <ele>69.673154</ele>
        <time>2024-12-28T19:30:21.498Z</time>
      </trkpt>
      <trkpt lat="51.849828" lon="8.302284">
        <ele>69.810057</ele>
        <time>2024-12-28T19:30:29.964Z</time>
      </trkpt>
      <trkpt lat="51.849931" lon="8.302471">
        <ele>69.983834</ele>
        <time>2024-12-28T19:30:40.747Z</time>
      </trkpt>
      <trkpt lat="51.850001" lon="8.302508">
        <ele>70.066517</ele>
        <time>2024-12-28T19:30:45.820Z</time>
      </trkpt>
      <trkpt lat="51.850276" lon="8.302484">
        <ele>70.375746</ele>
        <time>2024-12-28T19:31:05.016Z</time>
      </trkpt>
      <trkpt lat="51.850859" lon="8.302314">
        <ele>71.040896</ele>
        <time>2024-12-28T19:31:46.124Z</time>
      </trkpt>
      <trkpt lat="51.850959" lon="8.302237">
        <ele>71.165233</ele>
        <time>2024-12-28T19:31:53.866Z</time>
      </trkpt>
      <trkpt lat="51.851421" lon="8.301433">
        <ele>71.936140</ele>
        <time>2024-12-28T19:32:40.971Z</time>
      </trkpt>
      <trkpt lat="51.851604" lon="8.301210">
        <ele>72.197652</ele>
        <time>2024-12-28T19:32:56.924Z</time>
      </trkpt>
      <trkpt lat="51.851934" lon="8.300963">
        <ele>72.612742</ele>
        <time>2024-12-28T19:33:22.187Z</time>
      </trkpt>
      <trkpt lat="51.852145" lon="8.302038">
        <ele>73.408229</ele>
        <time>2024-12-28T19:34:10.639Z</time>
      </trkpt>
      <trkpt lat="51.852269" lon="8.302676">
        <ele>73.405816</ele>
        <time>2024-12-28T19:34:39.343Z</time>
      </trkpt>
      <trkpt lat="51.852478" lon="8.303739">
        <ele>73.366349</ele>
        <time>2024-12-28T19:35:27.239Z</time>
      </trkpt>
      <trkpt lat="51.852620" lon="8.304562">
        <ele>73.336117</ele>
        <time>2024-12-28T19:36:03.894Z</time>
      </trkpt>
      <trkpt lat="51.852674" lon="8.304662">
        <ele>73.331418</ele>
        <time>2024-12-28T19:36:09.616Z</time>
      </trkpt>
      <trkpt lat="51.852564" lon="8.305276">
        <ele>73.340388</ele>
        <time>2024-12-28T19:36:18.639Z</time>
      </trkpt>
      <trkpt lat="51.852646" lon="8.305317">
        <ele>73.344801</ele>
        <time>2024-12-28T19:36:20.631Z</time>
      </trkpt>
      <trkpt lat="51.853010" lon="8.305341">
        <ele>73.363537</ele>
        <time>2024-12-28T19:36:29.337Z</time>
      </trkpt>
      <trkpt lat="51.853325" lon="8.305362">
        <ele>73.379750</ele>
        <time>2024-12-28T19:36:36.785Z</time>
      </trkpt>
      <trkpt lat="51.853656" lon="8.305384">
        <ele>73.396787</ele>
        <time>2024-12-28T19:36:44.713Z</time>
      </trkpt>
      <trkpt lat="51.853893" lon="8.305400">
        <ele>73.408986</ele>
        <time>2024-12-28T19:36:50.440Z</time>
      </trkpt>
      <trkpt lat="51.854238" lon="8.305423">
        <ele>73.353714</ele>
        <time>2024-12-28T19:36:58.722Z</time>
      </trkpt>
      <trkpt lat="51.854457" lon="8.305436">
        <ele>73.271452</ele>
        <time>2024-12-28T19:37:03.889Z</time>
      </trkpt>
      <trkpt lat="51.854963" lon="8.305470">
        <ele>73.081349</ele>
        <time>2024-12-28T19:37:15.246Z</time>
      </trkpt>
      <trkpt lat="51.855102" lon="8.305479">
        <ele>73.029130</ele>
        <time>2024-12-28T19:37:18.218Z</time>
      </trkpt>
      <trkpt lat="51.855782" lon="8.305524">
        <ele>72.773663</ele>
        <time>2024-12-28T19:37:32.776Z</time>
      </trkpt>
      <trkpt lat="51.856362" lon="8.305612">
        <ele>72.439567</ele>
        <time>2024-12-28T19:37:44.665Z</time>
      </trkpt>
      <trkpt lat="51.856690" lon="8.305654">
        <ele>72.240145</ele>
        <time>2024-12-28T19:37:51.412Z</time>
      </trkpt>
      <trkpt lat="51.856851" lon="8.305687">
        <ele>72.141784</ele>
        <time>2024-12-28T19:37:54.741Z</time>
      </trkpt>
      <trkpt lat="51.857050" lon="8.305724">
        <ele>72.020378</ele>
        <time>2024-12-28T19:37:58.840Z</time>
      </trkpt>
      <trkpt lat="51.857326" lon="8.305778">
        <ele>71.851877</ele>
        <time>2024-12-28T19:38:04.594Z</time>
      </trkpt>
      <trkpt lat="51.857514" lon="8.305853">
        <ele>71.734523</ele>
        <time>2024-12-28T19:38:08.664Z</time>
      </trkpt>
      <trkpt lat="51.857938" lon="8.306156">
        <ele>71.623810</ele>
        <time>2024-12-28T19:38:18.649Z</time>
      </trkpt>
      <trkpt lat="51.858271" lon="8.306456">
        <ele>71.590370</ele>
        <time>2024-12-28T19:38:27.283Z</time>
      </trkpt>
      <trkpt lat="51.858824" lon="8.306986">
        <ele>71.533979</ele>
        <time>2024-12-28T19:38:41.534Z</time>
      </trkpt>
      <trkpt lat="51.858872" lon="8.306964">
        <ele>71.529601</ele>
        <time>2024-12-28T19:38:42.638Z</time>
      </trkpt>
      <trkpt lat="51.859066" lon="8.307010">
        <ele>71.512396</ele>
        <time>2024-12-28T19:38:46.939Z</time>
      </trkpt>
      <trkpt lat="51.859340" lon="8.307012">
        <ele>71.481946</ele>
        <time>2024-12-28T19:38:53.045Z</time>
      </trkpt>
      <trkpt lat="51.859707" lon="8.306977">
        <ele>71.417577</ele>
        <time>2024-12-28T19:39:01.179Z</time>
      </trkpt>
      <trkpt lat="51.859762" lon="8.306995">
        <ele>71.407753</ele>
        <time>2024-12-28T19:39:02.435Z</time>
      </trkpt>
      <trkpt lat="51.859849" lon="8.306962">
        <ele>71.392107</ele>
        <time>2024-12-28T19:39:04.413Z</time>
      </trkpt>
      <trkpt lat="51.860852" lon="8.306496">
        <ele>71.209407</ele>
        <time>2024-12-28T19:39:26.934Z</time>
      </trkpt>
      <trkpt lat="51.861018" lon="8.306408">
        <ele>71.177790</ele>
        <time>2024-12-28T19:39:30.667Z</time>
      </trkpt>
      <trkpt lat="51.861094" lon="8.306368">
        <ele>71.149880</ele>
        <time>2024-12-28T19:39:32.348Z</time>
      </trkpt>
      <trkpt lat="51.861615" lon="8.306159">
        <ele>70.962421</ele>
        <time>2024-12-28T19:39:43.696Z</time>
      </trkpt>
      <trkpt lat="51.861677" lon="8.306140">
        <ele>70.940384</ele>
        <time>2024-12-28T19:39:45.007Z</time>
      </trkpt>
      <trkpt lat="51.862080" lon="8.306083">
        <ele>70.799101</ele>
        <time>2024-12-28T19:39:53.584Z</time>
      </trkpt>
      <trkpt lat="51.862151" lon="8.306099">
        <ele>70.774066</ele>
        <time>2024-12-28T19:39:55.077Z</time>
      </trkpt>
      <trkpt lat="51.862340" lon="8.306274">
        <ele>70.698029</ele>
        <time>2024-12-28T19:39:59.645Z</time>
      </trkpt>
      <trkpt lat="51.862479" lon="8.306507">
        <ele>70.628157</ele>
        <time>2024-12-28T19:40:03.878Z</time>
      </trkpt>
      <trkpt lat="51.863969" lon="8.308966">
        <ele>70.388453</ele>
        <time>2024-12-28T19:40:50.911Z</time>
      </trkpt>
      <trkpt lat="51.864259" lon="8.309358">
        <ele>70.336486</ele>
        <time>2024-12-28T19:40:59.196Z</time>
      </trkpt>
      <trkpt lat="51.864649" lon="8.309821">
        <ele>70.269962</ele>
        <time>2024-12-28T19:41:09.664Z</time>
      </trkpt>
      <trkpt lat="51.864930" lon="8.310220">
        <ele>70.218549</ele>
        <time>2024-12-28T19:41:17.596Z</time>
      </trkpt>
      <trkpt lat="51.865214" lon="8.310697">
        <ele>70.162261</ele>
        <time>2024-12-28T19:41:26.471Z</time>
      </trkpt>
      <trkpt lat="51.865721" lon="8.311493">
        <ele>70.280699</ele>
        <time>2024-12-28T19:41:42.108Z</time>
      </trkpt>
      <trkpt lat="51.867060" lon="8.313390">
        <ele>70.781592</ele>
        <time>2024-12-28T19:42:24.919Z</time>
      </trkpt>
      <trkpt lat="51.867121" lon="8.313479">
        <ele>70.818270</ele>
        <time>2024-12-28T19:42:27.034Z</time>
      </trkpt>
      <trkpt lat="51.867236" lon="8.313647">
        <ele>70.887457</ele>
        <time>2024-12-28T19:42:31.008Z</time>
      </trkpt>
      <trkpt lat="51.868021" lon="8.314761">
        <ele>71.303116</ele>
        <time>2024-12-28T19:42:57.000Z</time>
      </trkpt>
      <trkpt lat="51.868185" lon="8.314923">
        <ele>71.310599</ele>
        <time>2024-12-28T19:43:01.489Z</time>
      </trkpt>
      <trkpt lat="51.868286" lon="8.314996">
        <ele>71.314908</ele>
        <time>2024-12-28T19:43:04.042Z</time>
      </trkpt>
      <trkpt lat="51.868490" lon="8.315065">
        <ele>71.323026</ele>
        <time>2024-12-28T19:43:08.785Z</time>
      </trkpt>
      <trkpt lat="51.868765" lon="8.315074">
        <ele>71.333742</ele>
        <time>2024-12-28T19:43:14.909Z</time>
      </trkpt>
      <trkpt lat="51.868879" lon="8.314547">
        <ele>71.347174</ele>
        <time>2024-12-28T19:43:27.578Z</time>
      </trkpt>
      <trkpt lat="51.869356" lon="8.311072">
        <ele>70.943500</ele>
        <time>2024-12-28T19:44:47.817Z</time>
      </trkpt>
      <trkpt lat="51.869415" lon="8.310788">
        <ele>70.900792</ele>
        <time>2024-12-28T19:44:54.442Z</time>
      </trkpt>
      <trkpt lat="51.869417" lon="8.310780">
        <ele>70.900051</ele>
        <time>2024-12-28T19:44:54.637Z</time>
      </trkpt>
      <trkpt lat="51.869539" lon="8.310348">
        <ele>70.859217</ele>
        <time>2024-12-28T19:45:05.012Z</time>
      </trkpt>
      <trkpt lat="51.869702" lon="8.309961">
        <ele>70.818950</ele>
        <time>2024-12-28T19:45:15.263Z</time>
      </trkpt>
      <trkpt lat="51.870286" lon="8.308988">
        <ele>70.702311</ele>
        <time>2024-12-28T19:45:45.832Z</time>
      </trkpt>
      <trkpt lat="51.870502" lon="8.309541">
        <ele>70.677920</ele>
        <time>2024-12-28T19:46:01.485Z</time>
      </trkpt>
      <trkpt lat="51.870600" lon="8.309848">
        <ele>70.742646</ele>
        <time>2024-12-28T19:46:10.097Z</time>
      </trkpt>
      <trkpt lat="51.870838" lon="8.310586">
        <ele>70.898578</ele>
        <time>2024-12-28T19:46:31.162Z</time>
      </trkpt>
      <trkpt lat="51.871205" lon="8.311488">
        <ele>71.100885</ele>
        <time>2024-12-28T19:46:57.016Z</time>
      </trkpt>
      <trkpt lat="51.871409" lon="8.311039">
        <ele>71.199302</ele>
        <time>2024-12-28T19:47:09.644Z</time>
      </trkpt>
      <trkpt lat="51.871432" lon="8.310861">
        <ele>71.177248</ele>
        <time>2024-12-28T19:47:13.739Z</time>
      </trkpt>
      <trkpt lat="51.871344" lon="8.310150">
        <ele>71.089312</ele>
        <time>2024-12-28T19:47:29.931Z</time>
      </trkpt>
      <trkpt lat="51.871354" lon="8.310075">
        <ele>71.080007</ele>
        <time>2024-12-28T19:47:31.608Z</time>
      </trkpt>
      <trkpt lat="51.871401" lon="8.310011">
        <ele>71.067947</ele>
        <time>2024-12-28T19:47:33.821Z</time>
      </trkpt>
      <trkpt lat="51.871512" lon="8.309950">
        <ele>71.044925</ele>
        <time>2024-12-28T19:47:37.953Z</time>
      </trkpt>
      <trkpt lat="51.871886" lon="8.310262">
        <ele>70.962297</ele>
        <time>2024-12-28T19:47:52.962Z</time>
      </trkpt>
      <trkpt lat="51.872273" lon="8.310520">
        <ele>70.880101</ele>
        <time>2024-12-28T19:48:08.170Z</time>
      </trkpt>
      <trkpt lat="51.871886" lon="8.310262">
        <ele>71.051786</ele>
        <time>2024-12-28T19:48:24.177Z</time>
      </trkpt>
      <trkpt lat="51.871512" lon="8.309950">
        <ele>71.384690</ele>
        <time>2024-12-28T19:48:40.862Z</time>
      </trkpt>
      <trkpt lat="51.871401" lon="8.310011">
        <ele>71.477445</ele>
        <time>2024-12-28T19:48:45.593Z</time>
      </trkpt>
      <trkpt lat="51.871354" lon="8.310075">
        <ele>71.526035</ele>
        <time>2024-12-28T19:48:48.124Z</time>
      </trkpt>
      <trkpt lat="51.871344" lon="8.310150">
        <ele>71.563524</ele>
        <time>2024-12-28T19:48:50.067Z</time>
      </trkpt>
      <trkpt lat="51.871432" lon="8.310861">
        <ele>71.917817</ele>
        <time>2024-12-28T19:49:08.898Z</time>
      </trkpt>
      <trkpt lat="51.871409" lon="8.311039">
        <ele>72.006669</ele>
        <time>2024-12-28T19:49:13.784Z</time>
      </trkpt>
      <trkpt lat="51.871205" lon="8.311488">
        <ele>72.274663</ele>
        <time>2024-12-28T19:49:29.211Z</time>
      </trkpt>
      <trkpt lat="51.871562" lon="8.312246">
        <ele>72.463243</ele>
        <time>2024-12-28T19:49:55.036Z</time>
      </trkpt>
      <trkpt lat="51.871562" lon="8.312676">
        <ele>72.548299</ele>
        <time>2024-12-28T19:50:05.726Z</time>
      </trkpt>
      <trkpt lat="51.871491" lon="8.312976">
        <ele>72.611851</ele>
        <time>2024-12-28T19:50:13.301Z</time>
      </trkpt>
      <trkpt lat="51.871358" lon="8.313298">
        <ele>72.688483</ele>
        <time>2024-12-28T19:50:22.066Z</time>
      </trkpt>
      <trkpt lat="51.871293" lon="8.313302">
        <ele>72.709322</ele>
        <time>2024-12-28T19:50:24.416Z</time>
      </trkpt>
      <trkpt lat="51.870898" lon="8.314485">
        <ele>72.401934</ele>
        <time>2024-12-28T19:50:53.393Z</time>
      </trkpt>
      <trkpt lat="51.870905" lon="8.314632">
        <ele>72.299866</ele>
        <time>2024-12-28T19:50:56.464Z</time>
      </trkpt>
      <trkpt lat="51.870952" lon="8.314621">
        <ele>72.246620</ele>
        <time>2024-12-28T19:50:57.390Z</time>
      </trkpt>
      <trkpt lat="51.871928" lon="8.314428">
        <ele>71.144172</ele>
        <time>2024-12-28T19:51:16.362Z</time>
      </trkpt>
      <trkpt lat="51.872296" lon="8.314344">
        <ele>70.757216</ele>
        <time>2024-12-28T19:51:23.708Z</time>
      </trkpt>
      <trkpt lat="51.872366" lon="8.313913">
        <ele>70.537125</ele>
        <time>2024-12-28T19:51:29.144Z</time>
      </trkpt>
      <trkpt lat="51.872445" lon="8.313448">
        <ele>70.298949</ele>
        <time>2024-12-28T19:51:35.042Z</time>
      </trkpt>
      <trkpt lat="51.872646" lon="8.312256">
        <ele>69.688722</ele>
        <time>2024-12-28T19:51:50.419Z</time>
      </trkpt>
      <trkpt lat="51.872840" lon="8.311103">
        <ele>69.446202</ele>
        <time>2024-12-28T19:52:06.306Z</time>
      </trkpt>
      <trkpt lat="51.872646" lon="8.312256">
        <ele>69.553906</ele>
        <time>2024-12-28T19:52:23.642Z</time>
      </trkpt>
      <trkpt lat="51.872445" lon="8.313448">
        <ele>69.637682</ele>
        <time>2024-12-28T19:52:42.494Z</time>
      </trkpt>
      <trkpt lat="51.872366" lon="8.313913">
        <ele>69.563216</ele>
        <time>2024-12-28T19:52:49.154Z</time>
      </trkpt>
      <trkpt lat="51.872296" lon="8.314344">
        <ele>69.494404</ele>
        <time>2024-12-28T19:52:55.111Z</time>
      </trkpt>
      <trkpt lat="51.872791" lon="8.314258">
        <ele>69.369905</ele>
        <time>2024-12-28T19:53:05.563Z</time>
      </trkpt>
      <trkpt lat="51.873043" lon="8.314314">
        <ele>69.306295</ele>
        <time>2024-12-28T19:53:10.826Z</time>
      </trkpt>
      <trkpt lat="51.873610" lon="8.314538">
        <ele>69.199796</ele>
        <time>2024-12-28T19:53:22.785Z</time>
      </trkpt>
      <trkpt lat="51.874785" lon="8.315018">
        <ele>69.162701</ele>
        <time>2024-12-28T19:53:49.758Z</time>
      </trkpt>
      <trkpt lat="51.875108" lon="8.315142">
        <ele>69.152540</ele>
        <time>2024-12-28T19:53:57.761Z</time>
      </trkpt>
      <trkpt lat="51.875287" lon="8.315218">
        <ele>69.181774</ele>
        <time>2024-12-28T19:54:02.278Z</time>
      </trkpt>
      <trkpt lat="51.875287" lon="8.315218">
        <ele>69.181774</ele>
        <time>2024-12-28T19:54:02.289Z</time>
      </trkpt>
      <trkpt lat="51.875287" lon="8.315218">
        <ele>69.181774</ele>
        <time>2024-12-28T19:54:02.289Z</time>
      </trkpt>
      <trkpt lat="51.875285" lon="8.315229">
        <ele>69.183805</ele>
        <time>2024-12-28T19:54:02.472Z</time>
      </trkpt>
      <trkpt lat="51.875400" lon="8.315288">
        <ele>69.218412</ele>
        <time>2024-12-28T19:54:05.591Z</time>
      </trkpt>
      <trkpt lat="51.875507" lon="8.315336">
        <ele>69.250265</ele>
        <time>2024-12-28T19:54:08.463Z</time>
      </trkpt>
      <trkpt lat="51.875591" lon="8.315045">
        <ele>69.307162</ele>
        <time>2024-12-28T19:54:13.591Z</time>
      </trkpt>
      <trkpt lat="51.875625" lon="8.314869">
        <ele>69.339826</ele>
        <time>2024-12-28T19:54:16.535Z</time>
      </trkpt>
      <trkpt lat="51.875653" lon="8.314691">
        <ele>69.372360</ele>
        <time>2024-12-28T19:54:19.468Z</time>
      </trkpt>
      <trkpt lat="51.875674" lon="8.314506">
        <ele>69.405676</ele>
        <time>2024-12-28T19:54:22.471Z</time>
      </trkpt>
      <trkpt lat="51.875709" lon="8.314321">
        <ele>69.439947</ele>
        <time>2024-12-28T19:54:25.560Z</time>
      </trkpt>
      <trkpt lat="51.875759" lon="8.314152">
        <ele>69.473139</ele>
        <time>2024-12-28T19:54:28.552Z</time>
      </trkpt>
      <trkpt lat="51.875781" lon="8.313965">
        <ele>69.506856</ele>
        <time>2024-12-28T19:54:31.591Z</time>
      </trkpt>
      <trkpt lat="51.875831" lon="8.313800">
        <ele>69.539411</ele>
        <time>2024-12-28T19:54:34.525Z</time>
      </trkpt>
      <trkpt lat="51.875857" lon="8.313612">
        <ele>69.573535</ele>
        <time>2024-12-28T19:54:37.601Z</time>
      </trkpt>
      <trkpt lat="51.875896" lon="8.313434">
        <ele>69.606988</ele>
        <time>2024-12-28T19:54:40.616Z</time>
      </trkpt>
      <trkpt lat="51.875924" lon="8.313250">
        <ele>69.640553</ele>
        <time>2024-12-28T19:54:43.642Z</time>
      </trkpt>
      <trkpt lat="51.875975" lon="8.313076">
        <ele>69.675627</ele>
        <time>2024-12-28T19:54:46.717Z</time>
      </trkpt>
      <trkpt lat="51.875997" lon="8.312886">
        <ele>69.713770</ele>
        <time>2024-12-28T19:54:49.803Z</time>
      </trkpt>
      <trkpt lat="51.876031" lon="8.312704">
        <ele>69.751289</ele>
        <time>2024-12-28T19:54:52.839Z</time>
      </trkpt>
      <trkpt lat="51.876066" lon="8.312524">
        <ele>69.788526</ele>
        <time>2024-12-28T19:54:55.851Z</time>
      </trkpt>
      <trkpt lat="51.876116" lon="8.312359">
        <ele>69.824792</ele>
        <time>2024-12-28T19:54:58.786Z</time>
      </trkpt>
      <trkpt lat="51.876148" lon="8.312197">
        <ele>69.858353</ele>
        <time>2024-12-28T19:55:01.501Z</time>
      </trkpt>
      <trkpt lat="51.876177" lon="8.312056">
        <ele>69.887678</ele>
        <time>2024-12-28T19:55:03.874Z</time>
      </trkpt>
      <trkpt lat="51.876358" lon="8.312099">
        <ele>69.946145</ele>
        <time>2024-12-28T19:55:08.605Z</time>
      </trkpt>
      <trkpt lat="51.876249" lon="8.312084">
        <ele>69.981107</ele>
        <time>2024-12-28T19:55:11.433Z</time>
      </trkpt>
      <trkpt lat="51.876178" lon="8.311947">
        <ele>70.016400</ele>
        <time>2024-12-28T19:55:14.289Z</time>
      </trkpt>
      <trkpt lat="51.876143" lon="8.311791">
        <ele>70.049151</ele>
        <time>2024-12-28T19:55:16.939Z</time>
      </trkpt>
      <trkpt lat="51.876869" lon="8.311332">
        <ele>70.295237</ele>
        <time>2024-12-28T19:55:37.092Z</time>
      </trkpt>
      <trkpt lat="51.876901" lon="8.311179">
        <ele>70.325440</ele>
        <time>2024-12-28T19:55:39.671Z</time>
      </trkpt>
      <trkpt lat="51.876941" lon="8.311036">
        <ele>70.354792</ele>
        <time>2024-12-28T19:55:42.177Z</time>
      </trkpt>
      <trkpt lat="51.876968" lon="8.310887">
        <ele>70.383826</ele>
        <time>2024-12-28T19:55:44.656Z</time>
      </trkpt>
      <trkpt lat="51.876998" lon="8.310738">
        <ele>70.413128</ele>
        <time>2024-12-28T19:55:47.158Z</time>
      </trkpt>
      <trkpt lat="51.877024" lon="8.310585">
        <ele>70.442797</ele>
        <time>2024-12-28T19:55:49.692Z</time>
      </trkpt>
      <trkpt lat="51.877050" lon="8.310432">
        <ele>70.472467</ele>
        <time>2024-12-28T19:55:52.225Z</time>
      </trkpt>
      <trkpt lat="51.877083" lon="8.310286">
        <ele>70.501536</ele>
        <time>2024-12-28T19:55:54.707Z</time>
      </trkpt>
      <trkpt lat="51.877110" lon="8.310139">
        <ele>70.530211</ele>
        <time>2024-12-28T19:55:57.156Z</time>
      </trkpt>
      <trkpt lat="51.877137" lon="8.309983">
        <ele>70.560502</ele>
        <time>2024-12-28T19:55:59.742Z</time>
      </trkpt>
      <trkpt lat="51.877169" lon="8.309832">
        <ele>70.590351</ele>
        <time>2024-12-28T19:56:02.291Z</time>
      </trkpt>
      <trkpt lat="51.877203" lon="8.309670">
        <ele>70.622341</ele>
        <time>2024-12-28T19:56:05.023Z</time>
      </trkpt>
      <trkpt lat="51.877307" lon="8.309586">
        <ele>70.657536</ele>
        <time>2024-12-28T19:56:08.028Z</time>
      </trkpt>
      <trkpt lat="51.877404" lon="8.309593">
        <ele>70.686942</ele>
        <time>2024-12-28T19:56:10.539Z</time>
      </trkpt>
      <trkpt lat="51.877512" lon="8.309635">
        <ele>70.720579</ele>
        <time>2024-12-28T19:56:13.411Z</time>
      </trkpt>
      <trkpt lat="51.877512" lon="8.309639">
        <ele>70.721327</ele>
        <time>2024-12-28T19:56:13.479Z</time>
      </trkpt>
      <trkpt lat="51.877682" lon="8.309692">
        <ele>70.773757</ele>
        <time>2024-12-28T19:56:19.988Z</time>
      </trkpt>
      <trkpt lat="51.877933" lon="8.309645">
        <ele>70.662254</ele>
        <time>2024-12-28T19:56:29.373Z</time>
      </trkpt>
      <trkpt lat="51.878150" lon="8.309498">
        <ele>70.525670</ele>
        <time>2024-12-28T19:56:38.063Z</time>
      </trkpt>
      <trkpt lat="51.879615" lon="8.308146">
        <ele>69.404416</ele>
        <time>2024-12-28T19:57:37.047Z</time>
      </trkpt>
      <trkpt lat="51.879555" lon="8.308047">
        <ele>69.318383</ele>
        <time>2024-12-28T19:57:38.705Z</time>
      </trkpt>
      <trkpt lat="51.879178" lon="8.306942">
        <ele>68.535462</ele>
        <time>2024-12-28T19:57:53.842Z</time>
      </trkpt>
      <trkpt lat="51.878014" lon="8.304300">
        <ele>67.085783</ele>
        <time>2024-12-28T19:58:34.444Z</time>
      </trkpt>
      <trkpt lat="51.877914" lon="8.304002">
        <ele>66.959338</ele>
        <time>2024-12-28T19:58:38.984Z</time>
      </trkpt>
      <trkpt lat="51.877859" lon="8.303704">
        <ele>66.850757</ele>
        <time>2024-12-28T19:58:43.151Z</time>
      </trkpt>
      <trkpt lat="51.877842" lon="8.303427">
        <ele>66.898896</ele>
        <time>2024-12-28T19:58:46.912Z</time>
      </trkpt>
      <trkpt lat="51.877874" lon="8.303178">
        <ele>66.942879</ele>
        <time>2024-12-28T19:58:50.402Z</time>
      </trkpt>
      <trkpt lat="51.877889" lon="8.302863">
        <ele>66.997515</ele>
        <time>2024-12-28T19:58:54.810Z</time>
      </trkpt>
      <trkpt lat="51.877890" lon="8.302814">
        <ele>67.005993</ele>
        <time>2024-12-28T19:58:55.508Z</time>
      </trkpt>
      <trkpt lat="51.877817" lon="8.301844">
        <ele>67.174979</ele>
        <time>2024-12-28T19:59:10.197Z</time>
      </trkpt>
      <trkpt lat="51.877668" lon="8.300963">
        <ele>67.332947</ele>
        <time>2024-12-28T19:59:24.187Z</time>
      </trkpt>
      <trkpt lat="51.877439" lon="8.300099">
        <ele>67.747985</ele>
        <time>2024-12-28T19:59:38.720Z</time>
      </trkpt>
      <trkpt lat="51.877290" lon="8.299608">
        <ele>68.009290</ele>
        <time>2024-12-28T19:59:47.514Z</time>
      </trkpt>
      <trkpt lat="51.876840" lon="8.298454">
        <ele>68.661196</ele>
        <time>2024-12-28T20:00:10.203Z</time>
      </trkpt>
      <trkpt lat="51.876762" lon="8.298269">
        <ele>68.756214</ele>
        <time>2024-12-28T20:00:13.857Z</time>
      </trkpt>
      <trkpt lat="51.876490" lon="8.297282">
        <ele>69.019155</ele>
        <time>2024-12-28T20:00:31.322Z</time>
      </trkpt>
      <trkpt lat="51.876462" lon="8.297104">
        <ele>69.063841</ele>
        <time>2024-12-28T20:00:34.220Z</time>
      </trkpt>
      <trkpt lat="51.876431" lon="8.296424">
        <ele>69.229714</ele>
        <time>2024-12-28T20:00:44.648Z</time>
      </trkpt>
      <trkpt lat="51.878119" lon="8.295425">
        <ele>69.292545</ele>
        <time>2024-12-28T20:01:23.369Z</time>
      </trkpt>
      <trkpt lat="51.878281" lon="8.295391">
        <ele>69.271328</ele>
        <time>2024-12-28T20:01:26.884Z</time>
      </trkpt>
      <trkpt lat="51.879408" lon="8.295794">
        <ele>69.438711</ele>
        <time>2024-12-28T20:01:53.701Z</time>
      </trkpt>
      <trkpt lat="51.879448" lon="8.295808">
        <ele>69.450696</ele>
        <time>2024-12-28T20:01:54.717Z</time>
      </trkpt>
      <trkpt lat="51.880240" lon="8.296073">
        <ele>69.687545</ele>
        <time>2024-12-28T20:02:14.403Z</time>
      </trkpt>
      <trkpt lat="51.880693" lon="8.296229">
        <ele>69.728147</ele>
        <time>2024-12-28T20:02:25.764Z</time>
      </trkpt>
      <trkpt lat="51.881440" lon="8.296493">
        <ele>69.677518</ele>
        <time>2024-12-28T20:02:42.726Z</time>
      </trkpt>
      <trkpt lat="51.882056" lon="8.296708">
        <ele>69.635791</ele>
        <time>2024-12-28T20:02:56.279Z</time>
      </trkpt>
      <trkpt lat="51.882557" lon="8.296883">
        <ele>69.486660</ele>
        <time>2024-12-28T20:03:07.014Z</time>
      </trkpt>
      <trkpt lat="51.884023" lon="8.297393">
        <ele>68.956042</ele>
        <time>2024-12-28T20:03:38.559Z</time>
      </trkpt>
      <trkpt lat="51.884076" lon="8.297410">
        <ele>68.958757</ele>
        <time>2024-12-28T20:03:39.745Z</time>
      </trkpt>
      <trkpt lat="51.885728" lon="8.297979">
        <ele>69.042094</ele>
        <time>2024-12-28T20:04:18.531Z</time>
      </trkpt>
      <trkpt lat="51.887081" lon="8.298352">
        <ele>68.996472</ele>
        <time>2024-12-28T20:04:48.761Z</time>
      </trkpt>
      <trkpt lat="51.889212" lon="8.298934">
        <ele>68.906570</ele>
        <time>2024-12-28T20:05:36.562Z</time>
      </trkpt>
      <trkpt lat="51.889246" lon="8.298607">
        <ele>68.898905</ele>
        <time>2024-12-28T20:05:41.123Z</time>
      </trkpt>
      <trkpt lat="51.889311" lon="8.298591">
        <ele>68.896558</ele>
        <time>2024-12-28T20:05:42.584Z</time>
      </trkpt>
      <trkpt lat="51.891503" lon="8.296211">
        <ele>68.840362</ele>
        <time>2024-12-28T20:06:41.106Z</time>
      </trkpt>
      <trkpt lat="51.891540" lon="8.296171">
        <ele>68.840362</ele>
        <time>2024-12-28T20:06:42.100Z</time>
      </trkpt>
      <trkpt lat="51.891577" lon="8.296251">
        <ele>68.840362</ele>
        <time>2024-12-28T20:06:43.919Z</time>
      </trkpt>
      <trkpt lat="51.891794" lon="8.296385">
        <ele>68.840362</ele>
        <time>2024-12-28T20:06:50.789Z</time>
      </trkpt>
      <trkpt lat="51.891875" lon="8.296313">
        <ele>68.840362</ele>
        <time>2024-12-28T20:06:53.555Z</time>
      </trkpt>
    </trkseg>
  </trk>
</gpx>